Darstellungsparameter: Aktuell verwendete Einstellungen:
Skalierung der Graphiken ... ?
xyx+y,   Skalierungsfaktor:      Skalierung: Modus: x, Faktor: 1
Darstellungszeitraum ... ?
Vom - - bis: - -   Zeitraum: 23.04.2005 - 22.05.2005
Min/Max/Avg-Anzeige ... ?
Zeige MMA aktuell
Zeige MMA Monat
Zeige MMA alles
Zeige --A aktuell
Zeige --A Monat
Zeige --A alles
Keine MMA-Anzeige
MMA:
Average (ber die Originaldaten)
MMA-Basis: 23.04.2005 - 22.05.2005
Quicknavigation für Darstellung... ?
Tage:      1T, 2T, 3T, 5T -1T -2T -3T -5T +1T +2T +3T +5T
Wochen: 1W, 2W, 3W -1W -2W -3W +1W +2W +3W
Monate: 1M, 3M, 6M -1M -3M -6M +1M +3M +6M
Jahre:    1J, 3J, 5J, 10J -1J -3J -5J -10J +1J +3J +5J +10J
Nutze für die Darstellung ... ?
Originaldaten oder Mittelwerte auf ...
Stundenbasis Tagesbasis Wochenbasis
Monatsbasis Jahresbasis      Datenbasis: Original-Daten
Darstellen als:
Statistik (Auto) Statistik J:M      Darstellung:
Zur Graphik,    zurück zur Übersicht aller Sensoren.
 
Tabellarische Datenbersicht: ?
 
Sensor: Nr:Datum:Temp:Abs-Feuchte:Windchill:Wind:
Aussen-T/F 1 23-04-2005 00:01:02 8.6 C 4.81 g/m*3 8.6 C 0 km/h
2 23-04-2005 00:13:02 8.4 C 4.92 g/m*3 8.4 C 0 km/h
3 23-04-2005 00:25:03 8.1 C 4.99 g/m*3 8.1 C 0 km/h
4 23-04-2005 00:37:02 7.8 C 4.98 g/m*3 7.8 C 0 km/h
5 23-04-2005 00:49:02 7.6 C 4.91 g/m*3 7.6 C 0 km/h
6 23-04-2005 01:01:03 7.3 C 4.82 g/m*3 7.3 C 0 km/h
7 23-04-2005 01:13:03 7.2 C 4.79 g/m*3 7.2 C 0 km/h
8 23-04-2005 01:25:02 6.9 C 4.77 g/m*3 6.9 C 0 km/h
9 23-04-2005 01:37:02 6.8 C 4.97 g/m*3 6.8 C 0 km/h
10 23-04-2005 01:49:02 6.5 C 4.87 g/m*3 6.5 C 0 km/h
11 23-04-2005 02:01:02 6.3 C 4.74 g/m*3 6.3 C 0 km/h
12 23-04-2005 02:13:03 6.1 C 4.68 g/m*3 6.1 C 0 km/h
13 23-04-2005 02:25:02 5.9 C 4.76 g/m*3 5.9 C 0 km/h
14 23-04-2005 02:37:02 5.6 C 4.74 g/m*3 5.6 C 0 km/h
15 23-04-2005 02:50:03 5.5 C 4.78 g/m*3 5.5 C 0 km/h
16 23-04-2005 03:02:03 5.4 C 4.88 g/m*3 5.4 C 0 km/h
17 23-04-2005 03:14:04 5.2 C 4.82 g/m*3 5.2 C 0 km/h
18 23-04-2005 03:26:04 4.9 C 4.79 g/m*3 4.9 C 0 km/h
19 23-04-2005 03:38:03 4.8 C 4.83 g/m*3 4.8 C 0 km/h
20 23-04-2005 03:50:03 4.6 C 4.83 g/m*3 4.6 C 0 km/h
21 23-04-2005 04:02:02 4.4 C 4.83 g/m*3 4.4 C 0 km/h
22 23-04-2005 04:14:02 4.3 C 4.86 g/m*3 4.3 C 0 km/h
23 23-04-2005 04:26:02 4.1 C 4.8 g/m*3 4.1 C 0 km/h
24 23-04-2005 04:38:02 3.8 C 4.77 g/m*3 3.8 C 0 km/h
25 23-04-2005 04:50:02 3.7 C 4.8 g/m*3 3.7 C 0 km/h
Sensor: Nr:Datum:Temp:Abs-Feuchte:Windchill:Wind:
Aussen-T/F 26 23-04-2005 05:02:02 3.6 C 4.83 g/m*3 3.6 C 0 km/h
27 23-04-2005 05:14:03 3.4 C 4.83 g/m*3 3.4 C 0 km/h
28 23-04-2005 05:26:02 3.3 C 4.85 g/m*3 3.3 C 0 km/h
29 23-04-2005 05:38:02 3.2 C 4.88 g/m*3 3.2 C 0 km/h
30 23-04-2005 05:50:02 3.1 C 4.85 g/m*3 3.1 C 0 km/h
31 23-04-2005 06:02:02 2.9 C 4.78 g/m*3 2.9 C 0 km/h
32 23-04-2005 06:14:02 2.7 C 4.78 g/m*3 2.7 C 0 km/h
33 23-04-2005 06:26:01 2.7 C 4.78 g/m*3 2.7 C 0 km/h
34 23-04-2005 06:38:02 2.6 C 4.75 g/m*3 2.6 C 0 km/h
35 23-04-2005 06:50:01 2.6 C 4.8 g/m*3 2.6 C 0 km/h
36 23-04-2005 07:02:02 2.6 C 4.8 g/m*3 2.6 C 0 km/h
37 23-04-2005 07:14:02 2.6 C 4.86 g/m*3 2.6 C 0 km/h
38 23-04-2005 07:26:02 2.7 C 4.89 g/m*3 2.7 C 0 km/h
39 23-04-2005 07:38:01 2.8 C 4.93 g/m*3 2.8 C 0 km/h
40 23-04-2005 07:50:02 3 C 4.99 g/m*3 3 C 0 km/h
41 23-04-2005 08:02:01 3.2 C 5.06 g/m*3 3.2 C 0 km/h
42 23-04-2005 08:14:01 3.4 C 5.13 g/m*3 3.4 C 0 km/h
43 23-04-2005 08:26:01 3.6 C 5.14 g/m*3 3.6 C 0 km/h
44 23-04-2005 08:38:02 3.9 C 5.18 g/m*3 3.9 C 0 km/h
45 23-04-2005 08:50:02 4.3 C 5.25 g/m*3 4.3 C 0 km/h
46 23-04-2005 09:02:02 4.6 C 5.23 g/m*3 4.6 C 0 km/h
47 23-04-2005 09:14:02 5.2 C 5.37 g/m*3 5.2 C 0 km/h
48 23-04-2005 09:26:02 5.8 C 5.44 g/m*3 5.8 C 0 km/h
49 23-04-2005 09:38:02 6.4 C 5.44 g/m*3 6.4 C 0 km/h
50 23-04-2005 09:50:04 7 C 5.5 g/m*3 7 C 0 km/h
Sensor: Nr:Datum:Temp:Abs-Feuchte:Windchill:Wind:
Aussen-T/F 51 23-04-2005 10:02:03 7.9 C 5.67 g/m*3 7.9 C 0 km/h
52 23-04-2005 10:14:03 8.5 C 5.64 g/m*3 8.5 C 0 km/h
53 23-04-2005 10:26:02 9.3 C 5.84 g/m*3 9.3 C 0 km/h
54 23-04-2005 10:38:03 10.3 C 5.94 g/m*3 10.3 C 0 km/h
55 23-04-2005 10:50:02 11.2 C 5.68 g/m*3 11.2 C 0 km/h
56 23-04-2005 11:02:02 11.8 C 5.47 g/m*3 11.8 C 0 km/h
57 23-04-2005 11:14:02 13.1 C 4.91 g/m*3 13.1 C 0 km/h
58 23-04-2005 11:26:02 13.7 C 4.74 g/m*3 13.7 C 0 km/h
59 23-04-2005 11:38:02 14.6 C 4.5 g/m*3 14.6 C 0 km/h
60 23-04-2005 11:50:02 15.4 C 4.6 g/m*3 15.4 C 0 km/h
61 23-04-2005 12:02:02 15.7 C 4.42 g/m*3 15.7 C 0 km/h
62 23-04-2005 12:14:02 16.4 C 4.61 g/m*3 16.4 C 0 km/h
63 23-04-2005 12:26:02 16.8 C 4.58 g/m*3 16.8 C 0 km/h
64 23-04-2005 12:38:01 17.1 C 4.22 g/m*3 17.1 C 0 km/h
65 23-04-2005 12:50:02 17.2 C 3.95 g/m*3 17.2 C 0 km/h
66 23-04-2005 13:02:01 17.9 C 4.43 g/m*3 17.9 C 0 km/h
67 23-04-2005 13:14:01 18.5 C 4.11 g/m*3 18.5 C 0 km/h
68 23-04-2005 13:26:02 18.9 C 3.73 g/m*3 18.9 C 0 km/h
69 23-04-2005 13:38:03 19.3 C 3.48 g/m*3 19.3 C 0 km/h
70 23-04-2005 13:50:03 19.2 C 3.3 g/m*3 19.2 C 0 km/h
71 23-04-2005 14:02:03 20 C 3.46 g/m*3 20 C 0 km/h
72 23-04-2005 14:14:03 20.2 C 3.5 g/m*3 20.2 C 0 km/h
73 23-04-2005 14:26:03 20.3 C 3.52 g/m*3 20.3 C 0 km/h
74 23-04-2005 14:38:02 21.2 C 3.71 g/m*3 21.2 C 0 km/h
75 23-04-2005 14:50:02 20.1 C 3.48 g/m*3 20.1 C 0 km/h
Sensor: Nr:Datum:Temp:Abs-Feuchte:Windchill:Wind:
Aussen-T/F 76 23-04-2005 15:02:02 19.8 C 3.42 g/m*3 19.8 C 0 km/h
77 23-04-2005 15:14:02 20.4 C 3.54 g/m*3 20.4 C 0 km/h
78 23-04-2005 15:26:03 20.2 C 3.5 g/m*3 20.2 C 0 km/h
79 23-04-2005 15:38:01 20.2 C 3.5 g/m*3 20.2 C 0 km/h
80 23-04-2005 15:50:02 21.1 C 3.69 g/m*3 21.1 C 0 km/h
81 23-04-2005 16:02:02 20.6 C 3.58 g/m*3 20.6 C 0 km/h
82 23-04-2005 16:14:02 20.2 C 3.5 g/m*3 20.2 C 0 km/h
83 23-04-2005 16:26:02 19.2 C 3.63 g/m*3 19.2 C 0 km/h
84 23-04-2005 16:38:01 19.1 C 4.1 g/m*3 19.1 C 0 km/h
85 23-04-2005 16:50:02 19 C 3.91 g/m*3 19 C 0 km/h
86 23-04-2005 17:02:02 18.9 C 4.05 g/m*3 18.9 C 0 km/h
87 23-04-2005 17:14:02 17.7 C 4.98 g/m*3 17.7 C 0 km/h
88 23-04-2005 17:26:01 17.6 C 5.25 g/m*3 17.6 C 0 km/h
89 23-04-2005 17:38:02 16.5 C 5.06 g/m*3 16.5 C 0 km/h
90 23-04-2005 17:50:02 16.4 C 5.44 g/m*3 16.4 C 0 km/h
91 23-04-2005 18:02:02 16 C 5.59 g/m*3 16 C 0 km/h
92 23-04-2005 18:14:02 15.3 C 5.75 g/m*3 15.3 C 0 km/h
93 23-04-2005 18:26:01 14.9 C 6.12 g/m*3 14.9 C 0 km/h
94 23-04-2005 18:38:01 14.1 C 6.43 g/m*3 14.1 C 0 km/h
95 23-04-2005 18:50:01 13 C 7.94 g/m*3 13 C 0 km/h
96 23-04-2005 19:02:01 12.5 C 8.14 g/m*3 12.5 C 0 km/h
97 23-04-2005 19:14:01 12.1 C 8.26 g/m*3 12.1 C 0 km/h
98 23-04-2005 19:26:01 11.8 C 8.31 g/m*3 11.8 C 0 km/h
99 23-04-2005 19:38:01 11.9 C 8.58 g/m*3 11.9 C 0 km/h
100 23-04-2005 19:50:02 12 C 8.85 g/m*3 12 C 0 km/h
Sensor: Nr:Datum:Temp:Abs-Feuchte:Windchill:Wind:
Aussen-T/F 101 23-04-2005 20:02:01 12.1 C 9.12 g/m*3 12.1 C 0 km/h
102 23-04-2005 20:14:01 12 C 9.06 g/m*3 12 C 0 km/h
103 23-04-2005 20:26:02 11.8 C 8.95 g/m*3 11.8 C 0 km/h
104 23-04-2005 20:38:01 11.5 C 8.78 g/m*3 11.5 C 0 km/h
105 23-04-2005 20:50:02 11.6 C 8.73 g/m*3 11.6 C 0 km/h
106 23-04-2005 21:02:01 11.5 C 8.88 g/m*3 11.5 C 0 km/h
107 23-04-2005 21:14:01 11.2 C 8.62 g/m*3 11.2 C 0 km/h
108 23-04-2005 21:26:02 11 C 8.51 g/m*3 11 C 0 km/h
109 23-04-2005 21:38:02 11.4 C 8.83 g/m*3 11.4 C 0 km/h
110 23-04-2005 21:50:01 11.4 C 8.72 g/m*3 11.4 C 0 km/h
111 23-04-2005 22:02:02 11.3 C 8.57 g/m*3 11.3 C 0 km/h
112 23-04-2005 22:14:02 11.1 C 8.56 g/m*3 11.1 C 0 km/h
113 23-04-2005 22:26:02 11 C 8.51 g/m*3 11 C 0 km/h
114 23-04-2005 22:38:01 11.2 C 8.82 g/m*3 11.2 C 0 km/h
115 23-04-2005 22:50:01 11.2 C 8.82 g/m*3 11.2 C 0 km/h
116 23-04-2005 23:02:02 11.1 C 8.76 g/m*3 11.1 C 0 km/h
117 23-04-2005 23:14:02 11.1 C 8.76 g/m*3 11.1 C 0 km/h
118 23-04-2005 23:26:02 11.3 C 8.87 g/m*3 11.3 C 0 km/h
119 23-04-2005 23:38:05 11.4 C 8.93 g/m*3 11.4 C 0 km/h
120 23-04-2005 23:50:03 11.4 C 8.83 g/m*3 11.4 C 0 km/h
121 24-04-2005 00:02:02 11.2 C 8.62 g/m*3 11.2 C 0 km/h
122 24-04-2005 00:14:02 10.9 C 8.45 g/m*3 10.9 C 0 km/h
123 24-04-2005 00:26:04 10.8 C 8.4 g/m*3 10.8 C 0 km/h
124 24-04-2005 00:38:05 10.9 C 8.45 g/m*3 10.9 C 0 km/h
125 24-04-2005 00:50:04 10.9 C 8.36 g/m*3 10.9 C 0 km/h
Sensor: Nr:Datum:Temp:Abs-Feuchte:Windchill:Wind:
Aussen-T/F 126 24-04-2005 01:02:04 11 C 8.41 g/m*3 11 C 0 km/h
127 24-04-2005 01:14:04 10.8 C 8.3 g/m*3 10.8 C 0 km/h
128 24-04-2005 01:26:04 10.7 C 8.25 g/m*3 10.7 C 0 km/h
129 24-04-2005 01:38:02 10.6 C 8.2 g/m*3 10.6 C 0 km/h
130 24-04-2005 01:50:02 10.4 C 8.1 g/m*3 10.4 C 0 km/h
131 24-04-2005 02:02:02 10.5 C 8.24 g/m*3 10.5 C 0 km/h
132 24-04-2005 02:14:02 10.6 C 8.3 g/m*3 10.6 C 0 km/h
133 24-04-2005 02:26:03 10.7 C 8.35 g/m*3 10.7 C 0 km/h
134 24-04-2005 02:38:03 10.6 C 8.3 g/m*3 10.6 C 0 km/h
135 24-04-2005 02:51:03 10.6 C 8.3 g/m*3 10.6 C 0 km/h
136 24-04-2005 03:03:03 10.5 C 8.24 g/m*3 10.5 C 0 km/h
137 24-04-2005 03:15:04 10.6 C 8.39 g/m*3 10.6 C 0 km/h
138 24-04-2005 03:27:04 10.7 C 8.45 g/m*3 10.7 C 0 km/h
139 24-04-2005 03:39:03 10.7 C 8.45 g/m*3 10.7 C 0 km/h
140 24-04-2005 03:51:03 10.7 C 8.45 g/m*3 10.7 C 0 km/h
141 24-04-2005 04:03:03 10.7 C 8.45 g/m*3 10.7 C 0 km/h
142 24-04-2005 04:15:03 10.7 C 8.45 g/m*3 10.7 C 0 km/h
143 24-04-2005 04:27:03 10.8 C 8.5 g/m*3 10.8 C 0 km/h
144 24-04-2005 04:39:03 10.8 C 8.5 g/m*3 10.8 C 0 km/h
145 24-04-2005 04:51:02 10.7 C 8.45 g/m*3 10.7 C 0 km/h
146 24-04-2005 05:03:01 10.8 C 8.5 g/m*3 10.8 C 0 km/h
147 24-04-2005 05:15:02 10.7 C 8.45 g/m*3 10.7 C 0 km/h
148 24-04-2005 05:27:02 10.7 C 8.45 g/m*3 10.7 C 0 km/h
149 24-04-2005 05:39:02 10.7 C 8.45 g/m*3 10.7 C 0 km/h
150 24-04-2005 05:51:02 10.7 C 8.45 g/m*3 10.7 C 0 km/h
Sensor: Nr:Datum:Temp:Abs-Feuchte:Windchill:Wind:
Aussen-T/F 151 24-04-2005 06:03:01 10.7 C 8.45 g/m*3 10.7 C 0 km/h
152 24-04-2005 06:15:01 10.7 C 8.45 g/m*3 10.7 C 0 km/h
153 24-04-2005 06:27:01 10.7 C 8.45 g/m*3 10.7 C 0 km/h
154 24-04-2005 06:39:02 10.7 C 8.45 g/m*3 10.7 C 0 km/h
155 24-04-2005 06:51:02 10.8 C 8.5 g/m*3 10.8 C 0 km/h
156 24-04-2005 07:03:03 10.9 C 8.55 g/m*3 10.9 C 0 km/h
157 24-04-2005 07:15:02 11.1 C 8.56 g/m*3 11.1 C 0 km/h
158 24-04-2005 07:27:03 11.2 C 8.62 g/m*3 11.2 C 0 km/h
159 24-04-2005 07:39:02 11.4 C 8.62 g/m*3 11.4 C 0 km/h
160 24-04-2005 07:51:02 11.7 C 8.79 g/m*3 11.7 C 0 km/h
161 24-04-2005 08:03:02 11.8 C 8.74 g/m*3 11.8 C 0 km/h
162 24-04-2005 08:15:02 12 C 8.74 g/m*3 12 C 0 km/h
163 24-04-2005 08:27:02 12.3 C 8.9 g/m*3 12.3 C 0 km/h
164 24-04-2005 08:39:02 12.7 C 8.91 g/m*3 12.7 C 0 km/h
165 24-04-2005 08:51:02 13.1 C 8.9 g/m*3 13.1 C 0 km/h
166 24-04-2005 09:03:02 13.2 C 8.84 g/m*3 13.2 C 0 km/h
167 24-04-2005 09:15:02 13.3 C 8.66 g/m*3 13.3 C 0 km/h
168 24-04-2005 09:27:02 13.7 C 8.53 g/m*3 13.7 C 0 km/h
169 24-04-2005 09:39:03 14 C 8.44 g/m*3 14 C 0 km/h
170 24-04-2005 09:51:03 14.5 C 8.58 g/m*3 14.5 C 0 km/h
171 24-04-2005 10:03:04 15.2 C 8.57 g/m*3 15.2 C 0 km/h
172 24-04-2005 10:15:04 15.4 C 8.41 g/m*3 15.4 C 0 km/h
173 24-04-2005 10:27:04 15.4 C 8.41 g/m*3 15.4 C 0 km/h
174 24-04-2005 10:39:03 15.7 C 8.43 g/m*3 15.7 C 0 km/h
175 24-04-2005 10:51:02 16 C 8.31 g/m*3 16 C 0 km/h
Sensor: Nr:Datum:Temp:Abs-Feuchte:Windchill:Wind:
Aussen-T/F 176 24-04-2005 11:03:03 16.5 C 8.43 g/m*3 16.5 C 0 km/h
177 24-04-2005 11:15:03 16.7 C 8.53 g/m*3 16.7 C 0 km/h
178 24-04-2005 11:27:03 16.8 C 8.29 g/m*3 16.8 C 0 km/h
179 24-04-2005 11:39:03 16.5 C 8.43 g/m*3 16.5 C 0 km/h
180 24-04-2005 11:51:01 16.6 C 8.33 g/m*3 16.6 C 0 km/h
181 24-04-2005 12:03:02 17.4 C 8.3 g/m*3 17.4 C 0 km/h
182 24-04-2005 12:15:02 17.6 C 8.25 g/m*3 17.6 C 0 km/h
183 24-04-2005 12:27:02 17.9 C 8.09 g/m*3 17.9 C 0 km/h
184 24-04-2005 12:39:02 18.4 C 8.18 g/m*3 18.4 C 0 km/h
185 24-04-2005 12:51:02 18.5 C 7.91 g/m*3 18.5 C 0 km/h
186 24-04-2005 13:03:01 18.7 C 8.17 g/m*3 18.7 C 0 km/h
187 24-04-2005 13:15:01 19 C 7.82 g/m*3 19 C 0 km/h
188 24-04-2005 13:27:01 19.3 C 7.8 g/m*3 19.3 C 0 km/h
189 24-04-2005 13:39:02 19.3 C 7.63 g/m*3 19.3 C 0 km/h
190 24-04-2005 13:51:02 19.8 C 7.69 g/m*3 19.8 C 0 km/h
191 24-04-2005 14:03:02 19.8 C 7.69 g/m*3 19.8 C 0 km/h
192 24-04-2005 14:15:03 19.7 C 7.3 g/m*3 19.7 C 0 km/h
193 24-04-2005 14:27:03 19.7 C 7.47 g/m*3 19.7 C 0 km/h
194 24-04-2005 14:39:03 19.3 C 6.97 g/m*3 19.3 C 0 km/h
195 24-04-2005 14:51:02 20 C 7.09 g/m*3 20 C 0 km/h
196 24-04-2005 15:03:02 19.9 C 6.87 g/m*3 19.9 C 0 km/h
197 24-04-2005 15:15:02 21.7 C 7.25 g/m*3 21.7 C 0 km/h
198 24-04-2005 15:27:02 21.5 C 7.17 g/m*3 21.5 C 0 km/h
199 24-04-2005 15:39:02 21.3 C 7.27 g/m*3 21.3 C 0 km/h
200 24-04-2005 15:51:02 20.7 C 7.38 g/m*3 20.7 C 0 km/h
Sensor: Nr:Datum:Temp:Abs-Feuchte:Windchill:Wind:
Aussen-T/F 201 24-04-2005 16:03:02 20.5 C 7.3 g/m*3 20.5 C 0 km/h
202 24-04-2005 16:15:02 20.6 C 7.34 g/m*3 20.6 C 0 km/h
203 24-04-2005 16:27:03 20.1 C 7.13 g/m*3 20.1 C 0 km/h
204 24-04-2005 16:39:01 21.5 C 7.35 g/m*3 21.5 C 0 km/h
205 24-04-2005 16:51:02 21.4 C 7.12 g/m*3 21.4 C 0 km/h
206 24-04-2005 17:03:02 21.2 C 7.04 g/m*3 21.2 C 0 km/h
207 24-04-2005 17:15:02 20.4 C 7.08 g/m*3 20.4 C 0 km/h
208 24-04-2005 17:27:03 19.7 C 7.13 g/m*3 19.7 C 0 km/h
209 24-04-2005 17:39:02 19.6 C 7.6 g/m*3 19.6 C 0 km/h
210 24-04-2005 17:51:02 18.9 C 7.45 g/m*3 18.9 C 0 km/h
211 24-04-2005 18:03:02 18.5 C 7.44 g/m*3 18.5 C 0 km/h
212 24-04-2005 18:15:02 17.1 C 7.71 g/m*3 17.1 C 0 km/h
213 24-04-2005 18:27:03 16.2 C 8.14 g/m*3 16.2 C 0 km/h
214 24-04-2005 18:39:04 16.3 C 8.05 g/m*3 16.3 C 0 km/h
215 24-04-2005 18:51:03 15.6 C 8.51 g/m*3 15.6 C 0 km/h
216 24-04-2005 19:03:03 15 C 9.23 g/m*3 15 C 0 km/h
217 24-04-2005 19:15:02 14.7 C 9.82 g/m*3 14.7 C 0 km/h
218 24-04-2005 19:27:02 14.6 C 10.26 g/m*3 14.6 C 0 km/h
219 24-04-2005 19:39:02 14.4 C 10.38 g/m*3 14.4 C 0 km/h
220 24-04-2005 19:51:02 14.1 C 10.32 g/m*3 14.1 C 0 km/h
221 24-04-2005 20:03:01 14 C 10.25 g/m*3 14 C 0 km/h
222 24-04-2005 20:15:01 13.8 C 10.25 g/m*3 13.8 C 0 km/h
223 24-04-2005 20:27:01 13.7 C 10.3 g/m*3 13.7 C 0 km/h
224 24-04-2005 20:39:02 13.4 C 10.23 g/m*3 13.4 C 0 km/h
225 24-04-2005 20:51:02 13.5 C 10.41 g/m*3 13.5 C 0 km/h
Sensor: Nr:Datum:Temp:Abs-Feuchte:Windchill:Wind:
Aussen-T/F 226 24-04-2005 21:03:02 13.2 C 10.1 g/m*3 13.2 C 0 km/h
227 24-04-2005 21:15:02 13.4 C 10.35 g/m*3 13.4 C 0 km/h
228 24-04-2005 21:27:03 13.4 C 10.23 g/m*3 13.4 C 0 km/h
229 24-04-2005 21:39:02 13.5 C 10.29 g/m*3 13.5 C 0 km/h
230 24-04-2005 21:51:02 13.3 C 10.05 g/m*3 13.3 C 0 km/h
231 24-04-2005 22:03:02 13.2 C 9.99 g/m*3 13.2 C 0 km/h
232 24-04-2005 22:15:02 13.1 C 10.04 g/m*3 13.1 C 0 km/h
233 24-04-2005 22:27:02 13 C 10.09 g/m*3 13 C 0 km/h
234 24-04-2005 22:39:02 13 C 10.09 g/m*3 13 C 0 km/h
235 24-04-2005 22:51:02 12.6 C 9.96 g/m*3 12.6 C 0 km/h
236 24-04-2005 23:03:01 12.7 C 10.02 g/m*3 12.7 C 0 km/h
237 24-04-2005 23:15:02 12.8 C 10.08 g/m*3 12.8 C 0 km/h
238 24-04-2005 23:27:02 12.6 C 10.07 g/m*3 12.6 C 0 km/h
239 24-04-2005 23:39:04 12.7 C 10.13 g/m*3 12.7 C 0 km/h
240 24-04-2005 23:51:02 12.6 C 10.07 g/m*3 12.6 C 0 km/h
241 25-04-2005 00:03:03 12.6 C 10.07 g/m*3 12.6 C 0 km/h
242 25-04-2005 00:15:03 12.6 C 10.07 g/m*3 12.6 C 0 km/h
243 25-04-2005 00:27:03 12.4 C 9.94 g/m*3 12.4 C 0 km/h
244 25-04-2005 00:39:05 12.4 C 9.94 g/m*3 12.4 C 0 km/h
245 25-04-2005 00:51:03 12.2 C 9.93 g/m*3 12.2 C 0 km/h
246 25-04-2005 01:03:02 12.2 C 9.93 g/m*3 12.2 C 0 km/h
247 25-04-2005 01:15:02 12.2 C 9.93 g/m*3 12.2 C 0 km/h
248 25-04-2005 01:27:02 12 C 9.8 g/m*3 12 C 0 km/h
249 25-04-2005 01:39:02 12.1 C 9.87 g/m*3 12.1 C 0 km/h
250 25-04-2005 01:51:02 12 C 9.8 g/m*3 12 C 0 km/h
Sensor: Nr:Datum:Temp:Abs-Feuchte:Windchill:Wind:
Aussen-T/F 251 25-04-2005 02:03:03 12 C 9.8 g/m*3 12 C 0 km/h
252 25-04-2005 02:15:02 11.8 C 9.79 g/m*3 11.8 C 0 km/h
253 25-04-2005 02:27:02 11.9 C 9.85 g/m*3 11.9 C 0 km/h
254 25-04-2005 02:39:02 11.8 C 9.79 g/m*3 11.8 C 0 km/h
255 25-04-2005 02:52:04 11.8 C 9.79 g/m*3 11.8 C 0 km/h
256 25-04-2005 03:04:04 11.9 C 9.85 g/m*3 11.9 C 0 km/h
257 25-04-2005 03:16:04 11.9 C 9.85 g/m*3 11.9 C 0 km/h
258 25-04-2005 03:28:04 11.8 C 9.79 g/m*3 11.8 C 0 km/h
259 25-04-2005 03:40:02 11.8 C 9.79 g/m*3 11.8 C 0 km/h
260 25-04-2005 03:52:02 11.8 C 9.79 g/m*3 11.8 C 0 km/h
261 25-04-2005 04:04:02 11.7 C 9.73 g/m*3 11.7 C 0 km/h
262 25-04-2005 04:16:02 11.6 C 9.67 g/m*3 11.6 C 0 km/h
263 25-04-2005 04:28:02 11.7 C 9.73 g/m*3 11.7 C 0 km/h
264 25-04-2005 04:40:02 11.7 C 9.73 g/m*3 11.7 C 0 km/h
265 25-04-2005 04:52:02 11.7 C 9.73 g/m*3 11.7 C 0 km/h
266 25-04-2005 05:04:02 11.7 C 9.73 g/m*3 11.7 C 0 km/h
267 25-04-2005 05:16:01 11.7 C 9.73 g/m*3 11.7 C 0 km/h
268 25-04-2005 05:28:01 11.7 C 9.73 g/m*3 11.7 C 0 km/h
269 25-04-2005 05:40:01 11.7 C 9.73 g/m*3 11.7 C 0 km/h
270 25-04-2005 05:52:02 11.7 C 9.73 g/m*3 11.7 C 0 km/h
271 25-04-2005 06:04:01 11.7 C 9.73 g/m*3 11.7 C 0 km/h
272 25-04-2005 06:16:02 11.7 C 9.73 g/m*3 11.7 C 0 km/h
273 25-04-2005 06:28:02 11.7 C 9.73 g/m*3 11.7 C 0 km/h
274 25-04-2005 06:40:02 11.7 C 9.73 g/m*3 11.7 C 0 km/h
275 25-04-2005 06:52:02 11.5 C 9.61 g/m*3 11.5 C 0 km/h
Sensor: Nr:Datum:Temp:Abs-Feuchte:Windchill:Wind:
Aussen-T/F 276 25-04-2005 07:04:01 11.7 C 9.73 g/m*3 11.7 C 0 km/h
277 25-04-2005 07:16:02 11.8 C 9.79 g/m*3 11.8 C 0 km/h
278 25-04-2005 07:28:02 12 C 9.91 g/m*3 12 C 0 km/h
279 25-04-2005 07:40:01 12.4 C 10.16 g/m*3 12.4 C 0 km/h
280 25-04-2005 07:52:02 12.6 C 10.29 g/m*3 12.6 C 0 km/h
281 25-04-2005 08:04:02 13 C 10.55 g/m*3 13 C 0 km/h
282 25-04-2005 08:16:02 13 C 10.43 g/m*3 13 C 0 km/h
283 25-04-2005 08:28:03 13.2 C 10.45 g/m*3 13.2 C 0 km/h
284 25-04-2005 08:40:01 13.5 C 10.53 g/m*3 13.5 C 0 km/h
285 25-04-2005 08:52:02 13.6 C 10.47 g/m*3 13.6 C 0 km/h
286 25-04-2005 09:04:03 13.5 C 10.18 g/m*3 13.5 C 0 km/h
287 25-04-2005 09:16:02 13.8 C 10.13 g/m*3 13.8 C 0 km/h
288 25-04-2005 09:28:03 14 C 10.13 g/m*3 14 C 0 km/h
289 25-04-2005 09:40:02 14.4 C 10.14 g/m*3 14.4 C 0 km/h
290 25-04-2005 09:52:02 14.8 C 10.13 g/m*3 14.8 C 0 km/h
291 25-04-2005 10:04:02 14.7 C 9.95 g/m*3 14.7 C 0 km/h
292 25-04-2005 10:16:03 14.7 C 9.95 g/m*3 14.7 C 0 km/h
293 25-04-2005 10:28:03 14.6 C 10.01 g/m*3 14.6 C 0 km/h
294 25-04-2005 10:40:02 14.7 C 10.07 g/m*3 14.7 C 0 km/h
295 25-04-2005 10:52:02 14.9 C 10.07 g/m*3 14.9 C 0 km/h
296 25-04-2005 11:04:02 15.5 C 10.05 g/m*3 15.5 C 0 km/h
297 25-04-2005 11:16:02 15.5 C 9.78 g/m*3 15.5 C 0 km/h
298 25-04-2005 11:28:02 15.6 C 10.11 g/m*3 15.6 C 0 km/h
299 25-04-2005 11:40:02 15.6 C 9.97 g/m*3 15.6 C 0 km/h
300 25-04-2005 11:52:02 14.9 C 9.69 g/m*3 14.9 C 0 km/h
Sensor: Nr:Datum:Temp:Abs-Feuchte:Windchill:Wind:
Aussen-T/F 301 25-04-2005 12:04:03 14.5 C 9.7 g/m*3 14.5 C 0 km/h
302 25-04-2005 12:16:04 14.2 C 9.77 g/m*3 14.2 C 0 km/h
303 25-04-2005 12:28:04 14.4 C 10.26 g/m*3 14.4 C 0 km/h
304 25-04-2005 12:40:03 14.8 C 10.26 g/m*3 14.8 C 0 km/h
305 25-04-2005 12:52:03 14.8 C 10.26 g/m*3 14.8 C 0 km/h
306 25-04-2005 13:04:02 15 C 10.51 g/m*3 15 C 0 km/h
307 25-04-2005 13:16:02 15 C 10.51 g/m*3 15 C 0 km/h
308 25-04-2005 13:28:02 15.6 C 10.77 g/m*3 15.6 C 0 km/h
309 25-04-2005 13:40:02 16.7 C 10.66 g/m*3 16.7 C 0 km/h
310 25-04-2005 13:52:02 17.1 C 10.34 g/m*3 17.1 C 0 km/h
311 25-04-2005 14:04:02 17.2 C 10.1 g/m*3 17.2 C 0 km/h
312 25-04-2005 14:16:01 17.4 C 10.08 g/m*3 17.4 C 0 km/h
313 25-04-2005 14:28:01 17.7 C 10.11 g/m*3 17.7 C 0 km/h
314 25-04-2005 14:40:02 17.8 C 9.87 g/m*3 17.8 C 0 km/h
315 25-04-2005 14:52:01 18.8 C 9.82 g/m*3 18.8 C 0 km/h
316 25-04-2005 15:04:01 18.8 C 9.34 g/m*3 18.8 C 0 km/h
317 25-04-2005 15:16:02 18.7 C 9.45 g/m*3 18.7 C 0 km/h
318 25-04-2005 15:28:02 18.7 C 9.29 g/m*3 18.7 C 0 km/h
319 25-04-2005 15:40:02 18.4 C 8.97 g/m*3 18.4 C 0 km/h
320 25-04-2005 15:52:02 17.6 C 8.85 g/m*3 17.6 C 0 km/h
321 25-04-2005 16:04:02 16.4 C 9.49 g/m*3 16.4 C 0 km/h
322 25-04-2005 16:16:02 15.7 C 10.57 g/m*3 15.7 C 0 km/h
323 25-04-2005 16:28:02 15.6 C 10.64 g/m*3 15.6 C 0 km/h
324 25-04-2005 16:40:02 15.2 C 10.25 g/m*3 15.2 C 0 km/h
325 25-04-2005 16:52:02 15.2 C 10.38 g/m*3 15.2 C 0 km/h
Sensor: Nr:Datum:Temp:Abs-Feuchte:Windchill:Wind:
Aussen-T/F 326 25-04-2005 17:04:02 14.2 C 9.65 g/m*3 14.2 C 0 km/h
327 25-04-2005 17:16:02 13.8 C 9.89 g/m*3 13.8 C 0 km/h
328 25-04-2005 17:28:02 13.6 C 10 g/m*3 13.6 C 0 km/h
329 25-04-2005 17:40:02 13.4 C 9.76 g/m*3 13.4 C 0 km/h
330 25-04-2005 17:52:01 13.1 C 9.93 g/m*3 13.1 C 0 km/h
331 25-04-2005 18:04:02 13.2 C 10.22 g/m*3 13.2 C 0 km/h
332 25-04-2005 18:16:02 13.4 C 10.46 g/m*3 13.4 C 0 km/h
333 25-04-2005 18:28:02 13.4 C 10.46 g/m*3 13.4 C 0 km/h
334 25-04-2005 18:40:03 13 C 10.21 g/m*3 13 C 0 km/h
335 25-04-2005 18:52:04 12.6 C 9.85 g/m*3 12.6 C 0 km/h
336 25-04-2005 19:04:08 12.5 C 9.78 g/m*3 12.5 C 0 km/h
337 25-04-2005 19:16:12 12.3 C 9.66 g/m*3 12.3 C 0 km/h
338 25-04-2005 19:28:12 12.2 C 9.6 g/m*3 12.2 C 0 km/h
339 25-04-2005 19:40:04 12.1 C 9.54 g/m*3 12.1 C 0 km/h
340 25-04-2005 19:52:03 12 C 9.48 g/m*3 12 C 0 km/h
341 25-04-2005 20:04:04 11.8 C 9.37 g/m*3 11.8 C 0 km/h
342 25-04-2005 20:16:02 11.8 C 9.37 g/m*3 11.8 C 0 km/h
343 25-04-2005 20:28:03 11.7 C 9.31 g/m*3 11.7 C 0 km/h
344 25-04-2005 20:40:04 11.6 C 9.15 g/m*3 11.6 C 0 km/h
345 25-04-2005 20:52:04 11.5 C 9.09 g/m*3 11.5 C 0 km/h
346 25-04-2005 21:04:04 11.4 C 9.03 g/m*3 11.4 C 0 km/h
347 25-04-2005 21:16:03 11.4 C 9.03 g/m*3 11.4 C 0 km/h
348 25-04-2005 21:28:03 11.3 C 8.98 g/m*3 11.3 C 0 km/h
349 25-04-2005 21:40:02 11.2 C 8.92 g/m*3 11.2 C 0 km/h
350 25-04-2005 21:52:02 11.1 C 8.86 g/m*3 11.1 C 0 km/h
Sensor: Nr:Datum:Temp:Abs-Feuchte:Windchill:Wind:
Aussen-T/F 351 25-04-2005 22:04:02 11 C 8.91 g/m*3 11 C 0 km/h
352 25-04-2005 22:16:01 10.9 C 8.95 g/m*3 10.9 C 0 km/h
353 25-04-2005 22:28:01 10.8 C 8.99 g/m*3 10.8 C 0 km/h
354 25-04-2005 22:40:02 10.8 C 8.99 g/m*3 10.8 C 0 km/h
355 25-04-2005 22:52:03 10.8 C 9.09 g/m*3 10.8 C 0 km/h
356 25-04-2005 23:04:03 10.7 C 9.04 g/m*3 10.7 C 0 km/h
357 25-04-2005 23:16:02 10.7 C 9.04 g/m*3 10.7 C 0 km/h
358 25-04-2005 23:28:02 10.7 C 9.04 g/m*3 10.7 C 0 km/h
359 25-04-2005 23:40:03 10.7 C 9.04 g/m*3 10.7 C 0 km/h
360 25-04-2005 23:52:02 10.7 C 9.04 g/m*3 10.7 C 0 km/h
361 26-04-2005 00:04:03 10.7 C 9.04 g/m*3 10.7 C 0 km/h
362 26-04-2005 00:16:03 10.7 C 8.94 g/m*3 10.7 C 0 km/h
363 26-04-2005 00:28:03 10.7 C 8.94 g/m*3 10.7 C 0 km/h
364 26-04-2005 00:40:03 10.7 C 9.04 g/m*3 10.7 C 0 km/h
365 26-04-2005 00:52:03 10.7 C 9.04 g/m*3 10.7 C 0 km/h
366 26-04-2005 01:04:03 10.7 C 9.04 g/m*3 10.7 C 0 km/h
367 26-04-2005 01:16:02 10.7 C 9.04 g/m*3 10.7 C 0 km/h
368 26-04-2005 01:28:02 10.7 C 9.04 g/m*3 10.7 C 0 km/h
369 26-04-2005 01:40:02 10.7 C 9.04 g/m*3 10.7 C 0 km/h
370 26-04-2005 01:52:02 10.7 C 9.04 g/m*3 10.7 C 0 km/h
371 26-04-2005 02:04:03 10.7 C 9.04 g/m*3 10.7 C 0 km/h
372 26-04-2005 02:16:02 10.6 C 8.98 g/m*3 10.6 C 0 km/h
373 26-04-2005 02:28:02 10.6 C 8.98 g/m*3 10.6 C 0 km/h
374 26-04-2005 02:40:02 10.6 C 8.98 g/m*3 10.6 C 0 km/h
375 26-04-2005 02:53:04 10.5 C 8.92 g/m*3 10.5 C 0 km/h
Sensor: Nr:Datum:Temp:Abs-Feuchte:Windchill:Wind:
Aussen-T/F 376 26-04-2005 03:05:04 10.6 C 8.88 g/m*3 10.6 C 0 km/h
377 26-04-2005 03:17:05 10.7 C 8.94 g/m*3 10.7 C 0 km/h
378 26-04-2005 03:29:05 10.7 C 8.84 g/m*3 10.7 C 0 km/h
379 26-04-2005 03:41:03 10.7 C 8.74 g/m*3 10.7 C 0 km/h
380 26-04-2005 03:53:03 10.5 C 8.73 g/m*3 10.5 C 0 km/h
381 26-04-2005 04:05:03 10.4 C 8.67 g/m*3 10.4 C 0 km/h
382 26-04-2005 04:17:02 10.4 C 8.67 g/m*3 10.4 C 0 km/h
383 26-04-2005 04:29:02 10.4 C 8.67 g/m*3 10.4 C 0 km/h
384 26-04-2005 04:41:02 10.3 C 8.62 g/m*3 10.3 C 0 km/h
385 26-04-2005 04:53:01 10.2 C 8.56 g/m*3 10.2 C 0 km/h
386 26-04-2005 05:05:01 10.1 C 8.51 g/m*3 10.1 C 0 km/h
387 26-04-2005 05:17:02 10 C 8.46 g/m*3 10 C 0 km/h
388 26-04-2005 05:29:03 10.1 C 8.51 g/m*3 10.1 C 0 km/h
389 26-04-2005 05:41:02 10.1 C 8.51 g/m*3 10.1 C 0 km/h
390 26-04-2005 05:53:01 10.3 C 8.52 g/m*3 10.3 C 0 km/h
391 26-04-2005 06:05:01 10.4 C 8.58 g/m*3 10.4 C 0 km/h
392 26-04-2005 06:17:02 10.6 C 8.39 g/m*3 10.6 C 0 km/h
393 26-04-2005 06:29:02 10.5 C 8.34 g/m*3 10.5 C 0 km/h
394 26-04-2005 06:41:01 10.5 C 8.34 g/m*3 10.5 C 0 km/h
395 26-04-2005 06:53:01 10.5 C 8.34 g/m*3 10.5 C 0 km/h
396 26-04-2005 07:05:02 10.7 C 8.25 g/m*3 10.7 C 0 km/h
397 26-04-2005 07:17:01 10.7 C 8.15 g/m*3 10.7 C 0 km/h
398 26-04-2005 07:29:01 10.7 C 8.15 g/m*3 10.7 C 0 km/h
399 26-04-2005 07:41:01 10.7 C 8.15 g/m*3 10.7 C 0 km/h
400 26-04-2005 07:53:02 10.8 C 8.2 g/m*3 10.8 C 0 km/h
Sensor: Nr:Datum:Temp:Abs-Feuchte:Windchill:Wind:
Aussen-T/F 401 26-04-2005 08:05:02 10.9 C 8.16 g/m*3 10.9 C 0 km/h
402 26-04-2005 08:17:02 10.9 C 8.16 g/m*3 10.9 C 0 km/h
403 26-04-2005 08:29:02 11 C 8.01 g/m*3 11 C 0 km/h
404 26-04-2005 08:41:02 11 C 7.91 g/m*3 11 C 0 km/h
405 26-04-2005 08:53:02 11.1 C 7.96 g/m*3 11.1 C 0 km/h
406 26-04-2005 09:05:03 11 C 7.91 g/m*3 11 C 0 km/h
407 26-04-2005 09:17:02 11 C 8.01 g/m*3 11 C 0 km/h
408 26-04-2005 09:29:03 11.1 C 8.06 g/m*3 11.1 C 0 km/h
409 26-04-2005 09:41:02 11.4 C 8.11 g/m*3 11.4 C 0 km/h
410 26-04-2005 09:53:02 11.6 C 8.11 g/m*3 11.6 C 0 km/h
411 26-04-2005 10:05:03 12 C 8.21 g/m*3 12 C 0 km/h
412 26-04-2005 10:17:02 12.5 C 8.14 g/m*3 12.5 C 0 km/h
413 26-04-2005 10:29:02 13.1 C 8.33 g/m*3 13.1 C 0 km/h
414 26-04-2005 10:41:02 13.3 C 8.32 g/m*3 13.3 C 0 km/h
415 26-04-2005 10:53:02 14 C 8.44 g/m*3 14 C 0 km/h
416 26-04-2005 11:05:02 14.7 C 8.44 g/m*3 14.7 C 0 km/h
417 26-04-2005 11:17:02 14.6 C 8.13 g/m*3 14.6 C 0 km/h
418 26-04-2005 11:29:02 14.8 C 8.61 g/m*3 14.8 C 0 km/h
419 26-04-2005 11:41:02 15.2 C 8.18 g/m*3 15.2 C 0 km/h
420 26-04-2005 11:53:02 15.4 C 8.28 g/m*3 15.4 C 0 km/h
421 26-04-2005 12:05:01 15.6 C 7.98 g/m*3 15.6 C 0 km/h
422 26-04-2005 12:17:02 15.1 C 7.87 g/m*3 15.1 C 0 km/h
423 26-04-2005 12:29:02 15.5 C 8.06 g/m*3 15.5 C 0 km/h
424 26-04-2005 12:41:14 15.4 C 7.88 g/m*3 15.4 C 0 km/h
425 26-04-2005 12:53:02 15.8 C 7.81 g/m*3 15.8 C 0 km/h
Sensor: Nr:Datum:Temp:Abs-Feuchte:Windchill:Wind:
Aussen-T/F 426 26-04-2005 13:05:02 16.4 C 7.68 g/m*3 16.4 C 0 km/h
427 26-04-2005 13:17:02 16.9 C 7.34 g/m*3 16.9 C 0 km/h
428 26-04-2005 13:29:02 17.7 C 7.09 g/m*3 17.7 C 0 km/h
429 26-04-2005 13:41:02 18.2 C 6.99 g/m*3 18.2 C 0 km/h
430 26-04-2005 13:53:02 17.9 C 7.02 g/m*3 17.9 C 0 km/h
431 26-04-2005 14:05:03 18.6 C 7.16 g/m*3 18.6 C 0 km/h
432 26-04-2005 14:17:03 18.8 C 6.93 g/m*3 18.8 C 0 km/h
433 26-04-2005 14:29:03 18.4 C 6.92 g/m*3 18.4 C 0 km/h
434 26-04-2005 14:41:03 19.2 C 7.09 g/m*3 19.2 C 0 km/h
435 26-04-2005 14:53:02 19.5 C 6.88 g/m*3 19.5 C 0 km/h
436 26-04-2005 15:05:02 19.1 C 6.88 g/m*3 19.1 C 0 km/h
437 26-04-2005 15:17:02 17.9 C 6.72 g/m*3 17.9 C 0 km/h
438 26-04-2005 15:29:02 17.7 C 7.09 g/m*3 17.7 C 0 km/h
439 26-04-2005 15:41:02 17.2 C 7.32 g/m*3 17.2 C 0 km/h
440 26-04-2005 15:53:01 16.7 C 7.25 g/m*3 16.7 C 0 km/h
441 26-04-2005 16:05:02 16.5 C 7.02 g/m*3 16.5 C 0 km/h
442 26-04-2005 16:17:01 16.9 C 6.76 g/m*3 16.9 C 0 km/h
443 26-04-2005 16:29:01 17.1 C 6.7 g/m*3 17.1 C 0 km/h
444 26-04-2005 16:41:01 17 C 6.8 g/m*3 17 C 0 km/h
445 26-04-2005 16:53:01 17.4 C 6.97 g/m*3 17.4 C 0 km/h
446 26-04-2005 17:05:01 18.6 C 7 g/m*3 18.6 C 0 km/h
447 26-04-2005 17:17:01 19.3 C 6.97 g/m*3 19.3 C 0 km/h
448 26-04-2005 17:29:01 18.9 C 6.48 g/m*3 18.9 C 0 km/h
449 26-04-2005 17:41:02 17.5 C 6.71 g/m*3 17.5 C 0 km/h
450 26-04-2005 17:53:02 17.4 C 6.97 g/m*3 17.4 C 0 km/h
Sensor: Nr:Datum:Temp:Abs-Feuchte:Windchill:Wind:
Aussen-T/F 451 26-04-2005 18:05:02 17 C 6.8 g/m*3 17 C 0 km/h
452 26-04-2005 18:17:02 16.6 C 6.78 g/m*3 16.6 C 0 km/h
453 26-04-2005 18:29:02 16.6 C 7.06 g/m*3 16.6 C 0 km/h
454 26-04-2005 18:41:04 16.2 C 6.9 g/m*3 16.2 C 0 km/h
455 26-04-2005 18:53:02 16.2 C 6.9 g/m*3 16.2 C 0 km/h
456 26-04-2005 19:05:03 16 C 6.95 g/m*3 16 C 0 km/h
457 26-04-2005 19:17:03 15.8 C 7.13 g/m*3 15.8 C 0 km/h
458 26-04-2005 19:29:03 15.7 C 7.23 g/m*3 15.7 C 0 km/h
459 26-04-2005 19:41:03 15.5 C 7.27 g/m*3 15.5 C 0 km/h
460 26-04-2005 19:53:02 15.2 C 7.27 g/m*3 15.2 C 0 km/h
461 26-04-2005 20:05:04 15.1 C 7.35 g/m*3 15.1 C 0 km/h
462 26-04-2005 20:17:02 14.8 C 7.6 g/m*3 14.8 C 0 km/h
463 26-04-2005 20:29:02 14.5 C 7.59 g/m*3 14.5 C 0 km/h
464 26-04-2005 20:41:04 14.4 C 7.91 g/m*3 14.4 C 0 km/h
465 26-04-2005 20:53:03 14.2 C 8.06 g/m*3 14.2 C 0 km/h
466 26-04-2005 21:05:05 14 C 7.84 g/m*3 14 C 0 km/h
467 26-04-2005 21:17:04 13.6 C 7.65 g/m*3 13.6 C 0 km/h
468 26-04-2005 21:29:04 13.4 C 7.79 g/m*3 13.4 C 0 km/h
469 26-04-2005 21:41:06 13.1 C 7.65 g/m*3 13.1 C 0 km/h
470 26-04-2005 21:53:03 13.1 C 7.76 g/m*3 13.1 C 0 km/h
471 26-04-2005 22:05:04 13.2 C 7.81 g/m*3 13.2 C 0 km/h
472 26-04-2005 22:17:03 13.2 C 7.92 g/m*3 13.2 C 0 km/h
473 26-04-2005 22:29:03 13.1 C 7.87 g/m*3 13.1 C 0 km/h
474 26-04-2005 22:41:06 13.1 C 7.87 g/m*3 13.1 C 0 km/h
475 26-04-2005 22:53:02 13.1 C 8.1 g/m*3 13.1 C 0 km/h
Sensor: Nr:Datum:Temp:Abs-Feuchte:Windchill:Wind:
Aussen-T/F 476 26-04-2005 23:05:04 12.9 C 8.34 g/m*3 12.9 C 0 km/h
477 26-04-2005 23:17:02 12.8 C 8.62 g/m*3 12.8 C 0 km/h
478 26-04-2005 23:29:02 12.7 C 8.68 g/m*3 12.7 C 0 km/h
479 26-04-2005 23:41:01 12.7 C 8.68 g/m*3 12.7 C 0 km/h
480 26-04-2005 23:53:02 12.7 C 8.57 g/m*3 12.7 C 0 km/h
481 27-04-2005 00:05:02 12.5 C 8.69 g/m*3 12.5 C 0 km/h
482 27-04-2005 00:17:02 12.4 C 8.85 g/m*3 12.4 C 0 km/h
483 27-04-2005 00:29:02 12.3 C 8.9 g/m*3 12.3 C 0 km/h
484 27-04-2005 00:41:02 12.3 C 9.01 g/m*3 12.3 C 0 km/h
485 27-04-2005 00:53:01 12.4 C 9.18 g/m*3 12.4 C 0 km/h
486 27-04-2005 01:05:02 12 C 8.95 g/m*3 12 C 0 km/h
487 27-04-2005 01:17:02 11.9 C 9.11 g/m*3 11.9 C 0 km/h
488 27-04-2005 01:29:02 11.5 C 8.99 g/m*3 11.5 C 0 km/h
489 27-04-2005 01:41:02 11.3 C 9.08 g/m*3 11.3 C 0 km/h
490 27-04-2005 01:53:02 11.2 C 9.02 g/m*3 11.2 C 0 km/h
491 27-04-2005 02:05:02 11.2 C 9.12 g/m*3 11.2 C 0 km/h
492 27-04-2005 02:17:02 11.1 C 9.17 g/m*3 11.1 C 0 km/h
493 27-04-2005 02:29:02 11 C 9.11 g/m*3 11 C 0 km/h
494 27-04-2005 02:41:01 10.9 C 9.15 g/m*3 10.9 C 0 km/h
495 27-04-2005 02:54:03 11.1 C 9.27 g/m*3 11.1 C 0 km/h
496 27-04-2005 03:06:03 11 C 9.21 g/m*3 11 C 0 km/h
497 27-04-2005 03:18:04 10.9 C 9.25 g/m*3 10.9 C 0 km/h
498 27-04-2005 03:30:05 10.9 C 9.25 g/m*3 10.9 C 0 km/h
499 27-04-2005 03:42:02 10.9 C 9.25 g/m*3 10.9 C 0 km/h
500 27-04-2005 03:54:02 10.8 C 9.19 g/m*3 10.8 C 0 km/h
Sensor: Nr:Datum:Temp:Abs-Feuchte:Windchill:Wind:
Aussen-T/F 501 27-04-2005 04:06:01 10.9 C 9.25 g/m*3 10.9 C 0 km/h
502 27-04-2005 04:18:01 10.9 C 9.25 g/m*3 10.9 C 0 km/h
503 27-04-2005 04:30:01 10.9 C 9.15 g/m*3 10.9 C 0 km/h
504 27-04-2005 04:42:02 10.7 C 9.04 g/m*3 10.7 C 0 km/h
505 27-04-2005 04:54:02 10.5 C 8.92 g/m*3 10.5 C 0 km/h
506 27-04-2005 05:06:02 10.3 C 8.81 g/m*3 10.3 C 0 km/h
507 27-04-2005 05:18:02 10.4 C 8.96 g/m*3 10.4 C 0 km/h
508 27-04-2005 05:30:02 10.2 C 8.85 g/m*3 10.2 C 0 km/h
509 27-04-2005 05:42:02 9.9 C 8.68 g/m*3 9.9 C 0 km/h
510 27-04-2005 05:54:02 9.7 C 8.57 g/m*3 9.7 C 0 km/h
511 27-04-2005 06:06:02 9.8 C 8.72 g/m*3 9.8 C 0 km/h
512 27-04-2005 06:18:01 9.8 C 8.72 g/m*3 9.8 C 0 km/h
513 27-04-2005 06:30:01 9.9 C 8.78 g/m*3 9.9 C 0 km/h
514 27-04-2005 06:42:02 10 C 8.74 g/m*3 10 C 0 km/h
515 27-04-2005 06:54:02 10.2 C 8.85 g/m*3 10.2 C 0 km/h
516 27-04-2005 07:06:03 10.3 C 9 g/m*3 10.3 C 0 km/h
517 27-04-2005 07:18:03 10.6 C 9.08 g/m*3 10.6 C 0 km/h
518 27-04-2005 07:30:03 10.8 C 9.09 g/m*3 10.8 C 0 km/h
519 27-04-2005 07:42:02 11.1 C 8.96 g/m*3 11.1 C 0 km/h
520 27-04-2005 07:54:02 11.2 C 8.72 g/m*3 11.2 C 0 km/h
521 27-04-2005 08:06:02 11.4 C 8.62 g/m*3 11.4 C 0 km/h
522 27-04-2005 08:18:02 11.7 C 8.68 g/m*3 11.7 C 0 km/h
523 27-04-2005 08:30:02 12.1 C 8.58 g/m*3 12.1 C 0 km/h
524 27-04-2005 08:42:02 12 C 8.42 g/m*3 12 C 0 km/h
525 27-04-2005 08:54:02 12 C 8.53 g/m*3 12 C 0 km/h
Sensor: Nr:Datum:Temp:Abs-Feuchte:Windchill:Wind:
Aussen-T/F 526 27-04-2005 09:06:03 12.6 C 8.52 g/m*3 12.6 C 0 km/h
527 27-04-2005 09:18:02 12.9 C 8.34 g/m*3 12.9 C 0 km/h
528 27-04-2005 09:30:02 12.7 C 8.24 g/m*3 12.7 C 0 km/h
529 27-04-2005 09:42:02 13.1 C 8.1 g/m*3 13.1 C 0 km/h
530 27-04-2005 09:54:02 11.7 C 7.32 g/m*3 11.7 C 0 km/h
531 27-04-2005 10:06:02 10.5 C 7.76 g/m*3 10.5 C 0 km/h
532 27-04-2005 10:18:02 10.3 C 8.04 g/m*3 10.3 C 0 km/h
533 27-04-2005 10:30:02 10.9 C 8.26 g/m*3 10.9 C 0 km/h
534 27-04-2005 10:42:02 11.8 C 8.42 g/m*3 11.8 C 0 km/h
535 27-04-2005 10:54:02 12.6 C 8.41 g/m*3 12.6 C 0 km/h
536 27-04-2005 11:06:03 13.2 C 7.81 g/m*3 13.2 C 0 km/h
537 27-04-2005 11:18:02 14 C 7 g/m*3 14 C 0 km/h
538 27-04-2005 11:30:02 14.5 C 6.72 g/m*3 14.5 C 0 km/h
539 27-04-2005 11:42:03 15.1 C 6.58 g/m*3 15.1 C 0 km/h
540 27-04-2005 11:54:02 14.7 C 5.79 g/m*3 14.7 C 0 km/h
541 27-04-2005 12:06:02 14.9 C 5.48 g/m*3 14.9 C 0 km/h
542 27-04-2005 12:18:02 14.8 C 5.95 g/m*3 14.8 C 0 km/h
543 27-04-2005 12:30:02 15.2 C 5.45 g/m*3 15.2 C 0 km/h
544 27-04-2005 12:42:02 15.4 C 5.26 g/m*3 15.4 C 0 km/h
545 27-04-2005 12:54:02 16.1 C 5.48 g/m*3 16.1 C 0 km/h
546 27-04-2005 13:06:02 16.6 C 5.23 g/m*3 16.6 C 0 km/h
547 27-04-2005 13:18:02 16.6 C 4.8 g/m*3 16.6 C 0 km/h
548 27-04-2005 13:30:02 17.3 C 5.01 g/m*3 17.3 C 0 km/h
549 27-04-2005 13:42:02 16.8 C 5 g/m*3 16.8 C 0 km/h
550 27-04-2005 13:54:01 17.5 C 5.07 g/m*3 17.5 C 0 km/h
Sensor: Nr:Datum:Temp:Abs-Feuchte:Windchill:Wind:
Aussen-T/F 551 27-04-2005 14:06:02 17 C 5.21 g/m*3 17 C 0 km/h
552 27-04-2005 14:18:02 16.9 C 4.89 g/m*3 16.9 C 0 km/h
553 27-04-2005 14:30:03 17.5 C 4.62 g/m*3 17.5 C 0 km/h
554 27-04-2005 14:42:01 18.2 C 4.66 g/m*3 18.2 C 0 km/h
555 27-04-2005 14:54:01 17.3 C 4.12 g/m*3 17.3 C 0 km/h
556 27-04-2005 15:06:02 18 C 3.99 g/m*3 18 C 0 km/h
557 27-04-2005 15:18:01 18.3 C 3.44 g/m*3 18.3 C 0 km/h
558 27-04-2005 15:30:01 18.7 C 3.84 g/m*3 18.7 C 0 km/h
559 27-04-2005 15:42:02 18.9 C 3.56 g/m*3 18.9 C 0 km/h
560 27-04-2005 15:54:02 19.2 C 4.29 g/m*3 19.2 C 0 km/h
561 27-04-2005 16:06:02 19.5 C 4.2 g/m*3 19.5 C 0 km/h
562 27-04-2005 16:18:02 19.3 C 3.65 g/m*3 19.3 C 0 km/h
563 27-04-2005 16:30:02 17.5 C 4.32 g/m*3 17.5 C 0 km/h
564 27-04-2005 16:42:02 18.8 C 4.19 g/m*3 18.8 C 0 km/h
565 27-04-2005 16:54:02 19.3 C 3.65 g/m*3 19.3 C 0 km/h
566 27-04-2005 17:06:03 19.4 C 4 g/m*3 19.4 C 0 km/h
567 27-04-2005 17:18:02 19.6 C 3.71 g/m*3 19.6 C 0 km/h
568 27-04-2005 17:30:02 19.7 C 3.74 g/m*3 19.7 C 0 km/h
569 27-04-2005 17:42:02 17.9 C 3.97 g/m*3 17.9 C 0 km/h
570 27-04-2005 17:54:01 17.5 C 4.03 g/m*3 17.5 C 0 km/h
571 27-04-2005 18:06:02 18.3 C 4.22 g/m*3 18.3 C 0 km/h
572 27-04-2005 18:18:02 18.6 C 3.66 g/m*3 18.6 C 0 km/h
573 27-04-2005 18:30:02 18.2 C 4.35 g/m*3 18.2 C 0 km/h
574 27-04-2005 18:42:04 18.1 C 4.02 g/m*3 18.1 C 0 km/h
575 27-04-2005 18:54:03 15.7 C 4.95 g/m*3 15.7 C 0 km/h
Sensor: Nr:Datum:Temp:Abs-Feuchte:Windchill:Wind:
Aussen-T/F 576 27-04-2005 19:06:05 14.5 C 5.47 g/m*3 14.5 C 0 km/h
577 27-04-2005 19:18:04 14.6 C 5.63 g/m*3 14.6 C 0 km/h
578 27-04-2005 19:30:04 15.2 C 5.71 g/m*3 15.2 C 0 km/h
579 27-04-2005 19:42:09 15.7 C 5.49 g/m*3 15.7 C 0 km/h
580 27-04-2005 19:54:03 15.6 C 5.45 g/m*3 15.6 C 0 km/h
581 27-04-2005 20:06:04 15.8 C 6.06 g/m*3 15.8 C 0 km/h
582 27-04-2005 20:18:02 15.6 C 5.98 g/m*3 15.6 C 0 km/h
583 27-04-2005 20:30:02 14.6 C 6.13 g/m*3 14.6 C 0 km/h
584 27-04-2005 20:42:03 13.5 C 6.43 g/m*3 13.5 C 0 km/h
585 27-04-2005 20:54:02 12.8 C 6.5 g/m*3 12.8 C 0 km/h
586 27-04-2005 21:06:03 12.2 C 6.37 g/m*3 12.2 C 0 km/h
587 27-04-2005 21:18:02 11.6 C 6.34 g/m*3 11.6 C 0 km/h
588 27-04-2005 21:30:02 11.5 C 6.51 g/m*3 11.5 C 0 km/h
589 27-04-2005 21:42:02 11.3 C 6.43 g/m*3 11.3 C 0 km/h
590 27-04-2005 21:54:02 11.2 C 6.49 g/m*3 11.2 C 0 km/h
591 27-04-2005 22:06:02 10.8 C 6.62 g/m*3 10.8 C 0 km/h
592 27-04-2005 22:18:02 10.4 C 6.65 g/m*3 10.4 C 0 km/h
593 27-04-2005 22:30:02 10.4 C 6.55 g/m*3 10.4 C 0 km/h
594 27-04-2005 22:42:02 10.2 C 6.57 g/m*3 10.2 C 0 km/h
595 27-04-2005 22:54:02 10 C 6.58 g/m*3 10 C 0 km/h
596 27-04-2005 23:06:02 9.7 C 6.73 g/m*3 9.7 C 0 km/h
597 27-04-2005 23:18:02 9.6 C 6.6 g/m*3 9.6 C 0 km/h
598 27-04-2005 23:30:02 9.3 C 6.56 g/m*3 9.3 C 0 km/h
599 27-04-2005 23:42:02 9 C 6.52 g/m*3 9 C 0 km/h
600 27-04-2005 23:54:02 8.8 C 6.53 g/m*3 8.8 C 0 km/h
Sensor: Nr:Datum:Temp:Abs-Feuchte:Windchill:Wind:
Aussen-T/F 601 28-04-2005 00:06:02 8.8 C 6.61 g/m*3 8.8 C 0 km/h
602 28-04-2005 00:18:03 8.7 C 6.57 g/m*3 8.7 C 0 km/h
603 28-04-2005 00:30:03 8.5 C 6.66 g/m*3 8.5 C 0 km/h
604 28-04-2005 00:42:02 8.3 C 6.57 g/m*3 8.3 C 0 km/h
605 28-04-2005 00:54:03 8.2 C 6.53 g/m*3 8.2 C 0 km/h
606 28-04-2005 01:06:02 8 C 6.61 g/m*3 8 C 0 km/h
607 28-04-2005 01:18:02 7.8 C 6.69 g/m*3 7.8 C 0 km/h
608 28-04-2005 01:30:02 7.7 C 6.65 g/m*3 7.7 C 0 km/h
609 28-04-2005 01:42:02 7.7 C 6.65 g/m*3 7.7 C 0 km/h
610 28-04-2005 01:54:02 7.7 C 6.65 g/m*3 7.7 C 0 km/h
611 28-04-2005 02:06:02 7.5 C 6.56 g/m*3 7.5 C 0 km/h
612 28-04-2005 02:18:02 7.3 C 6.48 g/m*3 7.3 C 0 km/h
613 28-04-2005 02:30:02 7.3 C 6.56 g/m*3 7.3 C 0 km/h
614 28-04-2005 02:42:02 7.2 C 6.44 g/m*3 7.2 C 0 km/h
615 28-04-2005 02:55:03 7.1 C 6.47 g/m*3 7.1 C 0 km/h
616 28-04-2005 03:07:03 7 C 6.43 g/m*3 7 C 0 km/h
617 28-04-2005 03:19:03 6.9 C 6.47 g/m*3 6.9 C 0 km/h
618 28-04-2005 03:31:02 6.8 C 6.42 g/m*3 6.8 C 0 km/h
619 28-04-2005 03:43:02 6.7 C 6.46 g/m*3 6.7 C 0 km/h
620 28-04-2005 03:55:02 6.5 C 6.37 g/m*3 6.5 C 0 km/h
621 28-04-2005 04:07:02 6.5 C 6.37 g/m*3 6.5 C 0 km/h
622 28-04-2005 04:19:01 6.6 C 6.49 g/m*3 6.6 C 0 km/h
623 28-04-2005 04:31:02 6.8 C 6.58 g/m*3 6.8 C 0 km/h
624 28-04-2005 04:43:02 6.8 C 6.5 g/m*3 6.8 C 0 km/h
625 28-04-2005 04:55:02 6.5 C 6.37 g/m*3 6.5 C 0 km/h
Sensor: Nr:Datum:Temp:Abs-Feuchte:Windchill:Wind:
Aussen-T/F 626 28-04-2005 05:07:01 6.4 C 6.33 g/m*3 6.4 C 0 km/h
627 28-04-2005 05:19:02 6.2 C 6.32 g/m*3 6.2 C 0 km/h
628 28-04-2005 05:31:02 6.1 C 6.28 g/m*3 6.1 C 0 km/h
629 28-04-2005 05:43:02 6.1 C 6.36 g/m*3 6.1 C 0 km/h
630 28-04-2005 05:55:03 5.9 C 6.42 g/m*3 5.9 C 0 km/h
631 28-04-2005 06:07:03 5.9 C 6.42 g/m*3 5.9 C 0 km/h
632 28-04-2005 06:19:03 5.9 C 6.42 g/m*3 5.9 C 0 km/h
633 28-04-2005 06:31:04 6 C 6.46 g/m*3 6 C 0 km/h
634 28-04-2005 06:43:04 6.2 C 6.55 g/m*3 6.2 C 0 km/h
635 28-04-2005 06:55:03 6.2 C 6.47 g/m*3 6.2 C 0 km/h
636 28-04-2005 07:07:02 6.3 C 6.59 g/m*3 6.3 C 0 km/h
637 28-04-2005 07:19:02 6.4 C 6.56 g/m*3 6.4 C 0 km/h
638 28-04-2005 07:31:02 6.5 C 6.52 g/m*3 6.5 C 0 km/h
639 28-04-2005 07:43:02 6.7 C 6.61 g/m*3 6.7 C 0 km/h
640 28-04-2005 07:55:02 7 C 6.59 g/m*3 7 C 0 km/h
641 28-04-2005 08:07:02 7.3 C 6.64 g/m*3 7.3 C 0 km/h
642 28-04-2005 08:19:02 7.8 C 6.77 g/m*3 7.8 C 0 km/h
643 28-04-2005 08:31:01 7.8 C 6.69 g/m*3 7.8 C 0 km/h
644 28-04-2005 08:43:01 7.9 C 6.57 g/m*3 7.9 C 0 km/h
645 28-04-2005 08:55:02 8.1 C 6.49 g/m*3 8.1 C 0 km/h
646 28-04-2005 09:07:02 8.4 C 6.62 g/m*3 8.4 C 0 km/h
647 28-04-2005 09:19:02 9.1 C 6.74 g/m*3 9.1 C 0 km/h
648 28-04-2005 09:31:02 10 C 6.86 g/m*3 10 C 0 km/h
649 28-04-2005 09:43:02 10.4 C 6.84 g/m*3 10.4 C 0 km/h
650 28-04-2005 09:55:02 11 C 6.71 g/m*3 11 C 0 km/h
Sensor: Nr:Datum:Temp:Abs-Feuchte:Windchill:Wind:
Aussen-T/F 651 28-04-2005 10:07:02 11.8 C 6.84 g/m*3 11.8 C 0 km/h
652 28-04-2005 10:19:02 12.2 C 6.47 g/m*3 12.2 C 0 km/h
653 28-04-2005 10:31:02 12.8 C 6.5 g/m*3 12.8 C 0 km/h
654 28-04-2005 10:43:02 13.3 C 6.24 g/m*3 13.3 C 0 km/h
655 28-04-2005 10:55:02 14.2 C 6.47 g/m*3 14.2 C 0 km/h
656 28-04-2005 11:07:01 14.9 C 6.63 g/m*3 14.9 C 0 km/h
657 28-04-2005 11:19:01 15.3 C 6.4 g/m*3 15.3 C 0 km/h
658 28-04-2005 11:31:02 15.9 C 6.23 g/m*3 15.9 C 0 km/h
659 28-04-2005 11:43:02 17 C 6.51 g/m*3 17 C 0 km/h
660 28-04-2005 11:55:01 17.7 C 6.19 g/m*3 17.7 C 0 km/h
661 28-04-2005 12:07:02 18.3 C 6.25 g/m*3 18.3 C 0 km/h
662 28-04-2005 12:19:02 18.7 C 6.24 g/m*3 18.7 C 0 km/h
663 28-04-2005 12:31:02 19 C 5.87 g/m*3 19 C 0 km/h
664 28-04-2005 12:43:02 18.9 C 5.67 g/m*3 18.9 C 0 km/h
665 28-04-2005 12:55:02 19.3 C 5.64 g/m*3 19.3 C 0 km/h
666 28-04-2005 13:07:01 19.4 C 5.51 g/m*3 19.4 C 0 km/h
667 28-04-2005 13:19:02 19.7 C 5.26 g/m*3 19.7 C 0 km/h
668 28-04-2005 13:31:02 19.7 C 5.09 g/m*3 19.7 C 0 km/h
669 28-04-2005 13:43:02 20.4 C 5.13 g/m*3 20.4 C 0 km/h
670 28-04-2005 13:55:02 20.2 C 5.25 g/m*3 20.2 C 0 km/h
671 28-04-2005 14:07:01 21 C 5.13 g/m*3 21 C 0 km/h
672 28-04-2005 14:19:02 21.3 C 5.22 g/m*3 21.3 C 0 km/h
673 28-04-2005 14:31:02 21 C 5.31 g/m*3 21 C 0 km/h
674 28-04-2005 14:43:02 22.1 C 5.47 g/m*3 22.1 C 0 km/h
675 28-04-2005 14:55:01 21.1 C 5.16 g/m*3 21.1 C 0 km/h
Sensor: Nr:Datum:Temp:Abs-Feuchte:Windchill:Wind:
Aussen-T/F 676 28-04-2005 15:07:01 20.6 C 5.01 g/m*3 20.6 C 0 km/h
677 28-04-2005 15:19:02 20.8 C 5.07 g/m*3 20.8 C 0 km/h
678 28-04-2005 15:31:02 20.2 C 5.07 g/m*3 20.2 C 0 km/h
679 28-04-2005 15:43:02 21.3 C 5.03 g/m*3 21.3 C 0 km/h
680 28-04-2005 15:55:03 21.7 C 5.15 g/m*3 21.7 C 0 km/h
681 28-04-2005 16:07:03 22 C 5.05 g/m*3 22 C 0 km/h
682 28-04-2005 16:19:02 21.3 C 4.85 g/m*3 21.3 C 0 km/h
683 28-04-2005 16:31:02 20.5 C 5.34 g/m*3 20.5 C 0 km/h
684 28-04-2005 16:43:02 20.3 C 5.28 g/m*3 20.3 C 0 km/h
685 28-04-2005 16:55:02 20.2 C 5.42 g/m*3 20.2 C 0 km/h
686 28-04-2005 17:07:02 20.4 C 5.31 g/m*3 20.4 C 0 km/h
687 28-04-2005 17:19:01 21.3 C 5.22 g/m*3 21.3 C 0 km/h
688 28-04-2005 17:31:02 20.9 C 5.46 g/m*3 20.9 C 0 km/h
689 28-04-2005 17:43:02 21.4 C 5.06 g/m*3 21.4 C 0 km/h
690 28-04-2005 17:55:02 21.6 C 5.12 g/m*3 21.6 C 0 km/h
691 28-04-2005 18:07:03 21.4 C 5.25 g/m*3 21.4 C 0 km/h
692 28-04-2005 18:19:02 21.6 C 4.93 g/m*3 21.6 C 0 km/h
693 28-04-2005 18:31:03 21.2 C 4.82 g/m*3 21.2 C 0 km/h
694 28-04-2005 18:43:03 20.9 C 5.1 g/m*3 20.9 C 0 km/h
695 28-04-2005 18:55:02 20.6 C 5.37 g/m*3 20.6 C 0 km/h
696 28-04-2005 19:07:02 20.3 C 5.45 g/m*3 20.3 C 0 km/h
697 28-04-2005 19:19:02 20.3 C 5.45 g/m*3 20.3 C 0 km/h
698 28-04-2005 19:31:02 20 C 6.22 g/m*3 20 C 0 km/h
699 28-04-2005 19:43:02 19.7 C 6.28 g/m*3 19.7 C 0 km/h
700 28-04-2005 19:55:02 19.3 C 6.63 g/m*3 19.3 C 0 km/h
Sensor: Nr:Datum:Temp:Abs-Feuchte:Windchill:Wind:
Aussen-T/F 701 28-04-2005 20:07:02 18.8 C 6.76 g/m*3 18.8 C 0 km/h
702 28-04-2005 20:19:01 18.4 C 6.92 g/m*3 18.4 C 0 km/h
703 28-04-2005 20:31:01 18.1 C 6.64 g/m*3 18.1 C 0 km/h
704 28-04-2005 20:43:01 17.6 C 6.6 g/m*3 17.6 C 0 km/h
705 28-04-2005 20:55:02 17.2 C 6.88 g/m*3 17.2 C 0 km/h
706 28-04-2005 21:07:02 16.8 C 7.29 g/m*3 16.8 C 0 km/h
707 28-04-2005 21:19:02 16.6 C 7.2 g/m*3 16.6 C 0 km/h
708 28-04-2005 21:31:02 16.5 C 7.3 g/m*3 16.5 C 0 km/h
709 28-04-2005 21:43:02 16.2 C 7.17 g/m*3 16.2 C 0 km/h
710 28-04-2005 21:55:02 15.7 C 6.96 g/m*3 15.7 C 0 km/h
711 28-04-2005 22:07:02 15.6 C 7.05 g/m*3 15.6 C 0 km/h
712 28-04-2005 22:19:02 15.1 C 7.1 g/m*3 15.1 C 0 km/h
713 28-04-2005 22:31:01 14.9 C 7.01 g/m*3 14.9 C 0 km/h
714 28-04-2005 22:43:01 14.8 C 6.71 g/m*3 14.8 C 0 km/h
715 28-04-2005 22:55:02 14.5 C 6.84 g/m*3 14.5 C 0 km/h
716 28-04-2005 23:07:02 14.1 C 7.04 g/m*3 14.1 C 0 km/h
717 28-04-2005 23:19:02 13.7 C 6.87 g/m*3 13.7 C 0 km/h
718 28-04-2005 23:31:02 13.8 C 7.15 g/m*3 13.8 C 0 km/h
719 28-04-2005 23:43:02 14 C 7.12 g/m*3 14 C 0 km/h
720 28-04-2005 23:55:02 14.2 C 7.33 g/m*3 14.2 C 0 km/h
721 29-04-2005 00:07:02 14.2 C 7.45 g/m*3 14.2 C 0 km/h
722 29-04-2005 00:19:03 14.2 C 7.45 g/m*3 14.2 C 0 km/h
723 29-04-2005 00:31:03 14.1 C 7.4 g/m*3 14.1 C 0 km/h
724 29-04-2005 00:43:03 14.1 C 7.52 g/m*3 14.1 C 0 km/h
725 29-04-2005 00:55:02 14 C 7.36 g/m*3 14 C 0 km/h
Sensor: Nr:Datum:Temp:Abs-Feuchte:Windchill:Wind:
Aussen-T/F 726 29-04-2005 01:07:02 13.9 C 7.55 g/m*3 13.9 C 0 km/h
727 29-04-2005 01:19:02 13.8 C 7.63 g/m*3 13.8 C 0 km/h
728 29-04-2005 01:31:02 13.7 C 7.7 g/m*3 13.7 C 0 km/h
729 29-04-2005 01:43:02 13.5 C 7.6 g/m*3 13.5 C 0 km/h
730 29-04-2005 01:55:03 13.5 C 7.72 g/m*3 13.5 C 0 km/h
731 29-04-2005 02:07:03 13.4 C 7.67 g/m*3 13.4 C 0 km/h
732 29-04-2005 02:19:02 13.3 C 7.74 g/m*3 13.3 C 0 km/h
733 29-04-2005 02:31:02 13.1 C 7.53 g/m*3 13.1 C 0 km/h
734 29-04-2005 02:43:02 12.8 C 7.5 g/m*3 12.8 C 0 km/h
735 29-04-2005 02:56:03 13 C 7.37 g/m*3 13 C 0 km/h
736 29-04-2005 03:08:03 12.9 C 7.44 g/m*3 12.9 C 0 km/h
737 29-04-2005 03:20:03 12.9 C 7.44 g/m*3 12.9 C 0 km/h
738 29-04-2005 03:32:03 13 C 7.37 g/m*3 13 C 0 km/h
739 29-04-2005 03:44:03 12.9 C 7.44 g/m*3 12.9 C 0 km/h
740 29-04-2005 03:56:03 12.8 C 7.5 g/m*3 12.8 C 0 km/h
741 29-04-2005 04:08:03 12.8 C 7.5 g/m*3 12.8 C 0 km/h
742 29-04-2005 04:20:02 12.9 C 7.55 g/m*3 12.9 C 0 km/h
743 29-04-2005 04:32:03 12.8 C 7.62 g/m*3 12.8 C 0 km/h
744 29-04-2005 04:44:03 12.7 C 7.68 g/m*3 12.7 C 0 km/h
745 29-04-2005 04:56:02 12.6 C 7.85 g/m*3 12.6 C 0 km/h
746 29-04-2005 05:08:02 12.5 C 8.03 g/m*3 12.5 C 0 km/h
747 29-04-2005 05:20:02 12.7 C 8.01 g/m*3 12.7 C 0 km/h
748 29-04-2005 05:32:01 12.7 C 8.01 g/m*3 12.7 C 0 km/h
749 29-04-2005 05:44:01 12.4 C 7.98 g/m*3 12.4 C 0 km/h
750 29-04-2005 05:56:02 11.9 C 8.15 g/m*3 11.9 C 0 km/h
Sensor: Nr:Datum:Temp:Abs-Feuchte:Windchill:Wind:
Aussen-T/F 751 29-04-2005 06:08:02 11.5 C 8.37 g/m*3 11.5 C 0 km/h
752 29-04-2005 06:20:02 11.5 C 8.57 g/m*3 11.5 C 0 km/h
753 29-04-2005 06:32:02 11.5 C 8.78 g/m*3 11.5 C 0 km/h
754 29-04-2005 06:44:02 11.8 C 9.16 g/m*3 11.8 C 0 km/h
755 29-04-2005 06:56:01 11.5 C 8.99 g/m*3 11.5 C 0 km/h
756 29-04-2005 07:08:02 11.4 C 9.03 g/m*3 11.4 C 0 km/h
757 29-04-2005 07:20:02 11.2 C 8.92 g/m*3 11.2 C 0 km/h
758 29-04-2005 07:32:02 11.4 C 9.14 g/m*3 11.4 C 0 km/h
759 29-04-2005 07:44:02 11.6 C 9.35 g/m*3 11.6 C 0 km/h
760 29-04-2005 07:56:03 11.7 C 9.52 g/m*3 11.7 C 0 km/h
761 29-04-2005 08:08:02 11.8 C 9.58 g/m*3 11.8 C 0 km/h
762 29-04-2005 08:20:02 11.6 C 9.46 g/m*3 11.6 C 0 km/h
763 29-04-2005 08:32:02 11.8 C 9.58 g/m*3 11.8 C 0 km/h
764 29-04-2005 08:44:02 12 C 9.7 g/m*3 12 C 0 km/h
765 29-04-2005 08:56:02 11.9 C 9.64 g/m*3 11.9 C 0 km/h
766 29-04-2005 09:08:02 11.8 C 9.58 g/m*3 11.8 C 0 km/h
767 29-04-2005 09:20:02 11.5 C 9.4 g/m*3 11.5 C 0 km/h
768 29-04-2005 09:32:02 11.6 C 9.46 g/m*3 11.6 C 0 km/h
769 29-04-2005 09:44:02 11.9 C 9.74 g/m*3 11.9 C 0 km/h
770 29-04-2005 09:56:02 12.2 C 9.82 g/m*3 12.2 C 0 km/h
771 29-04-2005 10:08:03 12.8 C 10.19 g/m*3 12.8 C 0 km/h
772 29-04-2005 10:20:02 12.5 C 9.78 g/m*3 12.5 C 0 km/h
773 29-04-2005 10:32:02 12.7 C 9.8 g/m*3 12.7 C 0 km/h
774 29-04-2005 10:44:02 13.1 C 9.93 g/m*3 13.1 C 0 km/h
775 29-04-2005 10:56:02 13.1 C 9.93 g/m*3 13.1 C 0 km/h
Sensor: Nr:Datum:Temp:Abs-Feuchte:Windchill:Wind:
Aussen-T/F 776 29-04-2005 11:08:02 13.7 C 10.42 g/m*3 13.7 C 0 km/h
777 29-04-2005 11:20:03 13.9 C 10.43 g/m*3 13.9 C 0 km/h
778 29-04-2005 11:32:02 14 C 10.37 g/m*3 14 C 0 km/h
779 29-04-2005 11:44:02 14.3 C 10.57 g/m*3 14.3 C 0 km/h
780 29-04-2005 11:56:02 14.6 C 10.51 g/m*3 14.6 C 0 km/h
781 29-04-2005 12:08:02 15.3 C 10.71 g/m*3 15.3 C 0 km/h
782 29-04-2005 12:20:02 16.1 C 10.69 g/m*3 16.1 C 0 km/h
783 29-04-2005 12:32:01 17.1 C 11.21 g/m*3 17.1 C 0 km/h
784 29-04-2005 12:44:01 17.9 C 11.3 g/m*3 17.9 C 0 km/h
785 29-04-2005 12:56:02 18.1 C 11.43 g/m*3 18.1 C 0 km/h
786 29-04-2005 13:08:02 18.7 C 11.53 g/m*3 18.7 C 0 km/h
787 29-04-2005 13:20:02 19.3 C 11.61 g/m*3 19.3 C 0 km/h
788 29-04-2005 13:32:01 19.5 C 11.24 g/m*3 19.5 C 0 km/h
789 29-04-2005 13:44:01 20.4 C 11.32 g/m*3 20.4 C 0 km/h
790 29-04-2005 13:56:02 21 C 11.72 g/m*3 21 C 0 km/h
791 29-04-2005 14:08:02 21.2 C 11.12 g/m*3 21.2 C 0 km/h
792 29-04-2005 14:20:02 21.8 C 11.51 g/m*3 21.8 C 0 km/h
793 29-04-2005 14:32:02 22.2 C 10.99 g/m*3 22.2 C 0 km/h
794 29-04-2005 14:44:02 22.1 C 11.13 g/m*3 22.1 C 0 km/h
795 29-04-2005 14:56:01 21.7 C 11.06 g/m*3 21.7 C 0 km/h
796 29-04-2005 15:08:01 21.8 C 11.13 g/m*3 21.8 C 0 km/h
797 29-04-2005 15:20:02 22 C 10.67 g/m*3 22 C 0 km/h
798 29-04-2005 15:32:02 22.9 C 10.83 g/m*3 22.9 C 0 km/h
799 29-04-2005 15:44:03 22.9 C 10.42 g/m*3 22.9 C 0 km/h
800 29-04-2005 15:56:02 22.8 C 10.36 g/m*3 22.8 C 0 km/h
Sensor: Nr:Datum:Temp:Abs-Feuchte:Windchill:Wind:
Aussen-T/F 801 29-04-2005 16:08:03 22.8 C 10.16 g/m*3 22.8 C 0 km/h
802 29-04-2005 16:20:02 22.7 C 10.1 g/m*3 22.7 C 0 km/h
803 29-04-2005 16:32:02 22.7 C 10.51 g/m*3 22.7 C 0 km/h
804 29-04-2005 16:44:02 22.4 C 10.33 g/m*3 22.4 C 0 km/h
805 29-04-2005 16:56:02 21.8 C 10.55 g/m*3 21.8 C 0 km/h
806 29-04-2005 17:08:03 21.4 C 10.5 g/m*3 21.4 C 0 km/h
807 29-04-2005 17:20:02 21.3 C 11 g/m*3 21.3 C 0 km/h
808 29-04-2005 17:32:02 21 C 10.44 g/m*3 21 C 0 km/h
809 29-04-2005 17:44:02 21.4 C 10.31 g/m*3 21.4 C 0 km/h
810 29-04-2005 17:56:02 21.1 C 10.13 g/m*3 21.1 C 0 km/h
811 29-04-2005 18:08:02 21.2 C 10.19 g/m*3 21.2 C 0 km/h
812 29-04-2005 18:20:02 21.6 C 10.62 g/m*3 21.6 C 0 km/h
813 29-04-2005 18:32:02 21.3 C 10.25 g/m*3 21.3 C 0 km/h
814 29-04-2005 18:44:02 20.8 C 10.32 g/m*3 20.8 C 0 km/h
815 29-04-2005 18:56:03 20.5 C 10.32 g/m*3 20.5 C 0 km/h
816 29-04-2005 19:08:02 20.2 C 10.32 g/m*3 20.2 C 0 km/h
817 29-04-2005 19:20:02 19.8 C 10.42 g/m*3 19.8 C 0 km/h
818 29-04-2005 19:32:03 19.4 C 10.34 g/m*3 19.4 C 0 km/h
819 29-04-2005 19:44:03 19.4 C 10.51 g/m*3 19.4 C 0 km/h
820 29-04-2005 19:56:02 19.3 C 10.95 g/m*3 19.3 C 0 km/h
821 29-04-2005 20:08:02 18.9 C 11.02 g/m*3 18.9 C 0 km/h
822 29-04-2005 20:20:03 18.7 C 10.89 g/m*3 18.7 C 0 km/h
823 29-04-2005 20:32:02 18.5 C 10.76 g/m*3 18.5 C 0 km/h
824 29-04-2005 20:44:02 18.4 C 10.85 g/m*3 18.4 C 0 km/h
825 29-04-2005 20:56:02 18.1 C 10.82 g/m*3 18.1 C 0 km/h
Sensor: Nr:Datum:Temp:Abs-Feuchte:Windchill:Wind:
Aussen-T/F 826 29-04-2005 21:08:02 17.9 C 10.99 g/m*3 17.9 C 0 km/h
827 29-04-2005 21:20:02 17.7 C 11.01 g/m*3 17.7 C 0 km/h
828 29-04-2005 21:32:01 17.5 C 11.03 g/m*3 17.5 C 0 km/h
829 29-04-2005 21:44:01 17.1 C 10.77 g/m*3 17.1 C 0 km/h
830 29-04-2005 21:56:02 17.1 C 10.92 g/m*3 17.1 C 0 km/h
831 29-04-2005 22:08:03 16.9 C 11.08 g/m*3 16.9 C 0 km/h
832 29-04-2005 22:20:02 16.8 C 11.01 g/m*3 16.8 C 0 km/h
833 29-04-2005 22:32:02 16.5 C 10.81 g/m*3 16.5 C 0 km/h
834 29-04-2005 22:44:02 16.4 C 10.89 g/m*3 16.4 C 0 km/h
835 29-04-2005 22:56:01 16.2 C 10.76 g/m*3 16.2 C 0 km/h
836 29-04-2005 23:08:01 16.2 C 10.89 g/m*3 16.2 C 0 km/h
837 29-04-2005 23:20:01 16.2 C 10.89 g/m*3 16.2 C 0 km/h
838 29-04-2005 23:32:01 16.2 C 10.89 g/m*3 16.2 C 0 km/h
839 29-04-2005 23:44:01 16 C 10.76 g/m*3 16 C 0 km/h
840 29-04-2005 23:56:01 16 C 10.9 g/m*3 16 C 0 km/h
841 30-04-2005 00:08:02 16 C 10.9 g/m*3 16 C 0 km/h
842 30-04-2005 00:20:02 15.9 C 10.97 g/m*3 15.9 C 0 km/h
843 30-04-2005 00:32:01 15.8 C 10.9 g/m*3 15.8 C 0 km/h
844 30-04-2005 00:44:01 15.8 C 11.04 g/m*3 15.8 C 0 km/h
845 30-04-2005 00:56:03 15.6 C 10.91 g/m*3 15.6 C 0 km/h
846 30-04-2005 01:08:02 15.6 C 10.91 g/m*3 15.6 C 0 km/h
847 30-04-2005 01:20:02 15.6 C 10.91 g/m*3 15.6 C 0 km/h
848 30-04-2005 01:32:02 15.6 C 10.91 g/m*3 15.6 C 0 km/h
849 30-04-2005 01:44:02 15.6 C 10.91 g/m*3 15.6 C 0 km/h
850 30-04-2005 01:56:02 15.6 C 10.91 g/m*3 15.6 C 0 km/h
Sensor: Nr:Datum:Temp:Abs-Feuchte:Windchill:Wind:
Aussen-T/F 851 30-04-2005 02:08:02 15.6 C 10.91 g/m*3 15.6 C 0 km/h
852 30-04-2005 02:20:03 15.5 C 10.84 g/m*3 15.5 C 0 km/h
853 30-04-2005 02:32:02 15.4 C 10.77 g/m*3 15.4 C 0 km/h
854 30-04-2005 02:44:02 15.4 C 10.77 g/m*3 15.4 C 0 km/h
855 30-04-2005 02:57:04 15.3 C 10.84 g/m*3 15.3 C 0 km/h
856 30-04-2005 03:09:04 15.3 C 10.84 g/m*3 15.3 C 0 km/h
857 30-04-2005 03:21:04 15.2 C 10.77 g/m*3 15.2 C 0 km/h
858 30-04-2005 03:33:02 14.9 C 10.58 g/m*3 14.9 C 0 km/h
859 30-04-2005 03:45:02 14.4 C 10.38 g/m*3 14.4 C 0 km/h
860 30-04-2005 03:57:02 14.2 C 10.38 g/m*3 14.2 C 0 km/h
861 30-04-2005 04:09:01 14 C 10.37 g/m*3 14 C 0 km/h
862 30-04-2005 04:21:02 13.7 C 10.3 g/m*3 13.7 C 0 km/h
863 30-04-2005 04:33:01 13.5 C 10.18 g/m*3 13.5 C 0 km/h
864 30-04-2005 04:45:03 13.4 C 10.23 g/m*3 13.4 C 0 km/h
865 30-04-2005 04:57:03 13.4 C 10.23 g/m*3 13.4 C 0 km/h
866 30-04-2005 05:09:02 13.3 C 10.17 g/m*3 13.3 C 0 km/h
867 30-04-2005 05:21:03 13.1 C 10.04 g/m*3 13.1 C 0 km/h
868 30-04-2005 05:33:03 13 C 9.98 g/m*3 13 C 0 km/h
869 30-04-2005 05:45:01 13 C 10.09 g/m*3 13 C 0 km/h
870 30-04-2005 05:57:01 13.1 C 10.27 g/m*3 13.1 C 0 km/h
871 30-04-2005 06:09:02 13.2 C 10.22 g/m*3 13.2 C 0 km/h
872 30-04-2005 06:21:02 13.3 C 10.28 g/m*3 13.3 C 0 km/h
873 30-04-2005 06:33:02 13.2 C 10.1 g/m*3 13.2 C 0 km/h
874 30-04-2005 06:45:02 13.4 C 10.35 g/m*3 13.4 C 0 km/h
875 30-04-2005 06:57:02 13.5 C 10.41 g/m*3 13.5 C 0 km/h
Sensor: Nr:Datum:Temp:Abs-Feuchte:Windchill:Wind:
Aussen-T/F 876 30-04-2005 07:09:03 13.6 C 10.47 g/m*3 13.6 C 0 km/h
877 30-04-2005 07:21:02 13.6 C 10.47 g/m*3 13.6 C 0 km/h
878 30-04-2005 07:33:03 13.7 C 10.66 g/m*3 13.7 C 0 km/h
879 30-04-2005 07:45:03 13.9 C 10.67 g/m*3 13.9 C 0 km/h
880 30-04-2005 07:57:03 14.1 C 10.68 g/m*3 14.1 C 0 km/h
881 30-04-2005 08:09:03 14.5 C 10.7 g/m*3 14.5 C 0 km/h
882 30-04-2005 08:21:02 15.2 C 10.77 g/m*3 15.2 C 0 km/h
883 30-04-2005 08:33:02 15.4 C 10.51 g/m*3 15.4 C 0 km/h
884 30-04-2005 08:45:02 15.7 C 10.57 g/m*3 15.7 C 0 km/h
885 30-04-2005 08:57:02 16.1 C 10.69 g/m*3 16.1 C 0 km/h
886 30-04-2005 09:09:01 16.6 C 10.59 g/m*3 16.6 C 0 km/h
887 30-04-2005 09:21:02 16.9 C 10.79 g/m*3 16.9 C 0 km/h
888 30-04-2005 09:33:03 17.3 C 10.75 g/m*3 17.3 C 0 km/h
889 30-04-2005 09:45:03 17.9 C 10.99 g/m*3 17.9 C 0 km/h
890 30-04-2005 09:57:03 18.5 C 10.92 g/m*3 18.5 C 0 km/h
891 30-04-2005 10:09:04 18.7 C 10.73 g/m*3 18.7 C 0 km/h
892 30-04-2005 10:21:02 19.2 C 10.55 g/m*3 19.2 C 0 km/h
893 30-04-2005 10:33:02 19.6 C 10.47 g/m*3 19.6 C 0 km/h
894 30-04-2005 10:45:02 20.1 C 10.78 g/m*3 20.1 C 0 km/h
895 30-04-2005 10:57:02 20.5 C 10.68 g/m*3 20.5 C 0 km/h
896 30-04-2005 11:09:02 20.7 C 10.62 g/m*3 20.7 C 0 km/h
897 30-04-2005 11:21:03 21.3 C 10.44 g/m*3 21.3 C 0 km/h
898 30-04-2005 11:33:03 21.2 C 10.93 g/m*3 21.2 C 0 km/h
899 30-04-2005 11:45:03 20.9 C 10.75 g/m*3 20.9 C 0 km/h
900 30-04-2005 11:57:03 20.8 C 10.5 g/m*3 20.8 C 0 km/h
Sensor: Nr:Datum:Temp:Abs-Feuchte:Windchill:Wind:
Aussen-T/F 901 30-04-2005 12:09:02 21.3 C 10.62 g/m*3 21.3 C 0 km/h
902 30-04-2005 12:21:02 22.1 C 10.74 g/m*3 22.1 C 0 km/h
903 30-04-2005 12:33:02 22.7 C 10.1 g/m*3 22.7 C 0 km/h
904 30-04-2005 12:45:02 23.3 C 10.87 g/m*3 23.3 C 0 km/h
905 30-04-2005 12:57:02 23.7 C 10.48 g/m*3 23.7 C 0 km/h
906 30-04-2005 13:09:01 24.5 C 10.52 g/m*3 24.5 C 0 km/h
907 30-04-2005 13:21:02 25.2 C 9.78 g/m*3 25.2 C 0 km/h
908 30-04-2005 13:33:01 25.3 C 9.36 g/m*3 25.3 C 0 km/h
909 30-04-2005 13:45:02 25.3 C 9.6 g/m*3 25.3 C 0 km/h
910 30-04-2005 13:57:02 26.1 C 9.06 g/m*3 26.1 C 0 km/h
911 30-04-2005 14:09:01 25.9 C 9.2 g/m*3 25.9 C 0 km/h
912 30-04-2005 14:21:02 26 C 9.49 g/m*3 26 C 0 km/h
913 30-04-2005 14:33:02 26.6 C 9.82 g/m*3 26.6 C 0 km/h
914 30-04-2005 14:45:02 27.8 C 8.88 g/m*3 27.8 C 0 km/h
915 30-04-2005 14:57:02 27.3 C 8.11 g/m*3 27.3 C 0 km/h
916 30-04-2005 15:09:02 27.8 C 8.34 g/m*3 27.8 C 0 km/h
917 30-04-2005 15:21:02 28.2 C 8.25 g/m*3 28.2 C 0 km/h
918 30-04-2005 15:33:02 29.1 C 7.8 g/m*3 29.1 C 0 km/h
919 30-04-2005 15:45:02 29.1 C 8.66 g/m*3 29.1 C 0 km/h
920 30-04-2005 15:57:02 29.5 C 8.26 g/m*3 29.5 C 0 km/h
921 30-04-2005 16:09:05 28.4 C 7.51 g/m*3 28.4 C 0 km/h
922 30-04-2005 16:21:07 27.7 C 8.29 g/m*3 27.7 C 0 km/h
923 30-04-2005 16:33:03 29.1 C 7.8 g/m*3 29.1 C 0 km/h
924 30-04-2005 16:45:03 28.5 C 8.11 g/m*3 28.5 C 0 km/h
925 30-04-2005 16:57:03 29 C 8.9 g/m*3 29 C 0 km/h
Sensor: Nr:Datum:Temp:Abs-Feuchte:Windchill:Wind:
Aussen-T/F 926 30-04-2005 17:09:02 29.5 C 7.97 g/m*3 29.5 C 0 km/h
927 30-04-2005 17:21:02 29.4 C 8.51 g/m*3 29.4 C 0 km/h
928 30-04-2005 17:33:03 30.4 C 8.06 g/m*3 30.4 C 0 km/h
929 30-04-2005 17:45:02 30.7 C 7.56 g/m*3 30.7 C 0 km/h
930 30-04-2005 17:57:02 30.1 C 7.93 g/m*3 30.1 C 0 km/h
931 30-04-2005 18:09:02 29.1 C 8.09 g/m*3 29.1 C 0 km/h
932 30-04-2005 18:21:02 29.7 C 8.06 g/m*3 29.7 C 0 km/h
933 30-04-2005 18:33:02 28.9 C 8.57 g/m*3 28.9 C 0 km/h
934 30-04-2005 18:45:04 29.1 C 8.38 g/m*3 29.1 C 0 km/h
935 30-04-2005 18:57:04 29.1 C 9.53 g/m*3 29.1 C 0 km/h
936 30-04-2005 19:09:03 27.9 C 10.01 g/m*3 27.9 C 0 km/h
937 30-04-2005 19:21:02 26.7 C 10.12 g/m*3 26.7 C 0 km/h
938 30-04-2005 19:33:04 25.7 C 9.82 g/m*3 25.7 C 0 km/h
939 30-04-2005 19:45:02 25.1 C 9.72 g/m*3 25.1 C 0 km/h
940 30-04-2005 19:57:02 24.6 C 10.13 g/m*3 24.6 C 0 km/h
941 30-04-2005 20:09:02 24.2 C 10.12 g/m*3 24.2 C 0 km/h
942 30-04-2005 20:21:02 23.7 C 9.84 g/m*3 23.7 C 0 km/h
943 30-04-2005 20:33:03 23.3 C 10.45 g/m*3 23.3 C 0 km/h
944 30-04-2005 20:45:02 22.9 C 10.63 g/m*3 22.9 C 0 km/h
945 30-04-2005 20:57:02 22.4 C 10.72 g/m*3 22.4 C 0 km/h
946 30-04-2005 21:09:02 21.9 C 11 g/m*3 21.9 C 0 km/h
947 30-04-2005 21:21:02 21.5 C 10.94 g/m*3 21.5 C 0 km/h
948 30-04-2005 21:33:02 21 C 10.62 g/m*3 21 C 0 km/h
949 30-04-2005 21:45:02 20.7 C 10.8 g/m*3 20.7 C 0 km/h
950 30-04-2005 21:57:02 20.7 C 10.98 g/m*3 20.7 C 0 km/h
Sensor: Nr:Datum:Temp:Abs-Feuchte:Windchill:Wind:
Aussen-T/F 951 30-04-2005 22:09:04 20.4 C 10.97 g/m*3 20.4 C 0 km/h
952 30-04-2005 22:21:01 20.3 C 11.08 g/m*3 20.3 C 0 km/h
953 30-04-2005 22:33:03 19.9 C 11.17 g/m*3 19.9 C 0 km/h
954 30-04-2005 22:45:03 19.7 C 11.21 g/m*3 19.7 C 0 km/h
955 30-04-2005 22:57:03 19.2 C 10.88 g/m*3 19.2 C 0 km/h
956 30-04-2005 23:09:04 18.9 C 11.18 g/m*3 18.9 C 0 km/h
957 30-04-2005 23:21:03 18.6 C 10.98 g/m*3 18.6 C 0 km/h
958 30-04-2005 23:33:03 18.3 C 11.1 g/m*3 18.3 C 0 km/h
959 30-04-2005 23:45:02 17.9 C 11.15 g/m*3 17.9 C 0 km/h
960 30-04-2005 23:57:02 17.7 C 11.16 g/m*3 17.7 C 0 km/h
961 01-05-2005 00:09:02 17.6 C 11.25 g/m*3 17.6 C 0 km/h
962 01-05-2005 00:21:03 17.5 C 11.18 g/m*3 17.5 C 0 km/h
963 01-05-2005 00:33:02 17.2 C 11.13 g/m*3 17.2 C 0 km/h
964 01-05-2005 00:45:02 17.1 C 11.06 g/m*3 17.1 C 0 km/h
965 01-05-2005 00:57:02 16.8 C 11.15 g/m*3 16.8 C 0 km/h
966 01-05-2005 01:09:02 16.5 C 10.95 g/m*3 16.5 C 0 km/h
967 01-05-2005 01:21:02 16.3 C 10.96 g/m*3 16.3 C 0 km/h
968 01-05-2005 01:33:02 16.1 C 10.83 g/m*3 16.1 C 0 km/h
969 01-05-2005 01:45:02 15.9 C 10.97 g/m*3 15.9 C 0 km/h
970 01-05-2005 01:57:03 15.8 C 10.77 g/m*3 15.8 C 0 km/h
971 01-05-2005 02:09:02 15.7 C 10.7 g/m*3 15.7 C 0 km/h
972 01-05-2005 02:21:02 15.4 C 10.64 g/m*3 15.4 C 0 km/h
973 01-05-2005 02:33:02 15.2 C 10.64 g/m*3 15.2 C 0 km/h
974 01-05-2005 02:46:03 15.2 C 10.51 g/m*3 15.2 C 0 km/h
975 01-05-2005 02:58:03 15 C 10.26 g/m*3 15 C 0 km/h
Sensor: Nr:Datum:Temp:Abs-Feuchte:Windchill:Wind:
Aussen-T/F 976 01-05-2005 03:10:04 14.8 C 10.39 g/m*3 14.8 C 0 km/h
977 01-05-2005 03:22:04 14.5 C 10.2 g/m*3 14.5 C 0 km/h
978 01-05-2005 03:34:01 14.4 C 10.26 g/m*3 14.4 C 0 km/h
979 01-05-2005 03:46:01 14.2 C 10.26 g/m*3 14.2 C 0 km/h
980 01-05-2005 03:58:02 14.1 C 10.07 g/m*3 14.1 C 0 km/h
981 01-05-2005 04:10:01 14 C 10.01 g/m*3 14 C 0 km/h
982 01-05-2005 04:22:02 13.8 C 10.01 g/m*3 13.8 C 0 km/h
983 01-05-2005 04:34:02 13.7 C 10.07 g/m*3 13.7 C 0 km/h
984 01-05-2005 04:46:02 13.5 C 9.94 g/m*3 13.5 C 0 km/h
985 01-05-2005 04:58:02 13.4 C 9.88 g/m*3 13.4 C 0 km/h
986 01-05-2005 05:10:02 13.2 C 9.87 g/m*3 13.2 C 0 km/h
987 01-05-2005 05:22:02 13.1 C 9.81 g/m*3 13.1 C 0 km/h
988 01-05-2005 05:34:02 13 C 9.75 g/m*3 13 C 0 km/h
989 01-05-2005 05:46:01 12.9 C 9.69 g/m*3 12.9 C 0 km/h
990 01-05-2005 05:58:01 12.8 C 9.63 g/m*3 12.8 C 0 km/h
991 01-05-2005 06:10:02 12.7 C 9.46 g/m*3 12.7 C 0 km/h
992 01-05-2005 06:22:02 12.4 C 9.4 g/m*3 12.4 C 0 km/h
993 01-05-2005 06:34:01 12.2 C 9.5 g/m*3 12.2 C 0 km/h
994 01-05-2005 06:46:01 12.4 C 9.62 g/m*3 12.4 C 0 km/h
995 01-05-2005 06:58:01 12.6 C 9.62 g/m*3 12.6 C 0 km/h
996 01-05-2005 07:10:02 12.7 C 9.68 g/m*3 12.7 C 0 km/h
997 01-05-2005 07:22:02 12.8 C 9.74 g/m*3 12.8 C 0 km/h
998 01-05-2005 07:34:01 13 C 9.64 g/m*3 13 C 0 km/h
999 01-05-2005 07:46:02 12.8 C 9.63 g/m*3 12.8 C 0 km/h
1000 01-05-2005 07:58:02 13 C 9.64 g/m*3 13 C 0 km/h
Sensor: Nr:Datum:Temp:Abs-Feuchte:Windchill:Wind:
Aussen-T/F 1001 01-05-2005 08:10:01 13.1 C 9.59 g/m*3 13.1 C 0 km/h
1002 01-05-2005 08:22:02 13.3 C 9.7 g/m*3 13.3 C 0 km/h
1003 01-05-2005 08:34:01 13.2 C 9.76 g/m*3 13.2 C 0 km/h
1004 01-05-2005 08:46:02 13.3 C 9.94 g/m*3 13.3 C 0 km/h
1005 01-05-2005 08:58:02 13.4 C 10 g/m*3 13.4 C 0 km/h
1006 01-05-2005 09:10:02 13.9 C 10.43 g/m*3 13.9 C 0 km/h
1007 01-05-2005 09:22:01 14.5 C 10.57 g/m*3 14.5 C 0 km/h
1008 01-05-2005 09:34:02 15.2 C 10.51 g/m*3 15.2 C 0 km/h
1009 01-05-2005 09:46:02 15.9 C 10.83 g/m*3 15.9 C 0 km/h
1010 01-05-2005 09:58:02 16.7 C 11.08 g/m*3 16.7 C 0 km/h
1011 01-05-2005 10:10:02 17.4 C 11.26 g/m*3 17.4 C 0 km/h
1012 01-05-2005 10:22:02 18.2 C 11.19 g/m*3 18.2 C 0 km/h
1013 01-05-2005 10:34:02 19.1 C 11.31 g/m*3 19.1 C 0 km/h
1014 01-05-2005 10:46:02 19.9 C 11.34 g/m*3 19.9 C 0 km/h
1015 01-05-2005 10:58:02 20.6 C 11.63 g/m*3 20.6 C 0 km/h
1016 01-05-2005 11:10:02 21.2 C 11.49 g/m*3 21.2 C 0 km/h
1017 01-05-2005 11:22:01 22.2 C 11.78 g/m*3 22.2 C 0 km/h
1018 01-05-2005 11:34:02 22.6 C 12.05 g/m*3 22.6 C 0 km/h
1019 01-05-2005 11:46:02 23.5 C 12.27 g/m*3 23.5 C 0 km/h
1020 01-05-2005 11:58:02 24.1 C 11.6 g/m*3 24.1 C 0 km/h
1021 01-05-2005 12:10:02 24.6 C 12.38 g/m*3 24.6 C 0 km/h
1022 01-05-2005 12:22:02 25.5 C 12.07 g/m*3 25.5 C 0 km/h
1023 01-05-2005 12:34:02 25.9 C 12.1 g/m*3 25.9 C 0 km/h
1024 01-05-2005 12:46:02 26.4 C 11.7 g/m*3 26.4 C 0 km/h
1025 01-05-2005 12:58:02 27.2 C 10.93 g/m*3 27.2 C 0 km/h
Sensor: Nr:Datum:Temp:Abs-Feuchte:Windchill:Wind:
Aussen-T/F 1026 01-05-2005 13:10:03 28.3 C 11.61 g/m*3 28.3 C 0 km/h
1027 01-05-2005 13:22:02 28.7 C 9.32 g/m*3 28.7 C 0 km/h
1028 01-05-2005 13:34:02 29 C 7.18 g/m*3 29 C 0 km/h
1029 01-05-2005 13:46:03 29.7 C 8.95 g/m*3 29.7 C 0 km/h
1030 01-05-2005 13:58:03 30 C 8.49 g/m*3 30 C 0 km/h
1031 01-05-2005 14:10:03 29.7 C 7.16 g/m*3 29.7 C 0 km/h
1032 01-05-2005 14:22:02 30.1 C 7.01 g/m*3 30.1 C 0 km/h
1033 01-05-2005 14:34:02 30.1 C 8.23 g/m*3 30.1 C 0 km/h
1034 01-05-2005 14:46:02 30.4 C 8.06 g/m*3 30.4 C 0 km/h
1035 01-05-2005 14:58:03 30.7 C 7.56 g/m*3 30.7 C 0 km/h
1036 01-05-2005 15:10:02 31.2 C 7.12 g/m*3 31.2 C 0 km/h
1037 01-05-2005 15:22:02 31.4 C 7.19 g/m*3 31.4 C 0 km/h
1038 01-05-2005 15:34:05 31.1 C 7.08 g/m*3 31.1 C 0 km/h
1039 01-05-2005 15:46:03 31.7 C 6.64 g/m*3 31.7 C 0 km/h
1040 01-05-2005 15:58:03 32 C 6.75 g/m*3 32 C 0 km/h
1041 01-05-2005 16:10:04 32 C 6.75 g/m*3 32 C 0 km/h
1042 01-05-2005 16:22:02 32 C 6.75 g/m*3 32 C 0 km/h
1043 01-05-2005 16:34:05 32.5 C 6.93 g/m*3 32.5 C 0 km/h
1044 01-05-2005 16:46:02 32.5 C 6.93 g/m*3 32.5 C 0 km/h
1045 01-05-2005 16:58:02 32.3 C 6.86 g/m*3 32.3 C 0 km/h
1046 01-05-2005 17:10:02 32.4 C 6.9 g/m*3 32.4 C 0 km/h
1047 01-05-2005 17:22:02 32.5 C 6.93 g/m*3 32.5 C 0 km/h
1048 01-05-2005 17:34:01 32.8 C 7.04 g/m*3 32.8 C 0 km/h
1049 01-05-2005 17:46:01 32.4 C 6.9 g/m*3 32.4 C 0 km/h
1050 01-05-2005 17:58:01 32.4 C 6.9 g/m*3 32.4 C 0 km/h
Sensor: Nr:Datum:Temp:Abs-Feuchte:Windchill:Wind:
Aussen-T/F 1051 01-05-2005 18:10:02 32.3 C 6.86 g/m*3 32.3 C 0 km/h
1052 01-05-2005 18:22:02 31.8 C 6.68 g/m*3 31.8 C 0 km/h
1053 01-05-2005 18:34:01 31.7 C 6.64 g/m*3 31.7 C 0 km/h
1054 01-05-2005 18:46:01 31.4 C 6.87 g/m*3 31.4 C 0 km/h
1055 01-05-2005 18:58:01 30.9 C 7 g/m*3 30.9 C 0 km/h
1056 01-05-2005 19:10:02 31.5 C 7.56 g/m*3 31.5 C 0 km/h
1057 01-05-2005 19:22:02 31 C 8 g/m*3 31 C 0 km/h
1058 01-05-2005 19:34:01 31.2 C 8.09 g/m*3 31.2 C 0 km/h
1059 01-05-2005 19:46:02 30.7 C 7.24 g/m*3 30.7 C 0 km/h
1060 01-05-2005 19:58:03 29.7 C 8.35 g/m*3 29.7 C 0 km/h
1061 01-05-2005 20:10:02 27.8 C 8.07 g/m*3 27.8 C 0 km/h
1062 01-05-2005 20:22:02 26.9 C 8.19 g/m*3 26.9 C 0 km/h
1063 01-05-2005 20:34:03 25.9 C 7.99 g/m*3 25.9 C 0 km/h
1064 01-05-2005 20:46:02 25.1 C 8.1 g/m*3 25.1 C 0 km/h
1065 01-05-2005 20:58:02 24.6 C 7.88 g/m*3 24.6 C 0 km/h
1066 01-05-2005 21:10:02 24 C 8.05 g/m*3 24 C 0 km/h
1067 01-05-2005 21:22:01 23.7 C 8.13 g/m*3 23.7 C 0 km/h
1068 01-05-2005 21:34:22 23.7 C 7.7 g/m*3 23.7 C 0 km/h
1069 01-05-2005 21:46:02 23.4 C 7.36 g/m*3 23.4 C 0 km/h
1070 01-05-2005 21:58:02 23.3 C 7.74 g/m*3 23.3 C 0 km/h
1071 01-05-2005 22:10:02 23 C 8.22 g/m*3 23 C 0 km/h
1072 01-05-2005 22:22:02 22.5 C 8.59 g/m*3 22.5 C 0 km/h
1073 01-05-2005 22:34:03 22.1 C 8.78 g/m*3 22.1 C 0 km/h
1074 01-05-2005 22:46:02 21.8 C 8.83 g/m*3 21.8 C 0 km/h
1075 01-05-2005 22:58:02 21.5 C 9.24 g/m*3 21.5 C 0 km/h
Sensor: Nr:Datum:Temp:Abs-Feuchte:Windchill:Wind:
Aussen-T/F 1076 01-05-2005 23:10:02 21 C 8.98 g/m*3 21 C 0 km/h
1077 01-05-2005 23:22:01 20.6 C 8.77 g/m*3 20.6 C 0 km/h
1078 01-05-2005 23:34:01 20.5 C 8.9 g/m*3 20.5 C 0 km/h
1079 01-05-2005 23:46:02 20.4 C 9.02 g/m*3 20.4 C 0 km/h
1080 01-05-2005 23:58:02 20 C 8.99 g/m*3 20 C 0 km/h
1081 02-05-2005 00:10:02 19.3 C 9.12 g/m*3 19.3 C 0 km/h
1082 02-05-2005 00:22:02 19.2 C 9.23 g/m*3 19.2 C 0 km/h
1083 02-05-2005 00:34:02 18.9 C 8.91 g/m*3 18.9 C 0 km/h
1084 02-05-2005 00:46:03 18.5 C 8.86 g/m*3 18.5 C 0 km/h
1085 02-05-2005 00:58:03 18.3 C 9.07 g/m*3 18.3 C 0 km/h
1086 02-05-2005 01:10:02 18.1 C 9.12 g/m*3 18.1 C 0 km/h
1087 02-05-2005 01:22:03 17.8 C 9.26 g/m*3 17.8 C 0 km/h
1088 02-05-2005 01:34:02 17.6 C 9.45 g/m*3 17.6 C 0 km/h
1089 02-05-2005 01:46:02 17.2 C 9.37 g/m*3 17.2 C 0 km/h
1090 02-05-2005 01:58:02 17 C 9.41 g/m*3 17 C 0 km/h
1091 02-05-2005 02:10:02 16.8 C 9.58 g/m*3 16.8 C 0 km/h
1092 02-05-2005 02:22:02 16.5 C 9.41 g/m*3 16.5 C 0 km/h
1093 02-05-2005 02:34:03 16.3 C 9.43 g/m*3 16.3 C 0 km/h
1094 02-05-2005 02:47:03 16.2 C 9.38 g/m*3 16.2 C 0 km/h
1095 02-05-2005 02:59:03 16 C 9.4 g/m*3 16 C 0 km/h
1096 02-05-2005 03:11:04 15.8 C 9.29 g/m*3 15.8 C 0 km/h
1097 02-05-2005 03:23:04 15.6 C 9.18 g/m*3 15.6 C 0 km/h
1098 02-05-2005 03:35:02 15.2 C 9.22 g/m*3 15.2 C 0 km/h
1099 02-05-2005 03:47:02 15.1 C 9.29 g/m*3 15.1 C 0 km/h
1100 02-05-2005 03:59:02 14.9 C 9.3 g/m*3 14.9 C 0 km/h
Sensor: Nr:Datum:Temp:Abs-Feuchte:Windchill:Wind:
Aussen-T/F 1101 02-05-2005 04:11:02 15.1 C 9.29 g/m*3 15.1 C 0 km/h
1102 02-05-2005 04:23:02 14.7 C 9.19 g/m*3 14.7 C 0 km/h
1103 02-05-2005 04:35:02 14.7 C 9.19 g/m*3 14.7 C 0 km/h
1104 02-05-2005 04:47:02 14.6 C 9.26 g/m*3 14.6 C 0 km/h
1105 02-05-2005 04:59:02 14.5 C 9.2 g/m*3 14.5 C 0 km/h
1106 02-05-2005 05:11:03 14.3 C 9.09 g/m*3 14.3 C 0 km/h
1107 02-05-2005 05:23:02 14.1 C 9.1 g/m*3 14.1 C 0 km/h
1108 02-05-2005 05:35:03 14.1 C 9.1 g/m*3 14.1 C 0 km/h
1109 02-05-2005 05:47:02 14 C 9.05 g/m*3 14 C 0 km/h
1110 02-05-2005 05:59:02 13.8 C 9.06 g/m*3 13.8 C 0 km/h
1111 02-05-2005 06:11:02 13.7 C 9.12 g/m*3 13.7 C 0 km/h
1112 02-05-2005 06:23:02 13.7 C 9.12 g/m*3 13.7 C 0 km/h
1113 02-05-2005 06:35:02 13.8 C 9.17 g/m*3 13.8 C 0 km/h
1114 02-05-2005 06:47:02 13.9 C 9.35 g/m*3 13.9 C 0 km/h
1115 02-05-2005 06:59:02 14.2 C 9.28 g/m*3 14.2 C 0 km/h
1116 02-05-2005 07:11:02 14.3 C 9.34 g/m*3 14.3 C 0 km/h
1117 02-05-2005 07:23:02 14.4 C 9.52 g/m*3 14.4 C 0 km/h
1118 02-05-2005 07:35:02 14.5 C 9.58 g/m*3 14.5 C 0 km/h
1119 02-05-2005 07:47:02 14.7 C 9.57 g/m*3 14.7 C 0 km/h
1120 02-05-2005 07:59:02 15.2 C 9.73 g/m*3 15.2 C 0 km/h
1121 02-05-2005 08:11:02 15.8 C 9.56 g/m*3 15.8 C 0 km/h
1122 02-05-2005 08:23:02 16.2 C 9.38 g/m*3 16.2 C 0 km/h
1123 02-05-2005 08:35:02 16.7 C 9.52 g/m*3 16.7 C 0 km/h
1124 02-05-2005 08:47:02 17 C 9.41 g/m*3 17 C 0 km/h
1125 02-05-2005 08:59:02 17 C 9.41 g/m*3 17 C 0 km/h
Sensor: Nr:Datum:Temp:Abs-Feuchte:Windchill:Wind:
Aussen-T/F 1126 02-05-2005 09:11:02 17.3 C 9.72 g/m*3 17.3 C 0 km/h
1127 02-05-2005 09:23:02 18 C 9.83 g/m*3 18 C 0 km/h
1128 02-05-2005 09:35:06 18.8 C 9.82 g/m*3 18.8 C 0 km/h
1129 02-05-2005 09:47:02 19.1 C 9.84 g/m*3 19.1 C 0 km/h
1130 02-05-2005 09:59:02 19.6 C 10.3 g/m*3 19.6 C 0 km/h
1131 02-05-2005 10:11:01 20.4 C 10.44 g/m*3 20.4 C 0 km/h
1132 02-05-2005 10:23:01 21.5 C 10.37 g/m*3 21.5 C 0 km/h
1133 02-05-2005 10:35:01 22.6 C 10.04 g/m*3 22.6 C 0 km/h
1134 02-05-2005 10:47:03 23.1 C 8.89 g/m*3 23.1 C 0 km/h
1135 02-05-2005 10:59:03 24.1 C 8.31 g/m*3 24.1 C 0 km/h
1136 02-05-2005 11:11:03 24.8 C 9.1 g/m*3 24.8 C 0 km/h
1137 02-05-2005 11:23:02 24.3 C 8.63 g/m*3 24.3 C 0 km/h
1138 02-05-2005 11:35:02 24.1 C 8.75 g/m*3 24.1 C 0 km/h
1139 02-05-2005 11:47:02 24 C 8.49 g/m*3 24 C 0 km/h
1140 02-05-2005 11:59:02 23.7 C 8.56 g/m*3 23.7 C 0 km/h
1141 02-05-2005 12:11:02 24.5 C 8.28 g/m*3 24.5 C 0 km/h
1142 02-05-2005 12:23:01 24.7 C 7.92 g/m*3 24.7 C 0 km/h
1143 02-05-2005 12:35:02 24.4 C 8.23 g/m*3 24.4 C 0 km/h
1144 02-05-2005 12:47:02 24.6 C 7.88 g/m*3 24.6 C 0 km/h
1145 02-05-2005 12:59:02 24.6 C 7.88 g/m*3 24.6 C 0 km/h
1146 02-05-2005 13:11:02 25.3 C 7.49 g/m*3 25.3 C 0 km/h
1147 02-05-2005 13:23:02 25.7 C 7.18 g/m*3 25.7 C 0 km/h
1148 02-05-2005 13:35:02 26.1 C 7.34 g/m*3 26.1 C 0 km/h
1149 02-05-2005 13:47:02 26.3 C 6.68 g/m*3 26.3 C 0 km/h
1150 02-05-2005 13:59:02 26.7 C 6.58 g/m*3 26.7 C 0 km/h
Sensor: Nr:Datum:Temp:Abs-Feuchte:Windchill:Wind:
Aussen-T/F 1151 02-05-2005 14:11:02 27.3 C 6.8 g/m*3 27.3 C 0 km/h
1152 02-05-2005 14:23:02 27.8 C 7.26 g/m*3 27.8 C 0 km/h
1153 02-05-2005 14:35:02 28.2 C 7.15 g/m*3 28.2 C 0 km/h
1154 02-05-2005 14:47:02 28.5 C 7.27 g/m*3 28.5 C 0 km/h
1155 02-05-2005 14:59:02 28.6 C 7.31 g/m*3 28.6 C 0 km/h
1156 02-05-2005 15:11:02 28.5 C 7.27 g/m*3 28.5 C 0 km/h
1157 02-05-2005 15:23:02 28.7 C 7.35 g/m*3 28.7 C 0 km/h
1158 02-05-2005 15:35:02 28.9 C 7.43 g/m*3 28.9 C 0 km/h
1159 02-05-2005 15:47:02 28.9 C 7.14 g/m*3 28.9 C 0 km/h
1160 02-05-2005 15:59:02 29.2 C 7.26 g/m*3 29.2 C 0 km/h
1161 02-05-2005 16:11:02 28.3 C 7.19 g/m*3 28.3 C 0 km/h
1162 02-05-2005 16:23:02 29 C 7.18 g/m*3 29 C 0 km/h
1163 02-05-2005 16:35:02 28.8 C 7.39 g/m*3 28.8 C 0 km/h
1164 02-05-2005 16:47:02 27.6 C 7.71 g/m*3 27.6 C 0 km/h
1165 02-05-2005 16:59:02 26.6 C 7.8 g/m*3 26.6 C 0 km/h
1166 02-05-2005 17:11:02 26.4 C 8.21 g/m*3 26.4 C 0 km/h
1167 02-05-2005 17:23:03 25.8 C 8.43 g/m*3 25.8 C 0 km/h
1168 02-05-2005 17:35:02 25.5 C 8.29 g/m*3 25.5 C 0 km/h
1169 02-05-2005 17:47:01 25 C 8.52 g/m*3 25 C 0 km/h
1170 02-05-2005 17:59:01 24 C 9.36 g/m*3 24 C 0 km/h
1171 02-05-2005 18:11:02 24.2 C 9.02 g/m*3 24.2 C 0 km/h
1172 02-05-2005 18:23:01 23.7 C 9.84 g/m*3 23.7 C 0 km/h
1173 02-05-2005 18:35:02 21.7 C 12.21 g/m*3 21.7 C 0 km/h
1174 02-05-2005 18:47:02 22 C 12.42 g/m*3 22 C 0 km/h
1175 02-05-2005 18:59:02 22.9 C 12.06 g/m*3 22.9 C 0 km/h
Sensor: Nr:Datum:Temp:Abs-Feuchte:Windchill:Wind:
Aussen-T/F 1176 02-05-2005 19:11:02 22.6 C 11.45 g/m*3 22.6 C 0 km/h
1177 02-05-2005 19:23:01 22.3 C 11.45 g/m*3 22.3 C 0 km/h
1178 02-05-2005 19:35:02 22.1 C 10.93 g/m*3 22.1 C 0 km/h
1179 02-05-2005 19:47:02 22.7 C 10.51 g/m*3 22.7 C 0 km/h
1180 02-05-2005 19:59:02 23.3 C 10.87 g/m*3 23.3 C 0 km/h
1181 02-05-2005 20:11:02 23.2 C 11.02 g/m*3 23.2 C 0 km/h
1182 02-05-2005 20:23:02 23.2 C 11.02 g/m*3 23.2 C 0 km/h
1183 02-05-2005 20:35:02 22.5 C 10.79 g/m*3 22.5 C 0 km/h
1184 02-05-2005 20:47:02 22 C 10.48 g/m*3 22 C 0 km/h
1185 02-05-2005 20:59:02 21.6 C 10.43 g/m*3 21.6 C 0 km/h
1186 02-05-2005 21:11:02 21.1 C 10.5 g/m*3 21.1 C 0 km/h
1187 02-05-2005 21:23:02 20.6 C 10.56 g/m*3 20.6 C 0 km/h
1188 02-05-2005 21:35:02 20.2 C 10.32 g/m*3 20.2 C 0 km/h
1189 02-05-2005 21:48:02 19.8 C 10.42 g/m*3 19.8 C 0 km/h
1190 02-05-2005 22:00:02 19.6 C 10.47 g/m*3 19.6 C 0 km/h
1191 02-05-2005 22:12:02 19.3 C 10.28 g/m*3 19.3 C 0 km/h
1192 02-05-2005 22:24:02 19.1 C 10.33 g/m*3 19.1 C 0 km/h
1193 02-05-2005 22:36:02 18.9 C 10.37 g/m*3 18.9 C 0 km/h
1194 02-05-2005 22:48:02 18.7 C 10.57 g/m*3 18.7 C 0 km/h
1195 02-05-2005 23:00:02 18.6 C 10.66 g/m*3 18.6 C 0 km/h
1196 02-05-2005 23:12:02 18.3 C 10.63 g/m*3 18.3 C 0 km/h
1197 02-05-2005 23:24:02 18 C 10.6 g/m*3 18 C 0 km/h
1198 02-05-2005 23:36:02 17.7 C 10.71 g/m*3 17.7 C 0 km/h
1199 02-05-2005 23:48:02 17.6 C 10.8 g/m*3 17.6 C 0 km/h
1200 03-05-2005 00:00:02 17.2 C 10.54 g/m*3 17.2 C 0 km/h
Sensor: Nr:Datum:Temp:Abs-Feuchte:Windchill:Wind:
Aussen-T/F 1201 03-05-2005 00:12:02 17.1 C 10.48 g/m*3 17.1 C 0 km/h
1202 03-05-2005 00:24:03 16.7 C 10.52 g/m*3 16.7 C 0 km/h
1203 03-05-2005 00:36:03 16.5 C 10.53 g/m*3 16.5 C 0 km/h
1204 03-05-2005 00:48:03 16.3 C 10.41 g/m*3 16.3 C 0 km/h
1205 03-05-2005 01:00:03 16.3 C 10.41 g/m*3 16.3 C 0 km/h
1206 03-05-2005 01:12:03 16 C 10.35 g/m*3 16 C 0 km/h
1207 03-05-2005 01:24:03 15.8 C 10.36 g/m*3 15.8 C 0 km/h
1208 03-05-2005 01:36:03 15.8 C 10.5 g/m*3 15.8 C 0 km/h
1209 03-05-2005 01:48:03 15.6 C 10.37 g/m*3 15.6 C 0 km/h
1210 03-05-2005 02:00:03 15.5 C 10.31 g/m*3 15.5 C 0 km/h
1211 03-05-2005 02:12:03 15.3 C 10.32 g/m*3 15.3 C 0 km/h
1212 03-05-2005 02:24:03 14.9 C 10.32 g/m*3 14.9 C 0 km/h
1213 03-05-2005 02:36:03 15 C 10.26 g/m*3 15 C 0 km/h
1214 03-05-2005 02:48:03 14.9 C 10.32 g/m*3 14.9 C 0 km/h
1215 03-05-2005 03:00:03 14.8 C 10.39 g/m*3 14.8 C 0 km/h
1216 03-05-2005 03:12:03 14.7 C 10.2 g/m*3 14.7 C 0 km/h
1217 03-05-2005 03:24:03 14.7 C 10.2 g/m*3 14.7 C 0 km/h
1218 03-05-2005 03:36:03 14.8 C 10.13 g/m*3 14.8 C 0 km/h
1219 03-05-2005 03:48:03 14.7 C 10.07 g/m*3 14.7 C 0 km/h
1220 03-05-2005 04:00:03 14.5 C 10.07 g/m*3 14.5 C 0 km/h
1221 03-05-2005 04:12:03 14.4 C 10.01 g/m*3 14.4 C 0 km/h
1222 03-05-2005 04:24:03 14.4 C 10.01 g/m*3 14.4 C 0 km/h
1223 03-05-2005 04:36:04 14.4 C 10.01 g/m*3 14.4 C 0 km/h
1224 03-05-2005 04:48:04 14.3 C 9.95 g/m*3 14.3 C 0 km/h
1225 03-05-2005 05:00:04 14.2 C 10.01 g/m*3 14.2 C 0 km/h
Sensor: Nr:Datum:Temp:Abs-Feuchte:Windchill:Wind:
Aussen-T/F 1226 03-05-2005 05:12:04 14.2 C 10.01 g/m*3 14.2 C 0 km/h
1227 03-05-2005 05:24:04 14.1 C 9.95 g/m*3 14.1 C 0 km/h
1228 03-05-2005 05:36:04 14.1 C 9.95 g/m*3 14.1 C 0 km/h
1229 03-05-2005 05:48:04 14 C 9.89 g/m*3 14 C 0 km/h
1230 03-05-2005 06:00:04 13.8 C 9.89 g/m*3 13.8 C 0 km/h
1231 03-05-2005 06:12:04 13.7 C 9.83 g/m*3 13.7 C 0 km/h
1232 03-05-2005 06:24:04 13.6 C 9.89 g/m*3 13.6 C 0 km/h
1233 03-05-2005 06:36:04 13.6 C 9.89 g/m*3 13.6 C 0 km/h
1234 03-05-2005 06:48:04 13.5 C 9.83 g/m*3 13.5 C 0 km/h
1235 03-05-2005 07:00:04 13.5 C 9.83 g/m*3 13.5 C 0 km/h
1236 03-05-2005 07:12:04 13.6 C 10 g/m*3 13.6 C 0 km/h
1237 03-05-2005 07:24:04 13.8 C 10.01 g/m*3 13.8 C 0 km/h
1238 03-05-2005 07:36:04 14.2 C 10.14 g/m*3 14.2 C 0 km/h
1239 03-05-2005 07:48:03 14.4 C 10.14 g/m*3 14.4 C 0 km/h
1240 03-05-2005 08:00:03 14.9 C 10.32 g/m*3 14.9 C 0 km/h
1241 03-05-2005 08:12:02 14.9 C 10.07 g/m*3 14.9 C 0 km/h
1242 03-05-2005 08:24:03 15.2 C 9.99 g/m*3 15.2 C 0 km/h
1243 03-05-2005 08:36:02 15.8 C 10.1 g/m*3 15.8 C 0 km/h
1244 03-05-2005 08:48:01 16.1 C 10.14 g/m*3 16.1 C 0 km/h
1245 03-05-2005 09:00:01 16.8 C 10.29 g/m*3 16.8 C 0 km/h
1246 03-05-2005 09:12:02 17.6 C 10.2 g/m*3 17.6 C 0 km/h
1247 03-05-2005 09:24:01 17.6 C 9.9 g/m*3 17.6 C 0 km/h
1248 03-05-2005 09:36:01 17.5 C 9.99 g/m*3 17.5 C 0 km/h
1249 03-05-2005 09:48:02 17 C 10.56 g/m*3 17 C 0 km/h
1250 03-05-2005 10:00:02 17.2 C 11.13 g/m*3 17.2 C 0 km/h
Sensor: Nr:Datum:Temp:Abs-Feuchte:Windchill:Wind:
Aussen-T/F 1251 03-05-2005 10:12:02 17.8 C 10.62 g/m*3 17.8 C 0 km/h
1252 03-05-2005 10:24:01 18.6 C 10.03 g/m*3 18.6 C 0 km/h
1253 03-05-2005 10:36:01 19.3 C 9.12 g/m*3 19.3 C 0 km/h
1254 03-05-2005 10:48:02 19.7 C 9.17 g/m*3 19.7 C 0 km/h
1255 03-05-2005 11:00:02 19.7 C 8.83 g/m*3 19.7 C 0 km/h
1256 03-05-2005 11:12:03 20.1 C 8.87 g/m*3 20.1 C 0 km/h
1257 03-05-2005 11:24:02 20.6 C 8.95 g/m*3 20.6 C 0 km/h
1258 03-05-2005 11:36:02 19.8 C 9.22 g/m*3 19.8 C 0 km/h
1259 03-05-2005 11:48:01 19.7 C 9.17 g/m*3 19.7 C 0 km/h
1260 03-05-2005 12:00:01 19.5 C 9.06 g/m*3 19.5 C 0 km/h
1261 03-05-2005 12:12:01 19.1 C 9.34 g/m*3 19.1 C 0 km/h
1262 03-05-2005 12:24:02 19.6 C 9.45 g/m*3 19.6 C 0 km/h
1263 03-05-2005 12:36:01 20 C 9.33 g/m*3 20 C 0 km/h
1264 03-05-2005 12:48:02 20.6 C 9.84 g/m*3 20.6 C 0 km/h
1265 03-05-2005 13:00:02 20.7 C 9.36 g/m*3 20.7 C 0 km/h
1266 03-05-2005 13:12:02 21.3 C 8.95 g/m*3 21.3 C 0 km/h
1267 03-05-2005 13:24:01 22 C 8.73 g/m*3 22 C 0 km/h
1268 03-05-2005 13:36:02 22.2 C 8.44 g/m*3 22.2 C 0 km/h
1269 03-05-2005 13:48:02 22.5 C 8.79 g/m*3 22.5 C 0 km/h
1270 03-05-2005 14:00:02 22.6 C 8.84 g/m*3 22.6 C 0 km/h
1271 03-05-2005 14:12:02 22.9 C 8.79 g/m*3 22.9 C 0 km/h
1272 03-05-2005 14:24:02 22.9 C 8.79 g/m*3 22.9 C 0 km/h
1273 03-05-2005 14:36:02 23.4 C 8.62 g/m*3 23.4 C 0 km/h
1274 03-05-2005 14:48:02 23.3 C 8.57 g/m*3 23.3 C 0 km/h
1275 03-05-2005 15:00:02 23 C 8.22 g/m*3 23 C 0 km/h
Sensor: Nr:Datum:Temp:Abs-Feuchte:Windchill:Wind:
Aussen-T/F 1276 03-05-2005 15:12:02 23 C 7.81 g/m*3 23 C 0 km/h
1277 03-05-2005 15:24:02 22.9 C 7.36 g/m*3 22.9 C 0 km/h
1278 03-05-2005 15:36:03 23.1 C 7.65 g/m*3 23.1 C 0 km/h
1279 03-05-2005 15:48:01 22.9 C 7.56 g/m*3 22.9 C 0 km/h
1280 03-05-2005 16:00:01 22.9 C 7.97 g/m*3 22.9 C 0 km/h
1281 03-05-2005 16:12:01 23 C 8.22 g/m*3 23 C 0 km/h
1282 03-05-2005 16:24:01 22.7 C 8.49 g/m*3 22.7 C 0 km/h
1283 03-05-2005 16:36:02 22.3 C 7.9 g/m*3 22.3 C 0 km/h
1284 03-05-2005 16:48:02 21.6 C 7.97 g/m*3 21.6 C 0 km/h
1285 03-05-2005 17:00:02 21.4 C 7.87 g/m*3 21.4 C 0 km/h
1286 03-05-2005 17:12:02 21.3 C 8.2 g/m*3 21.3 C 0 km/h
1287 03-05-2005 17:24:02 21.2 C 8.34 g/m*3 21.2 C 0 km/h
1288 03-05-2005 17:36:02 20.8 C 8.69 g/m*3 20.8 C 0 km/h
1289 03-05-2005 17:48:02 20.8 C 8.87 g/m*3 20.8 C 0 km/h
1290 03-05-2005 18:00:02 20.3 C 8.62 g/m*3 20.3 C 0 km/h
1291 03-05-2005 18:12:02 19.6 C 7.09 g/m*3 19.6 C 0 km/h
1292 03-05-2005 18:24:02 19.1 C 7.38 g/m*3 19.1 C 0 km/h
1293 03-05-2005 18:36:02 18 C 8.91 g/m*3 18 C 0 km/h
1294 03-05-2005 18:48:01 18 C 8.29 g/m*3 18 C 0 km/h
1295 03-05-2005 19:00:01 18.1 C 7.88 g/m*3 18.1 C 0 km/h
1296 03-05-2005 19:12:01 18.3 C 7.82 g/m*3 18.3 C 0 km/h
1297 03-05-2005 19:24:01 18.1 C 7.88 g/m*3 18.1 C 0 km/h
1298 03-05-2005 19:36:02 17.7 C 8 g/m*3 17.7 C 0 km/h
1299 03-05-2005 19:48:02 16.9 C 9.06 g/m*3 16.9 C 0 km/h
1300 03-05-2005 20:00:02 16 C 9.26 g/m*3 16 C 0 km/h
Sensor: Nr:Datum:Temp:Abs-Feuchte:Windchill:Wind:
Aussen-T/F 1301 03-05-2005 20:12:03 15.8 C 9.56 g/m*3 15.8 C 0 km/h
1302 03-05-2005 20:24:02 15.7 C 9.37 g/m*3 15.7 C 0 km/h
1303 03-05-2005 20:36:03 15 C 10.13 g/m*3 15 C 0 km/h
1304 03-05-2005 20:48:02 14.4 C 10.38 g/m*3 14.4 C 0 km/h
1305 03-05-2005 21:00:02 14 C 10.37 g/m*3 14 C 0 km/h
1306 03-05-2005 21:12:02 14 C 10.37 g/m*3 14 C 0 km/h
1307 03-05-2005 21:24:02 14.4 C 10.51 g/m*3 14.4 C 0 km/h
1308 03-05-2005 21:36:02 14.2 C 10.01 g/m*3 14.2 C 0 km/h
1309 03-05-2005 21:49:04 14 C 10.01 g/m*3 14 C 0 km/h
1310 03-05-2005 22:01:04 13.7 C 9.83 g/m*3 13.7 C 0 km/h
1311 03-05-2005 22:13:04 13.6 C 9.77 g/m*3 13.6 C 0 km/h
1312 03-05-2005 22:25:05 13.5 C 9.83 g/m*3 13.5 C 0 km/h
1313 03-05-2005 22:37:05 13.3 C 9.7 g/m*3 13.3 C 0 km/h
1314 03-05-2005 22:49:05 13.5 C 9.94 g/m*3 13.5 C 0 km/h
1315 03-05-2005 23:01:05 13.6 C 9.89 g/m*3 13.6 C 0 km/h
1316 03-05-2005 23:13:05 13.6 C 10.12 g/m*3 13.6 C 0 km/h
1317 03-05-2005 23:25:05 13.3 C 10.28 g/m*3 13.3 C 0 km/h
1318 03-05-2005 23:37:05 13 C 10.09 g/m*3 13 C 0 km/h
1319 03-05-2005 23:49:05 12.7 C 9.91 g/m*3 12.7 C 0 km/h
1320 04-05-2005 00:01:05 12.7 C 9.91 g/m*3 12.7 C 0 km/h
1321 04-05-2005 00:13:05 12.2 C 9.71 g/m*3 12.2 C 0 km/h
1322 04-05-2005 00:25:05 12 C 9.59 g/m*3 12 C 0 km/h
1323 04-05-2005 00:37:05 12 C 9.59 g/m*3 12 C 0 km/h
1324 04-05-2005 00:49:05 11.8 C 9.58 g/m*3 11.8 C 0 km/h
1325 04-05-2005 01:01:05 11.9 C 9.64 g/m*3 11.9 C 0 km/h
Sensor: Nr:Datum:Temp:Abs-Feuchte:Windchill:Wind:
Aussen-T/F 1326 04-05-2005 01:13:05 12 C 9.59 g/m*3 12 C 0 km/h
1327 04-05-2005 01:25:05 12.1 C 9.44 g/m*3 12.1 C 0 km/h
1328 04-05-2005 01:37:05 12 C 9.27 g/m*3 12 C 0 km/h
1329 04-05-2005 01:49:05 11.9 C 9.21 g/m*3 11.9 C 0 km/h
1330 04-05-2005 02:01:05 11.7 C 9.1 g/m*3 11.7 C 0 km/h
1331 04-05-2005 02:13:05 11.5 C 8.99 g/m*3 11.5 C 0 km/h
1332 04-05-2005 02:25:06 11.3 C 8.87 g/m*3 11.3 C 0 km/h
1333 04-05-2005 02:37:06 11.2 C 8.92 g/m*3 11.2 C 0 km/h
1334 04-05-2005 02:49:06 11.3 C 8.98 g/m*3 11.3 C 0 km/h
1335 04-05-2005 03:01:06 11.1 C 8.86 g/m*3 11.1 C 0 km/h
1336 04-05-2005 03:13:06 11.4 C 8.83 g/m*3 11.4 C 0 km/h
1337 04-05-2005 03:25:06 11.5 C 8.78 g/m*3 11.5 C 0 km/h
1338 04-05-2005 03:37:06 11.7 C 8.79 g/m*3 11.7 C 0 km/h
1339 04-05-2005 03:49:06 11.6 C 8.73 g/m*3 11.6 C 0 km/h
1340 04-05-2005 04:01:06 11.5 C 8.78 g/m*3 11.5 C 0 km/h
1341 04-05-2005 04:13:06 11.5 C 8.78 g/m*3 11.5 C 0 km/h
1342 04-05-2005 04:25:06 11.2 C 8.72 g/m*3 11.2 C 0 km/h
1343 04-05-2005 04:37:06 11 C 8.61 g/m*3 11 C 0 km/h
1344 04-05-2005 04:49:06 11.1 C 8.76 g/m*3 11.1 C 0 km/h
1345 04-05-2005 05:01:06 11.4 C 8.83 g/m*3 11.4 C 0 km/h
1346 04-05-2005 05:13:06 11.5 C 8.68 g/m*3 11.5 C 0 km/h
1347 04-05-2005 05:25:06 11.5 C 8.57 g/m*3 11.5 C 0 km/h
1348 04-05-2005 05:37:06 11.3 C 8.47 g/m*3 11.3 C 0 km/h
1349 04-05-2005 05:49:06 11.2 C 8.41 g/m*3 11.2 C 0 km/h
1350 04-05-2005 06:01:06 11.4 C 8.52 g/m*3 11.4 C 0 km/h
Sensor: Nr:Datum:Temp:Abs-Feuchte:Windchill:Wind:
Aussen-T/F 1351 04-05-2005 06:13:07 11.5 C 8.57 g/m*3 11.5 C 0 km/h
1352 04-05-2005 06:25:07 11.7 C 8.58 g/m*3 11.7 C 0 km/h
1353 04-05-2005 06:37:07 11.9 C 8.58 g/m*3 11.9 C 0 km/h
1354 04-05-2005 06:49:07 12.1 C 8.58 g/m*3 12.1 C 0 km/h
1355 04-05-2005 07:01:07 12.2 C 8.52 g/m*3 12.2 C 0 km/h
1356 04-05-2005 07:13:07 12.5 C 8.8 g/m*3 12.5 C 0 km/h
1357 04-05-2005 07:25:07 12.8 C 9.07 g/m*3 12.8 C 0 km/h
1358 04-05-2005 07:37:07 12.7 C 9.13 g/m*3 12.7 C 0 km/h
1359 04-05-2005 07:49:07 12.5 C 9.13 g/m*3 12.5 C 0 km/h
1360 04-05-2005 08:01:07 12.5 C 9.24 g/m*3 12.5 C 0 km/h
1361 04-05-2005 08:13:07 12.6 C 9.4 g/m*3 12.6 C 0 km/h
1362 04-05-2005 08:25:07 12.6 C 9.4 g/m*3 12.6 C 0 km/h
1363 04-05-2005 08:37:07 12.7 C 9.35 g/m*3 12.7 C 0 km/h
1364 04-05-2005 08:49:07 12.5 C 9.24 g/m*3 12.5 C 0 km/h
1365 04-05-2005 09:01:07 12.6 C 9.4 g/m*3 12.6 C 0 km/h
1366 04-05-2005 09:13:07 12.7 C 9.46 g/m*3 12.7 C 0 km/h
1367 04-05-2005 09:25:07 12.6 C 9.51 g/m*3 12.6 C 0 km/h
1368 04-05-2005 09:37:07 12.8 C 9.74 g/m*3 12.8 C 0 km/h
1369 04-05-2005 09:49:07 12.8 C 9.74 g/m*3 12.8 C 0 km/h
1370 04-05-2005 10:01:07 13 C 9.87 g/m*3 13 C 0 km/h
1371 04-05-2005 10:13:07 12.9 C 9.81 g/m*3 12.9 C 0 km/h
1372 04-05-2005 10:25:08 13 C 9.87 g/m*3 13 C 0 km/h
1373 04-05-2005 10:37:08 13 C 9.98 g/m*3 13 C 0 km/h
1374 04-05-2005 10:49:08 13.1 C 10.04 g/m*3 13.1 C 0 km/h
1375 04-05-2005 11:01:08 13 C 10.09 g/m*3 13 C 0 km/h
Sensor: Nr:Datum:Temp:Abs-Feuchte:Windchill:Wind:
Aussen-T/F 1376 04-05-2005 11:13:08 12.2 C 9.71 g/m*3 12.2 C 0 km/h
1377 04-05-2005 11:25:08 12 C 9.7 g/m*3 12 C 0 km/h
1378 04-05-2005 11:37:08 11.9 C 9.64 g/m*3 11.9 C 0 km/h
1379 04-05-2005 11:49:08 12 C 9.59 g/m*3 12 C 0 km/h
1380 04-05-2005 12:01:08 12.5 C 9.89 g/m*3 12.5 C 0 km/h
1381 04-05-2005 12:13:08 13.2 C 10.22 g/m*3 13.2 C 0 km/h
1382 04-05-2005 12:25:08 14.5 C 11.07 g/m*3 14.5 C 0 km/h
1383 04-05-2005 12:37:08 16.1 C 10.69 g/m*3 16.1 C 0 km/h
1384 04-05-2005 12:49:08 16.2 C 10.62 g/m*3 16.2 C 0 km/h
1385 04-05-2005 13:01:08 16.1 C 10.42 g/m*3 16.1 C 0 km/h
1386 04-05-2005 13:13:08 17.2 C 10.69 g/m*3 17.2 C 0 km/h
1387 04-05-2005 13:25:08 18.8 C 10.31 g/m*3 18.8 C 0 km/h
1388 04-05-2005 13:37:08 16.1 C 8.64 g/m*3 16.1 C 0 km/h
1389 04-05-2005 13:49:08 16.1 C 10.28 g/m*3 16.1 C 0 km/h
1390 04-05-2005 14:01:08 16.5 C 9.69 g/m*3 16.5 C 0 km/h
1391 04-05-2005 14:13:08 17.5 C 8.2 g/m*3 17.5 C 0 km/h
1392 04-05-2005 14:25:09 17 C 7.96 g/m*3 17 C 0 km/h
1393 04-05-2005 14:37:09 13 C 8.73 g/m*3 13 C 0 km/h
1394 04-05-2005 14:49:09 13.4 C 10 g/m*3 13.4 C 0 km/h
1395 04-05-2005 15:01:09 15.1 C 10.06 g/m*3 15.1 C 0 km/h
1396 04-05-2005 15:13:09 16.1 C 9.87 g/m*3 16.1 C 0 km/h
1397 04-05-2005 15:25:09 16.3 C 9.3 g/m*3 16.3 C 0 km/h
1398 04-05-2005 15:37:09 15.7 C 9.37 g/m*3 15.7 C 0 km/h
1399 04-05-2005 15:49:09 16.4 C 8.93 g/m*3 16.4 C 0 km/h
1400 04-05-2005 16:01:09 16.9 C 8.92 g/m*3 16.9 C 0 km/h
Sensor: Nr:Datum:Temp:Abs-Feuchte:Windchill:Wind:
Aussen-T/F 1401 04-05-2005 16:13:09 15.8 C 8.62 g/m*3 15.8 C 0 km/h
1402 04-05-2005 16:25:09 12.1 C 8.69 g/m*3 12.1 C 0 km/h
1403 04-05-2005 16:37:09 12.2 C 9.5 g/m*3 12.2 C 0 km/h
1404 04-05-2005 16:49:09 13.7 C 10.54 g/m*3 13.7 C 0 km/h
1405 04-05-2005 17:01:03 14 C 10.25 g/m*3 14 C 0 km/h
1406 04-05-2005 17:13:03 14.1 C 10.56 g/m*3 14.1 C 0 km/h
1407 04-05-2005 17:25:02 13.8 C 10.48 g/m*3 13.8 C 0 km/h
1408 04-05-2005 17:37:02 13.9 C 10.67 g/m*3 13.9 C 0 km/h
1409 04-05-2005 17:49:02 13.9 C 10.67 g/m*3 13.9 C 0 km/h
1410 04-05-2005 18:01:02 13.7 C 10.54 g/m*3 13.7 C 0 km/h
1411 04-05-2005 18:13:02 13.7 C 10.66 g/m*3 13.7 C 0 km/h
1412 04-05-2005 18:25:02 13.5 C 10.64 g/m*3 13.5 C 0 km/h
1413 04-05-2005 18:37:02 13 C 9.98 g/m*3 13 C 0 km/h
1414 04-05-2005 18:49:01 12.8 C 9.97 g/m*3 12.8 C 0 km/h
1415 04-05-2005 19:01:02 12.4 C 9.51 g/m*3 12.4 C 0 km/h
1416 04-05-2005 19:13:02 12.2 C 9.5 g/m*3 12.2 C 0 km/h
1417 04-05-2005 19:25:01 11.9 C 9.43 g/m*3 11.9 C 0 km/h
1418 04-05-2005 19:37:01 11.5 C 9.19 g/m*3 11.5 C 0 km/h
1419 04-05-2005 19:49:02 11.6 C 9.35 g/m*3 11.6 C 0 km/h
1420 04-05-2005 20:01:02 11.7 C 9.52 g/m*3 11.7 C 0 km/h
1421 04-05-2005 20:13:02 11.5 C 9.4 g/m*3 11.5 C 0 km/h
1422 04-05-2005 20:25:02 11.5 C 9.4 g/m*3 11.5 C 0 km/h
1423 04-05-2005 20:37:02 11.5 C 9.4 g/m*3 11.5 C 0 km/h
1424 04-05-2005 20:49:02 11.5 C 9.4 g/m*3 11.5 C 0 km/h
1425 04-05-2005 21:01:02 11.5 C 9.5 g/m*3 11.5 C 0 km/h
Sensor: Nr:Datum:Temp:Abs-Feuchte:Windchill:Wind:
Aussen-T/F 1426 04-05-2005 21:13:02 11.5 C 9.5 g/m*3 11.5 C 0 km/h
1427 04-05-2005 21:25:02 11.4 C 9.44 g/m*3 11.4 C 0 km/h
1428 04-05-2005 21:37:02 11.5 C 9.5 g/m*3 11.5 C 0 km/h
1429 04-05-2005 21:49:01 11.5 C 9.5 g/m*3 11.5 C 0 km/h
1430 04-05-2005 22:01:01 11.4 C 9.44 g/m*3 11.4 C 0 km/h
1431 04-05-2005 22:13:01 11.4 C 9.44 g/m*3 11.4 C 0 km/h
1432 04-05-2005 22:25:01 11.3 C 9.38 g/m*3 11.3 C 0 km/h
1433 04-05-2005 22:37:01 11.5 C 9.61 g/m*3 11.5 C 0 km/h
1434 04-05-2005 22:49:02 11.5 C 9.61 g/m*3 11.5 C 0 km/h
1435 04-05-2005 23:01:02 11.5 C 9.5 g/m*3 11.5 C 0 km/h
1436 04-05-2005 23:13:02 11.5 C 9.61 g/m*3 11.5 C 0 km/h
1437 04-05-2005 23:25:03 11.5 C 9.61 g/m*3 11.5 C 0 km/h
1438 04-05-2005 23:37:02 11.5 C 9.61 g/m*3 11.5 C 0 km/h
1439 04-05-2005 23:49:02 11.4 C 9.55 g/m*3 11.4 C 0 km/h
1440 05-05-2005 00:01:02 11.5 C 9.61 g/m*3 11.5 C 0 km/h
1441 05-05-2005 00:13:02 11.5 C 9.61 g/m*3 11.5 C 0 km/h
1442 05-05-2005 00:25:02 11.4 C 9.55 g/m*3 11.4 C 0 km/h
1443 05-05-2005 00:37:02 11.4 C 9.55 g/m*3 11.4 C 0 km/h
1444 05-05-2005 00:49:02 11.5 C 9.61 g/m*3 11.5 C 0 km/h
1445 05-05-2005 01:01:01 11.5 C 9.61 g/m*3 11.5 C 0 km/h
1446 05-05-2005 01:13:01 11.5 C 9.61 g/m*3 11.5 C 0 km/h
1447 05-05-2005 01:25:02 11.5 C 9.61 g/m*3 11.5 C 0 km/h
1448 05-05-2005 01:37:02 11.5 C 9.61 g/m*3 11.5 C 0 km/h
1449 05-05-2005 01:49:02 11.5 C 9.61 g/m*3 11.5 C 0 km/h
1450 05-05-2005 02:01:02 11.5 C 9.61 g/m*3 11.5 C 0 km/h
Sensor: Nr:Datum:Temp:Abs-Feuchte:Windchill:Wind:
Aussen-T/F 1451 05-05-2005 02:13:02 11.4 C 9.55 g/m*3 11.4 C 0 km/h
1452 05-05-2005 02:25:02 11.4 C 9.55 g/m*3 11.4 C 0 km/h
1453 05-05-2005 02:37:02 11.5 C 9.61 g/m*3 11.5 C 0 km/h
1454 05-05-2005 02:50:04 11.5 C 9.61 g/m*3 11.5 C 0 km/h
1455 05-05-2005 03:02:04 11.5 C 9.71 g/m*3 11.5 C 0 km/h
1456 05-05-2005 03:14:05 11.4 C 9.65 g/m*3 11.4 C 0 km/h
1457 05-05-2005 03:26:05 11.4 C 9.65 g/m*3 11.4 C 0 km/h
1458 05-05-2005 03:38:02 11.4 C 9.65 g/m*3 11.4 C 0 km/h
1459 05-05-2005 03:50:02 11.5 C 9.71 g/m*3 11.5 C 0 km/h
1460 05-05-2005 04:02:01 11.5 C 9.71 g/m*3 11.5 C 0 km/h
1461 05-05-2005 04:14:01 11.5 C 9.71 g/m*3 11.5 C 0 km/h
1462 05-05-2005 04:26:02 11.5 C 9.71 g/m*3 11.5 C 0 km/h
1463 05-05-2005 04:38:02 11.5 C 9.71 g/m*3 11.5 C 0 km/h
1464 05-05-2005 04:50:03 11.5 C 9.71 g/m*3 11.5 C 0 km/h
1465 05-05-2005 05:02:02 11.5 C 9.71 g/m*3 11.5 C 0 km/h
1466 05-05-2005 05:14:02 11.5 C 9.71 g/m*3 11.5 C 0 km/h
1467 05-05-2005 05:26:02 11.4 C 9.65 g/m*3 11.4 C 0 km/h
1468 05-05-2005 05:38:02 11.4 C 9.65 g/m*3 11.4 C 0 km/h
1469 05-05-2005 05:50:02 11.4 C 9.65 g/m*3 11.4 C 0 km/h
1470 05-05-2005 06:02:02 11.4 C 9.65 g/m*3 11.4 C 0 km/h
1471 05-05-2005 06:14:02 11.3 C 9.59 g/m*3 11.3 C 0 km/h
1472 05-05-2005 06:26:02 11.2 C 9.53 g/m*3 11.2 C 0 km/h
1473 05-05-2005 06:38:02 11 C 9.41 g/m*3 11 C 0 km/h
1474 05-05-2005 06:50:02 10.6 C 9.08 g/m*3 10.6 C 0 km/h
1475 05-05-2005 07:02:02 10.4 C 8.96 g/m*3 10.4 C 0 km/h
Sensor: Nr:Datum:Temp:Abs-Feuchte:Windchill:Wind:
Aussen-T/F 1476 05-05-2005 07:14:02 10.4 C 8.96 g/m*3 10.4 C 0 km/h
1477 05-05-2005 07:26:04 10.4 C 8.87 g/m*3 10.4 C 0 km/h
1478 05-05-2005 07:38:04 10.1 C 8.61 g/m*3 10.1 C 0 km/h
1479 05-05-2005 07:50:02 9.7 C 8.48 g/m*3 9.7 C 0 km/h
1480 05-05-2005 08:02:02 9.5 C 8.28 g/m*3 9.5 C 0 km/h
1481 05-05-2005 08:14:02 9.3 C 8.18 g/m*3 9.3 C 0 km/h
1482 05-05-2005 08:26:02 9.2 C 8.13 g/m*3 9.2 C 0 km/h
1483 05-05-2005 08:38:03 9.1 C 8.07 g/m*3 9.1 C 0 km/h
1484 05-05-2005 08:50:02 8.9 C 7.97 g/m*3 8.9 C 0 km/h
1485 05-05-2005 09:02:03 8.7 C 7.87 g/m*3 8.7 C 0 km/h
1486 05-05-2005 09:14:03 8.7 C 7.78 g/m*3 8.7 C 0 km/h
1487 05-05-2005 09:26:02 8.8 C 7.75 g/m*3 8.8 C 0 km/h
1488 05-05-2005 09:38:02 9.1 C 7.45 g/m*3 9.1 C 0 km/h
1489 05-05-2005 09:50:02 9.2 C 7.23 g/m*3 9.2 C 0 km/h
1490 05-05-2005 10:02:03 9.8 C 7.24 g/m*3 9.8 C 0 km/h
1491 05-05-2005 10:14:03 9.9 C 7.1 g/m*3 9.9 C 0 km/h
1492 05-05-2005 10:26:02 9.6 C 6.87 g/m*3 9.6 C 0 km/h
1493 05-05-2005 10:38:02 9.7 C 6.73 g/m*3 9.7 C 0 km/h
1494 05-05-2005 10:50:02 10.6 C 7.03 g/m*3 10.6 C 0 km/h
1495 05-05-2005 11:02:02 10.3 C 6.32 g/m*3 10.3 C 0 km/h
1496 05-05-2005 11:14:02 10.7 C 6.29 g/m*3 10.7 C 0 km/h
1497 05-05-2005 11:26:02 10.8 C 6.33 g/m*3 10.8 C 0 km/h
1498 05-05-2005 11:38:02 11.2 C 6.08 g/m*3 11.2 C 0 km/h
1499 05-05-2005 11:50:01 11.2 C 6.18 g/m*3 11.2 C 0 km/h
1500 05-05-2005 12:02:02 11.5 C 5.99 g/m*3 11.5 C 0 km/h
Sensor: Nr:Datum:Temp:Abs-Feuchte:Windchill:Wind:
Aussen-T/F 1501 05-05-2005 12:14:02 11.9 C 5.93 g/m*3 11.9 C 0 km/h
1502 05-05-2005 12:26:01 12.2 C 5.61 g/m*3 12.2 C 0 km/h
1503 05-05-2005 12:38:03 12.9 C 5.64 g/m*3 12.9 C 0 km/h
1504 05-05-2005 12:50:03 13.4 C 5.23 g/m*3 13.4 C 0 km/h
1505 05-05-2005 13:02:02 13.6 C 5.06 g/m*3 13.6 C 0 km/h
1506 05-05-2005 13:14:02 14.2 C 4.88 g/m*3 14.2 C 0 km/h
1507 05-05-2005 13:26:02 14.7 C 4.78 g/m*3 14.7 C 0 km/h
1508 05-05-2005 13:38:03 15 C 4.49 g/m*3 15 C 0 km/h
1509 05-05-2005 13:50:02 15.1 C 4.26 g/m*3 15.1 C 0 km/h
1510 05-05-2005 14:02:02 15 C 4.36 g/m*3 15 C 0 km/h
1511 05-05-2005 14:14:02 15.2 C 4.41 g/m*3 15.2 C 0 km/h
1512 05-05-2005 14:26:01 15.4 C 3.94 g/m*3 15.4 C 0 km/h
1513 05-05-2005 14:38:02 16 C 3.95 g/m*3 16 C 0 km/h
1514 05-05-2005 14:50:02 17.2 C 3.95 g/m*3 17.2 C 0 km/h
1515 05-05-2005 15:02:02 16.9 C 4.03 g/m*3 16.9 C 0 km/h
1516 05-05-2005 15:14:02 17 C 3.62 g/m*3 17 C 0 km/h
1517 05-05-2005 15:26:02 16.7 C 3.55 g/m*3 16.7 C 0 km/h
1518 05-05-2005 15:38:02 16.2 C 3.59 g/m*3 16.2 C 0 km/h
1519 05-05-2005 15:50:03 16.8 C 3.57 g/m*3 16.8 C 0 km/h
1520 05-05-2005 16:02:04 17.6 C 3.45 g/m*3 17.6 C 0 km/h
1521 05-05-2005 16:14:04 18.3 C 3.6 g/m*3 18.3 C 0 km/h
1522 05-05-2005 16:26:02 17.4 C 2.96 g/m*3 17.4 C 0 km/h
1523 05-05-2005 16:38:02 16.5 C 3.51 g/m*3 16.5 C 0 km/h
1524 05-05-2005 16:50:02 16.4 C 3.07 g/m*3 16.4 C 0 km/h
1525 05-05-2005 17:02:02 16.6 C 3.67 g/m*3 16.6 C 0 km/h
Sensor: Nr:Datum:Temp:Abs-Feuchte:Windchill:Wind:
Aussen-T/F 1526 05-05-2005 17:14:02 16.3 C 3.75 g/m*3 16.3 C 0 km/h
1527 05-05-2005 17:26:02 16.2 C 3.72 g/m*3 16.2 C 0 km/h
1528 05-05-2005 17:38:02 16.1 C 3.84 g/m*3 16.1 C 0 km/h
1529 05-05-2005 17:50:03 16 C 3.81 g/m*3 16 C 0 km/h
1530 05-05-2005 18:02:04 15.7 C 3.88 g/m*3 15.7 C 0 km/h
1531 05-05-2005 18:14:04 15 C 3.98 g/m*3 15 C 0 km/h
1532 05-05-2005 18:26:03 15.1 C 4 g/m*3 15.1 C 0 km/h
1533 05-05-2005 18:38:03 15.2 C 4.02 g/m*3 15.2 C 0 km/h
1534 05-05-2005 18:50:02 15.1 C 4.26 g/m*3 15.1 C 0 km/h
1535 05-05-2005 19:02:03 14.4 C 4.08 g/m*3 14.4 C 0 km/h
1536 05-05-2005 19:14:03 14.4 C 4.2 g/m*3 14.4 C 0 km/h
1537 05-05-2005 19:26:02 14.2 C 4.15 g/m*3 14.2 C 0 km/h
1538 05-05-2005 19:38:02 14 C 4.1 g/m*3 14 C 0 km/h
1539 05-05-2005 19:50:02 14 C 3.98 g/m*3 14 C 0 km/h
1540 05-05-2005 20:02:03 13.6 C 4 g/m*3 13.6 C 0 km/h
1541 05-05-2005 20:14:03 13.6 C 4.24 g/m*3 13.6 C 0 km/h
1542 05-05-2005 20:26:03 13.5 C 4.21 g/m*3 13.5 C 0 km/h
1543 05-05-2005 20:38:03 13.2 C 4.02 g/m*3 13.2 C 0 km/h
1544 05-05-2005 20:50:03 12.8 C 4.03 g/m*3 12.8 C 0 km/h
1545 05-05-2005 21:02:04 12.7 C 4.12 g/m*3 12.7 C 0 km/h
1546 05-05-2005 21:14:04 12.4 C 4.04 g/m*3 12.4 C 0 km/h
1547 05-05-2005 21:26:02 12.2 C 3.99 g/m*3 12.2 C 0 km/h
1548 05-05-2005 21:38:04 12.2 C 3.88 g/m*3 12.2 C 0 km/h
1549 05-05-2005 21:50:03 12.1 C 4.08 g/m*3 12.1 C 0 km/h
1550 05-05-2005 22:02:03 12 C 4.37 g/m*3 12 C 0 km/h
Sensor: Nr:Datum:Temp:Abs-Feuchte:Windchill:Wind:
Aussen-T/F 1551 05-05-2005 22:14:03 11.8 C 4.42 g/m*3 11.8 C 0 km/h
1552 05-05-2005 22:26:02 11.7 C 4.39 g/m*3 11.7 C 0 km/h
1553 05-05-2005 22:38:04 11.6 C 4.26 g/m*3 11.6 C 0 km/h
1554 05-05-2005 22:50:03 11.5 C 4.65 g/m*3 11.5 C 0 km/h
1555 05-05-2005 23:02:04 11.5 C 4.44 g/m*3 11.5 C 0 km/h
1556 05-05-2005 23:14:04 11.6 C 4.47 g/m*3 11.6 C 0 km/h
1557 05-05-2005 23:26:03 11.4 C 4.62 g/m*3 11.4 C 0 km/h
1558 05-05-2005 23:38:03 11.3 C 4.79 g/m*3 11.3 C 0 km/h
1559 05-05-2005 23:50:02 11.3 C 4.9 g/m*3 11.3 C 0 km/h
1560 06-05-2005 00:02:02 11.2 C 4.97 g/m*3 11.2 C 0 km/h
1561 06-05-2005 00:14:02 11.3 C 5 g/m*3 11.3 C 0 km/h
1562 06-05-2005 00:26:02 11.3 C 5.1 g/m*3 11.3 C 0 km/h
1563 06-05-2005 00:38:02 11.2 C 5.17 g/m*3 11.2 C 0 km/h
1564 06-05-2005 00:50:02 11.2 C 4.97 g/m*3 11.2 C 0 km/h
1565 06-05-2005 01:02:02 11.2 C 5.17 g/m*3 11.2 C 0 km/h
1566 06-05-2005 01:14:02 11.1 C 5.44 g/m*3 11.1 C 0 km/h
1567 06-05-2005 01:26:02 11 C 5.41 g/m*3 11 C 0 km/h
1568 06-05-2005 01:38:02 11.1 C 4.83 g/m*3 11.1 C 0 km/h
1569 06-05-2005 01:50:02 11 C 4.8 g/m*3 11 C 0 km/h
1570 06-05-2005 02:02:02 10.7 C 5.11 g/m*3 10.7 C 0 km/h
1571 06-05-2005 02:14:02 10.8 C 4.84 g/m*3 10.8 C 0 km/h
1572 06-05-2005 02:26:02 10.9 C 4.87 g/m*3 10.9 C 0 km/h
1573 06-05-2005 02:38:03 10.8 C 4.94 g/m*3 10.8 C 0 km/h
1574 06-05-2005 02:51:03 10.7 C 5.01 g/m*3 10.7 C 0 km/h
1575 06-05-2005 03:03:03 10.7 C 5.01 g/m*3 10.7 C 0 km/h
Sensor: Nr:Datum:Temp:Abs-Feuchte:Windchill:Wind:
Aussen-T/F 1576 06-05-2005 03:15:03 10.7 C 5.01 g/m*3 10.7 C 0 km/h
1577 06-05-2005 03:27:03 10.8 C 5.14 g/m*3 10.8 C 0 km/h
1578 06-05-2005 03:39:02 10.7 C 5.3 g/m*3 10.7 C 0 km/h
1579 06-05-2005 03:51:02 9.6 C 6.14 g/m*3 9.6 C 0 km/h
1580 06-05-2005 04:03:01 9 C 6.61 g/m*3 9 C 0 km/h
1581 06-05-2005 04:15:02 8.6 C 6.87 g/m*3 8.6 C 0 km/h
1582 06-05-2005 04:27:02 8.3 C 6.91 g/m*3 8.3 C 0 km/h
1583 06-05-2005 04:39:01 8.2 C 7.03 g/m*3 8.2 C 0 km/h
1584 06-05-2005 04:51:03 8.1 C 6.99 g/m*3 8.1 C 0 km/h
1585 06-05-2005 05:03:02 8.2 C 7.12 g/m*3 8.2 C 0 km/h
1586 06-05-2005 05:15:03 8.2 C 7.12 g/m*3 8.2 C 0 km/h
1587 06-05-2005 05:27:03 8.2 C 7.2 g/m*3 8.2 C 0 km/h
1588 06-05-2005 05:39:02 8.4 C 7.47 g/m*3 8.4 C 0 km/h
1589 06-05-2005 05:51:01 8.3 C 7.42 g/m*3 8.3 C 0 km/h
1590 06-05-2005 06:03:02 8.3 C 7.5 g/m*3 8.3 C 0 km/h
1591 06-05-2005 06:15:01 8.2 C 7.54 g/m*3 8.2 C 0 km/h
1592 06-05-2005 06:27:01 8.3 C 7.59 g/m*3 8.3 C 0 km/h
1593 06-05-2005 06:39:02 8.3 C 7.59 g/m*3 8.3 C 0 km/h
1594 06-05-2005 06:51:02 8.3 C 7.59 g/m*3 8.3 C 0 km/h
1595 06-05-2005 07:03:02 8.4 C 7.63 g/m*3 8.4 C 0 km/h
1596 06-05-2005 07:15:02 8.4 C 7.72 g/m*3 8.4 C 0 km/h
1597 06-05-2005 07:27:02 8.4 C 7.72 g/m*3 8.4 C 0 km/h
1598 06-05-2005 07:39:04 8.6 C 7.82 g/m*3 8.6 C 0 km/h
1599 06-05-2005 07:51:04 8.7 C 7.87 g/m*3 8.7 C 0 km/h
1600 06-05-2005 08:03:03 9 C 7.85 g/m*3 9 C 0 km/h
Sensor: Nr:Datum:Temp:Abs-Feuchte:Windchill:Wind:
Aussen-T/F 1601 06-05-2005 08:15:04 9.3 C 8 g/m*3 9.3 C 0 km/h
1602 06-05-2005 08:27:04 9.6 C 8.06 g/m*3 9.6 C 0 km/h
1603 06-05-2005 08:39:03 9.6 C 7.97 g/m*3 9.6 C 0 km/h
1604 06-05-2005 08:51:03 9.7 C 8.02 g/m*3 9.7 C 0 km/h
1605 06-05-2005 09:03:04 10.6 C 8.2 g/m*3 10.6 C 0 km/h
1606 06-05-2005 09:15:02 11.1 C 8.26 g/m*3 11.1 C 0 km/h
1607 06-05-2005 09:27:02 10.7 C 8.05 g/m*3 10.7 C 0 km/h
1608 06-05-2005 09:39:02 10.4 C 8.19 g/m*3 10.4 C 0 km/h
1609 06-05-2005 09:51:02 10.2 C 8.37 g/m*3 10.2 C 0 km/h
1610 06-05-2005 10:03:02 10.2 C 8.28 g/m*3 10.2 C 0 km/h
1611 06-05-2005 10:15:02 10.4 C 8.1 g/m*3 10.4 C 0 km/h
1612 06-05-2005 10:27:02 10.6 C 7.71 g/m*3 10.6 C 0 km/h
1613 06-05-2005 10:39:02 11 C 8.21 g/m*3 11 C 0 km/h
1614 06-05-2005 10:51:02 10.6 C 7.81 g/m*3 10.6 C 0 km/h
1615 06-05-2005 11:03:02 10.7 C 7.66 g/m*3 10.7 C 0 km/h
1616 06-05-2005 11:15:02 11.2 C 7.8 g/m*3 11.2 C 0 km/h
1617 06-05-2005 11:27:02 11.3 C 7.55 g/m*3 11.3 C 0 km/h
1618 06-05-2005 11:39:02 12 C 7.35 g/m*3 12 C 0 km/h
1619 06-05-2005 11:51:02 12.6 C 7.52 g/m*3 12.6 C 0 km/h
1620 06-05-2005 12:03:02 12.8 C 7.17 g/m*3 12.8 C 0 km/h
1621 06-05-2005 12:15:02 12.5 C 6.71 g/m*3 12.5 C 0 km/h
1622 06-05-2005 12:27:02 12.6 C 6.97 g/m*3 12.6 C 0 km/h
1623 06-05-2005 12:39:03 12.8 C 7.06 g/m*3 12.8 C 0 km/h
1624 06-05-2005 12:51:02 13.1 C 6.85 g/m*3 13.1 C 0 km/h
1625 06-05-2005 13:03:02 13.4 C 6.86 g/m*3 13.4 C 0 km/h
Sensor: Nr:Datum:Temp:Abs-Feuchte:Windchill:Wind:
Aussen-T/F 1626 06-05-2005 13:15:02 14.9 C 7.01 g/m*3 14.9 C 0 km/h
1627 06-05-2005 13:27:02 15.4 C 6.7 g/m*3 15.4 C 0 km/h
1628 06-05-2005 13:39:02 14.4 C 6.8 g/m*3 14.4 C 0 km/h
1629 06-05-2005 13:51:02 13 C 6.35 g/m*3 13 C 0 km/h
1630 06-05-2005 14:03:02 12.5 C 7.04 g/m*3 12.5 C 0 km/h
1631 06-05-2005 14:15:02 11.9 C 7.41 g/m*3 11.9 C 0 km/h
1632 06-05-2005 14:27:02 12.8 C 7.5 g/m*3 12.8 C 0 km/h
1633 06-05-2005 14:39:03 13.9 C 7.19 g/m*3 13.9 C 0 km/h
1634 06-05-2005 14:51:03 13.7 C 6.04 g/m*3 13.7 C 0 km/h
1635 06-05-2005 15:03:04 15 C 6.28 g/m*3 15 C 0 km/h
1636 06-05-2005 15:15:03 15.3 C 5.88 g/m*3 15.3 C 0 km/h
1637 06-05-2005 15:27:03 15.1 C 5.81 g/m*3 15.1 C 0 km/h
1638 06-05-2005 15:39:04 14.6 C 5.63 g/m*3 14.6 C 0 km/h
1639 06-05-2005 15:51:04 14.3 C 5.77 g/m*3 14.3 C 0 km/h
1640 06-05-2005 16:03:05 15.2 C 5.58 g/m*3 15.2 C 0 km/h
1641 06-05-2005 16:15:02 13.7 C 6.51 g/m*3 13.7 C 0 km/h
1642 06-05-2005 16:27:02 14.4 C 6.06 g/m*3 14.4 C 0 km/h
1643 06-05-2005 16:39:04 15.6 C 5.05 g/m*3 15.6 C 0 km/h
1644 06-05-2005 16:51:03 15.2 C 5.32 g/m*3 15.2 C 0 km/h
1645 06-05-2005 17:03:04 16.4 C 5.58 g/m*3 16.4 C 0 km/h
1646 06-05-2005 17:15:04 15.5 C 5.42 g/m*3 15.5 C 0 km/h
1647 06-05-2005 17:27:04 14.1 C 5.22 g/m*3 14.1 C 0 km/h
1648 06-05-2005 17:39:04 14 C 5.31 g/m*3 14 C 0 km/h
1649 06-05-2005 17:51:03 13.7 C 4.86 g/m*3 13.7 C 0 km/h
1650 06-05-2005 18:03:04 14.4 C 4.57 g/m*3 14.4 C 0 km/h
Sensor: Nr:Datum:Temp:Abs-Feuchte:Windchill:Wind:
Aussen-T/F 1651 06-05-2005 18:15:03 13.8 C 4.53 g/m*3 13.8 C 0 km/h
1652 06-05-2005 18:27:03 13.1 C 4.68 g/m*3 13.1 C 0 km/h
1653 06-05-2005 18:39:04 13.6 C 4.83 g/m*3 13.6 C 0 km/h
1654 06-05-2005 18:51:02 13 C 4.76 g/m*3 13 C 0 km/h
1655 06-05-2005 19:03:02 13 C 4.76 g/m*3 13 C 0 km/h
1656 06-05-2005 19:15:02 12.9 C 4.96 g/m*3 12.9 C 0 km/h
1657 06-05-2005 19:27:02 12.7 C 5.01 g/m*3 12.7 C 0 km/h
1658 06-05-2005 19:39:02 12.6 C 4.98 g/m*3 12.6 C 0 km/h
1659 06-05-2005 19:51:02 12.8 C 5.04 g/m*3 12.8 C 0 km/h
1660 06-05-2005 20:03:02 12.4 C 5.03 g/m*3 12.4 C 0 km/h
1661 06-05-2005 20:15:03 12.4 C 4.92 g/m*3 12.4 C 0 km/h
1662 06-05-2005 20:27:03 11.9 C 4.98 g/m*3 11.9 C 0 km/h
1663 06-05-2005 20:39:02 11.5 C 5.16 g/m*3 11.5 C 0 km/h
1664 06-05-2005 20:51:02 11.1 C 5.14 g/m*3 11.1 C 0 km/h
1665 06-05-2005 21:03:04 11.1 C 5.34 g/m*3 11.1 C 0 km/h
1666 06-05-2005 21:15:03 11.1 C 5.34 g/m*3 11.1 C 0 km/h
1667 06-05-2005 21:27:03 10.8 C 5.14 g/m*3 10.8 C 0 km/h
1668 06-05-2005 21:39:02 10.3 C 5.27 g/m*3 10.3 C 0 km/h
1669 06-05-2005 21:51:02 9.8 C 5.47 g/m*3 9.8 C 0 km/h
1670 06-05-2005 22:03:02 9.7 C 5.53 g/m*3 9.7 C 0 km/h
1671 06-05-2005 22:15:02 9.5 C 5.55 g/m*3 9.5 C 0 km/h
1672 06-05-2005 22:27:02 9.2 C 5.54 g/m*3 9.2 C 0 km/h
1673 06-05-2005 22:39:02 9.2 C 5.45 g/m*3 9.2 C 0 km/h
1674 06-05-2005 22:51:03 9.1 C 5.41 g/m*3 9.1 C 0 km/h
1675 06-05-2005 23:03:04 8.9 C 5.61 g/m*3 8.9 C 0 km/h
Sensor: Nr:Datum:Temp:Abs-Feuchte:Windchill:Wind:
Aussen-T/F 1676 06-05-2005 23:15:03 8.9 C 5.52 g/m*3 8.9 C 0 km/h
1677 06-05-2005 23:27:03 8.6 C 5.59 g/m*3 8.6 C 0 km/h
1678 06-05-2005 23:39:04 8.4 C 5.6 g/m*3 8.4 C 0 km/h
1679 06-05-2005 23:51:02 8.1 C 5.66 g/m*3 8.1 C 0 km/h
1680 07-05-2005 00:03:02 8 C 5.79 g/m*3 8 C 0 km/h
1681 07-05-2005 00:15:02 8.2 C 5.69 g/m*3 8.2 C 0 km/h
1682 07-05-2005 00:27:02 8.2 C 5.78 g/m*3 8.2 C 0 km/h
1683 07-05-2005 00:39:02 8.2 C 5.86 g/m*3 8.2 C 0 km/h
1684 07-05-2005 00:51:02 8.2 C 5.86 g/m*3 8.2 C 0 km/h
1685 07-05-2005 01:03:02 8.1 C 5.82 g/m*3 8.1 C 0 km/h
1686 07-05-2005 01:15:02 8.2 C 5.86 g/m*3 8.2 C 0 km/h
1687 07-05-2005 01:27:02 8.4 C 5.77 g/m*3 8.4 C 0 km/h
1688 07-05-2005 01:39:02 8.4 C 5.85 g/m*3 8.4 C 0 km/h
1689 07-05-2005 01:51:02 8.4 C 5.94 g/m*3 8.4 C 0 km/h
1690 07-05-2005 02:03:02 8.5 C 5.81 g/m*3 8.5 C 0 km/h
1691 07-05-2005 02:15:02 8.1 C 6.07 g/m*3 8.1 C 0 km/h
1692 07-05-2005 02:27:02 8 C 6.12 g/m*3 8 C 0 km/h
1693 07-05-2005 02:39:02 8 C 6.04 g/m*3 8 C 0 km/h
1694 07-05-2005 02:52:03 8.2 C 5.86 g/m*3 8.2 C 0 km/h
1695 07-05-2005 03:04:03 8.3 C 5.82 g/m*3 8.3 C 0 km/h
1696 07-05-2005 03:16:03 8.4 C 5.77 g/m*3 8.4 C 0 km/h
1697 07-05-2005 03:28:03 8.5 C 5.72 g/m*3 8.5 C 0 km/h
1698 07-05-2005 03:40:02 8.3 C 5.82 g/m*3 8.3 C 0 km/h
1699 07-05-2005 03:52:02 8.2 C 5.78 g/m*3 8.2 C 0 km/h
1700 07-05-2005 04:04:02 8.3 C 5.9 g/m*3 8.3 C 0 km/h
Sensor: Nr:Datum:Temp:Abs-Feuchte:Windchill:Wind:
Aussen-T/F 1701 07-05-2005 04:16:01 8.2 C 5.95 g/m*3 8.2 C 0 km/h
1702 07-05-2005 04:28:01 8.1 C 5.99 g/m*3 8.1 C 0 km/h
1703 07-05-2005 04:40:01 8.1 C 5.99 g/m*3 8.1 C 0 km/h
1704 07-05-2005 04:52:02 8.2 C 5.86 g/m*3 8.2 C 0 km/h
1705 07-05-2005 05:04:03 8.1 C 6.16 g/m*3 8.1 C 0 km/h
1706 07-05-2005 05:16:03 8.1 C 6.07 g/m*3 8.1 C 0 km/h
1707 07-05-2005 05:28:03 8.2 C 5.95 g/m*3 8.2 C 0 km/h
1708 07-05-2005 05:40:02 8.4 C 6.02 g/m*3 8.4 C 0 km/h
1709 07-05-2005 05:52:01 8.4 C 5.94 g/m*3 8.4 C 0 km/h
1710 07-05-2005 06:04:02 8.6 C 5.84 g/m*3 8.6 C 0 km/h
1711 07-05-2005 06:16:02 8.7 C 5.71 g/m*3 8.7 C 0 km/h
1712 07-05-2005 06:28:02 8.7 C 5.71 g/m*3 8.7 C 0 km/h
1713 07-05-2005 06:40:01 8.9 C 5.69 g/m*3 8.9 C 0 km/h
1714 07-05-2005 06:52:02 9 C 5.64 g/m*3 9 C 0 km/h
1715 07-05-2005 07:04:02 8.9 C 5.78 g/m*3 8.9 C 0 km/h
1716 07-05-2005 07:16:02 9 C 5.73 g/m*3 9 C 0 km/h
1717 07-05-2005 07:28:02 9.1 C 5.94 g/m*3 9.1 C 0 km/h
1718 07-05-2005 07:40:02 9.1 C 6.03 g/m*3 9.1 C 0 km/h
1719 07-05-2005 07:52:02 8.9 C 6.39 g/m*3 8.9 C 0 km/h
1720 07-05-2005 08:04:02 8.4 C 6.7 g/m*3 8.4 C 0 km/h
1721 07-05-2005 08:16:02 8.1 C 6.91 g/m*3 8.1 C 0 km/h
1722 07-05-2005 08:28:02 7.9 C 7.15 g/m*3 7.9 C 0 km/h
1723 07-05-2005 08:40:02 8 C 7.28 g/m*3 8 C 0 km/h
1724 07-05-2005 08:52:02 7.9 C 7.39 g/m*3 7.9 C 0 km/h
1725 07-05-2005 09:04:02 8 C 7.36 g/m*3 8 C 0 km/h
Sensor: Nr:Datum:Temp:Abs-Feuchte:Windchill:Wind:
Aussen-T/F 1726 07-05-2005 09:16:02 7.9 C 7.39 g/m*3 7.9 C 0 km/h
1727 07-05-2005 09:28:02 8 C 7.28 g/m*3 8 C 0 km/h
1728 07-05-2005 09:40:02 8.1 C 7.32 g/m*3 8.1 C 0 km/h
1729 07-05-2005 09:52:01 8.6 C 7.39 g/m*3 8.6 C 0 km/h
1730 07-05-2005 10:04:02 8.5 C 7.26 g/m*3 8.5 C 0 km/h
1731 07-05-2005 10:16:02 8.3 C 7.33 g/m*3 8.3 C 0 km/h
1732 07-05-2005 10:28:02 8.2 C 7.37 g/m*3 8.2 C 0 km/h
1733 07-05-2005 10:40:02 8.4 C 7.55 g/m*3 8.4 C 0 km/h
1734 07-05-2005 10:52:03 8.5 C 7.6 g/m*3 8.5 C 0 km/h
1735 07-05-2005 11:04:04 9.4 C 7.87 g/m*3 9.4 C 0 km/h
1736 07-05-2005 11:16:02 10.1 C 7.94 g/m*3 10.1 C 0 km/h
1737 07-05-2005 11:28:02 10.4 C 8 g/m*3 10.4 C 0 km/h
1738 07-05-2005 11:40:03 10.1 C 7.85 g/m*3 10.1 C 0 km/h
1739 07-05-2005 11:52:02 10.2 C 7.99 g/m*3 10.2 C 0 km/h
1740 07-05-2005 12:04:02 10.3 C 8.04 g/m*3 10.3 C 0 km/h
1741 07-05-2005 12:16:02 11.1 C 8.16 g/m*3 11.1 C 0 km/h
1742 07-05-2005 12:28:02 11.8 C 8.21 g/m*3 11.8 C 0 km/h
1743 07-05-2005 12:40:02 12.1 C 8.15 g/m*3 12.1 C 0 km/h
1744 07-05-2005 12:52:01 11.6 C 8.21 g/m*3 11.6 C 0 km/h
1745 07-05-2005 13:04:04 11.4 C 8.31 g/m*3 11.4 C 0 km/h
1746 07-05-2005 13:16:02 9.9 C 7.66 g/m*3 9.9 C 0 km/h
1747 07-05-2005 13:28:02 9.6 C 7.79 g/m*3 9.6 C 0 km/h
1748 07-05-2005 13:40:03 9.8 C 7.98 g/m*3 9.8 C 0 km/h
1749 07-05-2005 13:52:03 10.4 C 8.1 g/m*3 10.4 C 0 km/h
1750 07-05-2005 14:04:04 10.7 C 7.76 g/m*3 10.7 C 0 km/h
Sensor: Nr:Datum:Temp:Abs-Feuchte:Windchill:Wind:
Aussen-T/F 1751 07-05-2005 14:16:04 10.8 C 7.71 g/m*3 10.8 C 0 km/h
1752 07-05-2005 14:28:05 11 C 7.71 g/m*3 11 C 0 km/h
1753 07-05-2005 14:40:04 12.2 C 7.88 g/m*3 12.2 C 0 km/h
1754 07-05-2005 14:52:05 12.3 C 7.93 g/m*3 12.3 C 0 km/h
1755 07-05-2005 15:04:05 12.1 C 7.72 g/m*3 12.1 C 0 km/h
1756 07-05-2005 15:16:03 11.2 C 7.8 g/m*3 11.2 C 0 km/h
1757 07-05-2005 15:28:03 9.5 C 7.74 g/m*3 9.5 C 0 km/h
1758 07-05-2005 15:40:02 9.4 C 7.42 g/m*3 9.4 C 0 km/h
1759 07-05-2005 15:52:02 10.1 C 7.56 g/m*3 10.1 C 0 km/h
1760 07-05-2005 16:04:02 10.7 C 7.66 g/m*3 10.7 C 0 km/h
1761 07-05-2005 16:16:02 11.1 C 7.05 g/m*3 11.1 C 0 km/h
1762 07-05-2005 16:28:02 11.4 C 6.98 g/m*3 11.4 C 0 km/h
1763 07-05-2005 16:40:02 11.6 C 6.86 g/m*3 11.6 C 0 km/h
1764 07-05-2005 16:52:02 11.3 C 6.32 g/m*3 11.3 C 0 km/h
1765 07-05-2005 17:04:02 9.8 C 6.12 g/m*3 9.8 C 0 km/h
1766 07-05-2005 17:16:02 9.7 C 6.27 g/m*3 9.7 C 0 km/h
1767 07-05-2005 17:28:02 11.5 C 6.51 g/m*3 11.5 C 0 km/h
1768 07-05-2005 17:40:02 11.3 C 6.22 g/m*3 11.3 C 0 km/h
1769 07-05-2005 17:52:03 9.2 C 6.16 g/m*3 9.2 C 0 km/h
1770 07-05-2005 18:04:05 8.9 C 6.39 g/m*3 8.9 C 0 km/h
1771 07-05-2005 18:16:02 9.2 C 6.34 g/m*3 9.2 C 0 km/h
1772 07-05-2005 18:28:02 10.2 C 6.38 g/m*3 10.2 C 0 km/h
1773 07-05-2005 18:40:04 10.7 C 6.38 g/m*3 10.7 C 0 km/h
1774 07-05-2005 18:52:03 11 C 6.31 g/m*3 11 C 0 km/h
1775 07-05-2005 19:04:04 10.7 C 5.99 g/m*3 10.7 C 0 km/h
Sensor: Nr:Datum:Temp:Abs-Feuchte:Windchill:Wind:
Aussen-T/F 1776 07-05-2005 19:16:02 8.3 C 6.66 g/m*3 8.3 C 0 km/h
1777 07-05-2005 19:28:02 8.2 C 6.78 g/m*3 8.2 C 0 km/h
1778 07-05-2005 19:40:05 8.7 C 6.92 g/m*3 8.7 C 0 km/h
1779 07-05-2005 19:52:01 8.6 C 6.79 g/m*3 8.6 C 0 km/h
1780 07-05-2005 20:04:02 8.9 C 6.83 g/m*3 8.9 C 0 km/h
1781 07-05-2005 20:16:02 8.7 C 6.75 g/m*3 8.7 C 0 km/h
1782 07-05-2005 20:28:02 8.2 C 6.62 g/m*3 8.2 C 0 km/h
1783 07-05-2005 20:40:01 8 C 6.53 g/m*3 8 C 0 km/h
1784 07-05-2005 20:52:02 7.9 C 6.49 g/m*3 7.9 C 0 km/h
1785 07-05-2005 21:04:02 8 C 6.45 g/m*3 8 C 0 km/h
1786 07-05-2005 21:16:02 8 C 6.28 g/m*3 8 C 0 km/h
1787 07-05-2005 21:28:02 8 C 6.37 g/m*3 8 C 0 km/h
1788 07-05-2005 21:40:03 8 C 6.28 g/m*3 8 C 0 km/h
1789 07-05-2005 21:52:02 8 C 6.12 g/m*3 8 C 0 km/h
1790 07-05-2005 22:04:03 8 C 6.2 g/m*3 8 C 0 km/h
1791 07-05-2005 22:16:01 6.9 C 6.16 g/m*3 6.9 C 0 km/h
1792 07-05-2005 22:28:01 6.5 C 6.3 g/m*3 6.5 C 0 km/h
1793 07-05-2005 22:40:04 6.5 C 6.37 g/m*3 6.5 C 0 km/h
1794 07-05-2005 22:52:03 6.4 C 6.48 g/m*3 6.4 C 0 km/h
1795 07-05-2005 23:04:03 6.5 C 6.67 g/m*3 6.5 C 0 km/h
1796 07-05-2005 23:16:03 6.4 C 6.71 g/m*3 6.4 C 0 km/h
1797 07-05-2005 23:28:03 6.4 C 6.71 g/m*3 6.4 C 0 km/h
1798 07-05-2005 23:40:03 6.4 C 6.71 g/m*3 6.4 C 0 km/h
1799 07-05-2005 23:52:02 6.7 C 6.76 g/m*3 6.7 C 0 km/h
1800 08-05-2005 00:04:02 6.4 C 6.56 g/m*3 6.4 C 0 km/h
Sensor: Nr:Datum:Temp:Abs-Feuchte:Windchill:Wind:
Aussen-T/F 1801 08-05-2005 00:16:03 6.2 C 6.47 g/m*3 6.2 C 0 km/h
1802 08-05-2005 00:28:03 6 C 6.39 g/m*3 6 C 0 km/h
1803 08-05-2005 00:40:02 6.1 C 6.36 g/m*3 6.1 C 0 km/h
1804 08-05-2005 00:52:02 6.3 C 6.37 g/m*3 6.3 C 0 km/h
1805 08-05-2005 01:04:02 5.9 C 5.91 g/m*3 5.9 C 0 km/h
1806 08-05-2005 01:16:02 5.6 C 6.08 g/m*3 5.6 C 0 km/h
1807 08-05-2005 01:28:02 5.6 C 6.29 g/m*3 5.6 C 0 km/h
1808 08-05-2005 01:40:03 5.2 C 6.13 g/m*3 5.2 C 0 km/h
1809 08-05-2005 01:52:03 5 C 6.05 g/m*3 5 C 0 km/h
1810 08-05-2005 02:04:03 4.9 C 6.14 g/m*3 4.9 C 0 km/h
1811 08-05-2005 02:16:03 4.8 C 6.17 g/m*3 4.8 C 0 km/h
1812 08-05-2005 02:28:03 4.6 C 6.09 g/m*3 4.6 C 0 km/h
1813 08-05-2005 02:40:02 4.7 C 6.13 g/m*3 4.7 C 0 km/h
1814 08-05-2005 02:53:04 4.8 C 6.24 g/m*3 4.8 C 0 km/h
1815 08-05-2005 03:05:04 5 C 6.25 g/m*3 5 C 0 km/h
1816 08-05-2005 03:17:04 5 C 6.25 g/m*3 5 C 0 km/h
1817 08-05-2005 03:29:04 5 C 6.25 g/m*3 5 C 0 km/h
1818 08-05-2005 03:41:02 5 C 6.18 g/m*3 5 C 0 km/h
1819 08-05-2005 03:53:02 4.8 C 6.1 g/m*3 4.8 C 0 km/h
1820 08-05-2005 04:05:02 4.7 C 6.13 g/m*3 4.7 C 0 km/h
1821 08-05-2005 04:17:02 4.8 C 6.24 g/m*3 4.8 C 0 km/h
1822 08-05-2005 04:29:02 4.8 C 6.24 g/m*3 4.8 C 0 km/h
1823 08-05-2005 04:41:02 4.8 C 6.24 g/m*3 4.8 C 0 km/h
1824 08-05-2005 04:53:02 4.9 C 6.28 g/m*3 4.9 C 0 km/h
1825 08-05-2005 05:05:02 4.9 C 6.28 g/m*3 4.9 C 0 km/h
Sensor: Nr:Datum:Temp:Abs-Feuchte:Windchill:Wind:
Aussen-T/F 1826 08-05-2005 05:17:03 4.8 C 6.17 g/m*3 4.8 C 0 km/h
1827 08-05-2005 05:29:03 4.6 C 6.09 g/m*3 4.6 C 0 km/h
1828 08-05-2005 05:41:02 4.3 C 5.97 g/m*3 4.3 C 0 km/h
1829 08-05-2005 05:53:02 4.1 C 5.89 g/m*3 4.1 C 0 km/h
1830 08-05-2005 06:05:02 4.1 C 5.89 g/m*3 4.1 C 0 km/h
1831 08-05-2005 06:17:02 4.1 C 5.89 g/m*3 4.1 C 0 km/h
1832 08-05-2005 06:29:02 4.1 C 5.89 g/m*3 4.1 C 0 km/h
1833 08-05-2005 06:41:02 4 C 5.79 g/m*3 4 C 0 km/h
1834 08-05-2005 06:53:02 4 C 5.79 g/m*3 4 C 0 km/h
1835 08-05-2005 07:05:02 4 C 5.85 g/m*3 4 C 0 km/h
1836 08-05-2005 07:17:02 4.2 C 5.93 g/m*3 4.2 C 0 km/h
1837 08-05-2005 07:29:02 4.3 C 5.97 g/m*3 4.3 C 0 km/h
1838 08-05-2005 07:41:02 4.4 C 6.01 g/m*3 4.4 C 0 km/h
1839 08-05-2005 07:53:03 4.8 C 6.17 g/m*3 4.8 C 0 km/h
1840 08-05-2005 08:05:03 5.3 C 6.17 g/m*3 5.3 C 0 km/h
1841 08-05-2005 08:17:02 6 C 6.24 g/m*3 6 C 0 km/h
1842 08-05-2005 08:29:02 6.4 C 6.26 g/m*3 6.4 C 0 km/h
1843 08-05-2005 08:41:03 6.3 C 6.14 g/m*3 6.3 C 0 km/h
1844 08-05-2005 08:53:03 6.2 C 6.18 g/m*3 6.2 C 0 km/h
1845 08-05-2005 09:05:03 6.5 C 6.37 g/m*3 6.5 C 0 km/h
1846 08-05-2005 09:17:02 6.6 C 6.42 g/m*3 6.6 C 0 km/h
1847 08-05-2005 09:29:02 6.7 C 6.31 g/m*3 6.7 C 0 km/h
1848 08-05-2005 09:41:02 6.8 C 6.35 g/m*3 6.8 C 0 km/h
1849 08-05-2005 09:53:03 6.9 C 6.39 g/m*3 6.9 C 0 km/h
1850 08-05-2005 10:05:03 7 C 6.43 g/m*3 7 C 0 km/h
Sensor: Nr:Datum:Temp:Abs-Feuchte:Windchill:Wind:
Aussen-T/F 1851 08-05-2005 10:17:02 6.9 C 6.47 g/m*3 6.9 C 0 km/h
1852 08-05-2005 10:29:02 7.1 C 6.55 g/m*3 7.1 C 0 km/h
1853 08-05-2005 10:41:03 7.1 C 6.55 g/m*3 7.1 C 0 km/h
1854 08-05-2005 10:53:02 7.8 C 6.86 g/m*3 7.8 C 0 km/h
1855 08-05-2005 11:05:03 8.3 C 7 g/m*3 8.3 C 0 km/h
1856 08-05-2005 11:17:02 9.2 C 7.05 g/m*3 9.2 C 0 km/h
1857 08-05-2005 11:29:02 9.5 C 6.46 g/m*3 9.5 C 0 km/h
1858 08-05-2005 11:41:03 8.9 C 5.96 g/m*3 8.9 C 0 km/h
1859 08-05-2005 11:53:05 6.7 C 5.93 g/m*3 6.7 C 0 km/h
1860 08-05-2005 12:05:04 8.1 C 6.74 g/m*3 8.1 C 0 km/h
1861 08-05-2005 12:17:03 9 C 6.88 g/m*3 9 C 0 km/h
1862 08-05-2005 12:29:03 9.3 C 6.56 g/m*3 9.3 C 0 km/h
1863 08-05-2005 12:41:04 10.3 C 6.61 g/m*3 10.3 C 0 km/h
1864 08-05-2005 12:53:03 11 C 6.41 g/m*3 11 C 0 km/h
1865 08-05-2005 13:05:03 12.1 C 6.11 g/m*3 12.1 C 0 km/h
1866 08-05-2005 13:17:02 12.1 C 4.61 g/m*3 12.1 C 0 km/h
1867 08-05-2005 13:29:02 12.7 C 5.12 g/m*3 12.7 C 0 km/h
1868 08-05-2005 13:41:04 12.5 C 4.84 g/m*3 12.5 C 0 km/h
1869 08-05-2005 13:53:02 11.7 C 4.5 g/m*3 11.7 C 0 km/h
1870 08-05-2005 14:05:03 11.9 C 4.77 g/m*3 11.9 C 0 km/h
1871 08-05-2005 14:17:02 11.8 C 5.16 g/m*3 11.8 C 0 km/h
1872 08-05-2005 14:29:02 11.2 C 5.47 g/m*3 11.2 C 0 km/h
1873 08-05-2005 14:41:04 11.9 C 5.93 g/m*3 11.9 C 0 km/h
1874 08-05-2005 14:53:03 13.1 C 4.56 g/m*3 13.1 C 0 km/h
1875 08-05-2005 15:05:03 13.6 C 4.71 g/m*3 13.6 C 0 km/h
Sensor: Nr:Datum:Temp:Abs-Feuchte:Windchill:Wind:
Aussen-T/F 1876 08-05-2005 15:17:02 13.8 C 4.53 g/m*3 13.8 C 0 km/h
1877 08-05-2005 15:29:02 13.8 C 4.53 g/m*3 13.8 C 0 km/h
1878 08-05-2005 15:41:04 14.6 C 4.63 g/m*3 14.6 C 0 km/h
1879 08-05-2005 15:53:04 12.3 C 5.32 g/m*3 12.3 C 0 km/h
1880 08-05-2005 16:05:04 12.3 C 5.21 g/m*3 12.3 C 0 km/h
1881 08-05-2005 16:17:03 11.3 C 5.41 g/m*3 11.3 C 0 km/h
1882 08-05-2005 16:29:03 9.7 C 5.72 g/m*3 9.7 C 0 km/h
1883 08-05-2005 16:41:02 9.4 C 6.51 g/m*3 9.4 C 0 km/h
1884 08-05-2005 16:53:03 10.2 C 6.57 g/m*3 10.2 C 0 km/h
1885 08-05-2005 17:05:04 10.5 C 6.01 g/m*3 10.5 C 0 km/h
1886 08-05-2005 17:17:03 11.3 C 6.22 g/m*3 11.3 C 0 km/h
1887 08-05-2005 17:29:03 11.9 C 5.4 g/m*3 11.9 C 0 km/h
1888 08-05-2005 17:41:02 11.7 C 5.12 g/m*3 11.7 C 0 km/h
1889 08-05-2005 17:53:02 11.5 C 4.96 g/m*3 11.5 C 0 km/h
1890 08-05-2005 18:05:02 10.8 C 5.34 g/m*3 10.8 C 0 km/h
1891 08-05-2005 18:17:01 10.7 C 5.21 g/m*3 10.7 C 0 km/h
1892 08-05-2005 18:29:01 10 C 5.17 g/m*3 10 C 0 km/h
1893 08-05-2005 18:41:01 9.5 C 5.46 g/m*3 9.5 C 0 km/h
1894 08-05-2005 18:53:01 9.4 C 5.43 g/m*3 9.4 C 0 km/h
1895 08-05-2005 19:05:01 9.5 C 5.37 g/m*3 9.5 C 0 km/h
1896 08-05-2005 19:17:01 9.9 C 5.51 g/m*3 9.9 C 0 km/h
1897 08-05-2005 19:29:01 10.4 C 5.4 g/m*3 10.4 C 0 km/h
1898 08-05-2005 19:41:01 9.7 C 5.25 g/m*3 9.7 C 0 km/h
1899 08-05-2005 19:53:02 9.7 C 4.89 g/m*3 9.7 C 0 km/h
1900 08-05-2005 20:05:02 9.7 C 5.07 g/m*3 9.7 C 0 km/h
Sensor: Nr:Datum:Temp:Abs-Feuchte:Windchill:Wind:
Aussen-T/F 1901 08-05-2005 20:17:03 9.6 C 5.13 g/m*3 9.6 C 0 km/h
1902 08-05-2005 20:29:03 9.5 C 5.37 g/m*3 9.5 C 0 km/h
1903 08-05-2005 20:41:02 9.4 C 5.25 g/m*3 9.4 C 0 km/h
1904 08-05-2005 20:53:02 9 C 5.29 g/m*3 9 C 0 km/h
1905 08-05-2005 21:05:02 8.8 C 5.4 g/m*3 8.8 C 0 km/h
1906 08-05-2005 21:17:02 8.7 C 5.45 g/m*3 8.7 C 0 km/h
1907 08-05-2005 21:29:02 8.2 C 5.78 g/m*3 8.2 C 0 km/h
1908 08-05-2005 21:41:02 7.9 C 6 g/m*3 7.9 C 0 km/h
1909 08-05-2005 21:53:02 7.7 C 5.92 g/m*3 7.7 C 0 km/h
1910 08-05-2005 22:05:02 7.6 C 5.72 g/m*3 7.6 C 0 km/h
1911 08-05-2005 22:17:02 7.5 C 5.6 g/m*3 7.5 C 0 km/h
1912 08-05-2005 22:29:02 7.3 C 5.61 g/m*3 7.3 C 0 km/h
1913 08-05-2005 22:41:02 7.3 C 5.69 g/m*3 7.3 C 0 km/h
1914 08-05-2005 22:53:01 7.4 C 5.73 g/m*3 7.4 C 0 km/h
1915 08-05-2005 23:05:02 7.4 C 5.81 g/m*3 7.4 C 0 km/h
1916 08-05-2005 23:17:02 7.4 C 5.88 g/m*3 7.4 C 0 km/h
1917 08-05-2005 23:29:02 7.5 C 5.92 g/m*3 7.5 C 0 km/h
1918 08-05-2005 23:41:02 7.2 C 5.73 g/m*3 7.2 C 0 km/h
1919 08-05-2005 23:53:02 6.9 C 5.7 g/m*3 6.9 C 0 km/h
1920 09-05-2005 00:05:02 6.5 C 5.62 g/m*3 6.5 C 0 km/h
1921 09-05-2005 00:17:02 6 C 5.66 g/m*3 6 C 0 km/h
1922 09-05-2005 00:29:02 5.4 C 5.58 g/m*3 5.4 C 0 km/h
1923 09-05-2005 00:41:03 5 C 5.57 g/m*3 5 C 0 km/h
1924 09-05-2005 00:53:02 4.8 C 5.63 g/m*3 4.8 C 0 km/h
1925 09-05-2005 01:05:03 4.6 C 5.62 g/m*3 4.6 C 0 km/h
Sensor: Nr:Datum:Temp:Abs-Feuchte:Windchill:Wind:
Aussen-T/F 1926 09-05-2005 01:17:02 4.5 C 5.65 g/m*3 4.5 C 0 km/h
1927 09-05-2005 01:29:02 4.3 C 5.64 g/m*3 4.3 C 0 km/h
1928 09-05-2005 01:41:01 4.3 C 5.64 g/m*3 4.3 C 0 km/h
1929 09-05-2005 01:53:01 4.3 C 5.71 g/m*3 4.3 C 0 km/h
1930 09-05-2005 02:05:02 4.3 C 5.77 g/m*3 4.3 C 0 km/h
1931 09-05-2005 02:17:01 4.2 C 5.73 g/m*3 4.2 C 0 km/h
1932 09-05-2005 02:29:01 4 C 5.59 g/m*3 4 C 0 km/h
1933 09-05-2005 02:41:02 4.1 C 5.7 g/m*3 4.1 C 0 km/h
1934 09-05-2005 02:54:03 4.2 C 5.8 g/m*3 4.2 C 0 km/h
1935 09-05-2005 03:06:03 4.4 C 5.94 g/m*3 4.4 C 0 km/h
1936 09-05-2005 03:18:04 4.4 C 5.94 g/m*3 4.4 C 0 km/h
1937 09-05-2005 03:30:04 4.2 C 5.8 g/m*3 4.2 C 0 km/h
1938 09-05-2005 03:42:02 3.8 C 5.71 g/m*3 3.8 C 0 km/h
1939 09-05-2005 03:54:02 4 C 5.72 g/m*3 4 C 0 km/h
1940 09-05-2005 04:06:02 3.8 C 5.77 g/m*3 3.8 C 0 km/h
1941 09-05-2005 04:18:02 3.8 C 5.77 g/m*3 3.8 C 0 km/h
1942 09-05-2005 04:30:02 4.1 C 5.89 g/m*3 4.1 C 0 km/h
1943 09-05-2005 04:42:01 4.1 C 5.89 g/m*3 4.1 C 0 km/h
1944 09-05-2005 04:54:01 4.4 C 6.01 g/m*3 4.4 C 0 km/h
1945 09-05-2005 05:06:02 4.5 C 6.05 g/m*3 4.5 C 0 km/h
1946 09-05-2005 05:18:01 4.7 C 6.06 g/m*3 4.7 C 0 km/h
1947 09-05-2005 05:30:01 4.8 C 6.04 g/m*3 4.8 C 0 km/h
1948 09-05-2005 05:42:02 4.9 C 6.01 g/m*3 4.9 C 0 km/h
1949 09-05-2005 05:54:02 5 C 5.98 g/m*3 5 C 0 km/h
1950 09-05-2005 06:06:02 5 C 5.91 g/m*3 5 C 0 km/h
Sensor: Nr:Datum:Temp:Abs-Feuchte:Windchill:Wind:
Aussen-T/F 1951 09-05-2005 06:18:01 5.1 C 5.95 g/m*3 5.1 C 0 km/h
1952 09-05-2005 06:30:01 5.2 C 5.85 g/m*3 5.2 C 0 km/h
1953 09-05-2005 06:42:01 5.3 C 5.82 g/m*3 5.3 C 0 km/h
1954 09-05-2005 06:54:02 5.5 C 5.83 g/m*3 5.5 C 0 km/h
1955 09-05-2005 07:06:02 5.5 C 5.76 g/m*3 5.5 C 0 km/h
1956 09-05-2005 07:18:02 5.6 C 5.73 g/m*3 5.6 C 0 km/h
1957 09-05-2005 07:30:02 5.8 C 5.8 g/m*3 5.8 C 0 km/h
1958 09-05-2005 07:42:02 6 C 5.81 g/m*3 6 C 0 km/h
1959 09-05-2005 07:54:02 6 C 5.73 g/m*3 6 C 0 km/h
1960 09-05-2005 08:06:02 6 C 5.73 g/m*3 6 C 0 km/h
1961 09-05-2005 08:18:02 6 C 5.66 g/m*3 6 C 0 km/h
1962 09-05-2005 08:30:03 6.3 C 5.7 g/m*3 6.3 C 0 km/h
1963 09-05-2005 08:42:03 6.5 C 5.7 g/m*3 6.5 C 0 km/h
1964 09-05-2005 08:54:02 6.6 C 5.66 g/m*3 6.6 C 0 km/h
1965 09-05-2005 09:06:02 6.9 C 5.7 g/m*3 6.9 C 0 km/h
1966 09-05-2005 09:18:02 7.3 C 5.77 g/m*3 7.3 C 0 km/h
1967 09-05-2005 09:30:02 7.5 C 5.6 g/m*3 7.5 C 0 km/h
1968 09-05-2005 09:42:02 7.5 C 5.6 g/m*3 7.5 C 0 km/h
1969 09-05-2005 09:54:03 7.8 C 5.63 g/m*3 7.8 C 0 km/h
1970 09-05-2005 10:06:02 7.7 C 5.68 g/m*3 7.7 C 0 km/h
1971 09-05-2005 10:18:03 8.1 C 5.66 g/m*3 8.1 C 0 km/h
1972 09-05-2005 10:30:03 8.6 C 5.76 g/m*3 8.6 C 0 km/h
1973 09-05-2005 10:42:02 9.1 C 5.68 g/m*3 9.1 C 0 km/h
1974 09-05-2005 10:54:02 9.1 C 5.59 g/m*3 9.1 C 0 km/h
1975 09-05-2005 11:06:02 10 C 5.73 g/m*3 10 C 0 km/h
Sensor: Nr:Datum:Temp:Abs-Feuchte:Windchill:Wind:
Aussen-T/F 1976 09-05-2005 11:18:02 10.5 C 5.43 g/m*3 10.5 C 0 km/h
1977 09-05-2005 11:30:02 11.6 C 5.61 g/m*3 11.6 C 0 km/h
1978 09-05-2005 11:42:02 11.4 C 5.34 g/m*3 11.4 C 0 km/h
1979 09-05-2005 11:54:01 10.5 C 5.53 g/m*3 10.5 C 0 km/h
1980 09-05-2005 12:06:02 10.9 C 6.07 g/m*3 10.9 C 0 km/h
1981 09-05-2005 12:18:01 12.6 C 5.97 g/m*3 12.6 C 0 km/h
1982 09-05-2005 12:30:01 11.8 C 5.79 g/m*3 11.8 C 0 km/h
1983 09-05-2005 12:42:01 10.9 C 6.17 g/m*3 10.9 C 0 km/h
1984 09-05-2005 12:54:02 11.8 C 6.53 g/m*3 11.8 C 0 km/h
1985 09-05-2005 13:06:02 11.8 C 6 g/m*3 11.8 C 0 km/h
1986 09-05-2005 13:18:02 13.8 C 5.6 g/m*3 13.8 C 0 km/h
1987 09-05-2005 13:30:02 14 C 4.46 g/m*3 14 C 0 km/h
1988 09-05-2005 13:42:02 13.5 C 4.09 g/m*3 13.5 C 0 km/h
1989 09-05-2005 13:54:02 13.1 C 4.11 g/m*3 13.1 C 0 km/h
1990 09-05-2005 14:06:02 13.4 C 4.07 g/m*3 13.4 C 0 km/h
1991 09-05-2005 14:18:03 13.3 C 4.16 g/m*3 13.3 C 0 km/h
1992 09-05-2005 14:30:03 13.8 C 4.29 g/m*3 13.8 C 0 km/h
1993 09-05-2005 14:42:02 13.2 C 4.13 g/m*3 13.2 C 0 km/h
1994 09-05-2005 14:54:02 13.7 C 3.91 g/m*3 13.7 C 0 km/h
1995 09-05-2005 15:06:02 13.8 C 4.05 g/m*3 13.8 C 0 km/h
1996 09-05-2005 15:18:02 14.3 C 3.81 g/m*3 14.3 C 0 km/h
1997 09-05-2005 15:30:03 13.8 C 3.57 g/m*3 13.8 C 0 km/h
1998 09-05-2005 15:42:01 13.4 C 3.95 g/m*3 13.4 C 0 km/h
1999 09-05-2005 15:54:02 13.3 C 4.51 g/m*3 13.3 C 0 km/h
2000 09-05-2005 16:06:02 14.2 C 4.52 g/m*3 14.2 C 0 km/h
Sensor: Nr:Datum:Temp:Abs-Feuchte:Windchill:Wind:
Aussen-T/F 2001 09-05-2005 16:18:02 13.9 C 4.8 g/m*3 13.9 C 0 km/h
2002 09-05-2005 16:30:02 11.9 C 5.51 g/m*3 11.9 C 0 km/h
2003 09-05-2005 16:42:01 11.2 C 5.68 g/m*3 11.2 C 0 km/h
2004 09-05-2005 16:54:01 10.4 C 6.55 g/m*3 10.4 C 0 km/h
2005 09-05-2005 17:06:02 10.4 C 6.84 g/m*3 10.4 C 0 km/h
2006 09-05-2005 17:18:02 12.4 C 6.77 g/m*3 12.4 C 0 km/h
2007 09-05-2005 17:30:03 13.1 C 5.71 g/m*3 13.1 C 0 km/h
2008 09-05-2005 17:42:01 12.9 C 5.3 g/m*3 12.9 C 0 km/h
2009 09-05-2005 17:54:02 13.6 C 4.94 g/m*3 13.6 C 0 km/h
2010 09-05-2005 18:06:02 12.9 C 4.96 g/m*3 12.9 C 0 km/h
2011 09-05-2005 18:18:03 12.7 C 5.01 g/m*3 12.7 C 0 km/h
2012 09-05-2005 18:30:03 14.4 C 5.07 g/m*3 14.4 C 0 km/h
2013 09-05-2005 18:42:03 15 C 4.74 g/m*3 15 C 0 km/h
2014 09-05-2005 18:54:03 14.9 C 5.1 g/m*3 14.9 C 0 km/h
2015 09-05-2005 19:06:03 13 C 5.1 g/m*3 13 C 0 km/h
2016 09-05-2005 19:18:02 11 C 6.01 g/m*3 11 C 0 km/h
2017 09-05-2005 19:30:02 10.8 C 6.72 g/m*3 10.8 C 0 km/h
2018 09-05-2005 19:42:02 11 C 5.91 g/m*3 11 C 0 km/h
2019 09-05-2005 19:54:02 10.3 C 5.65 g/m*3 10.3 C 0 km/h
2020 09-05-2005 20:06:02 10.1 C 6.05 g/m*3 10.1 C 0 km/h
2021 09-05-2005 20:18:02 10.4 C 6.36 g/m*3 10.4 C 0 km/h
2022 09-05-2005 20:30:02 10.7 C 6.29 g/m*3 10.7 C 0 km/h
2023 09-05-2005 20:42:02 10.2 C 6.19 g/m*3 10.2 C 0 km/h
2024 09-05-2005 20:54:02 9.6 C 6.14 g/m*3 9.6 C 0 km/h
2025 09-05-2005 21:06:02 8.7 C 5.97 g/m*3 8.7 C 0 km/h
Sensor: Nr:Datum:Temp:Abs-Feuchte:Windchill:Wind:
Aussen-T/F 2026 09-05-2005 21:18:02 8 C 5.87 g/m*3 8 C 0 km/h
2027 09-05-2005 21:30:02 7.7 C 5.92 g/m*3 7.7 C 0 km/h
2028 09-05-2005 21:42:02 7.1 C 5.77 g/m*3 7.1 C 0 km/h
2029 09-05-2005 21:54:01 7 C 5.81 g/m*3 7 C 0 km/h
2030 09-05-2005 22:06:02 7 C 5.89 g/m*3 7 C 0 km/h
2031 09-05-2005 22:18:01 7.3 C 6.16 g/m*3 7.3 C 0 km/h
2032 09-05-2005 22:30:01 7.1 C 6.16 g/m*3 7.1 C 0 km/h
2033 09-05-2005 22:42:01 6.9 C 6.24 g/m*3 6.9 C 0 km/h
2034 09-05-2005 22:54:01 6.6 C 6.04 g/m*3 6.6 C 0 km/h
2035 09-05-2005 23:06:02 6.4 C 6.04 g/m*3 6.4 C 0 km/h
2036 09-05-2005 23:18:01 6.3 C 6 g/m*3 6.3 C 0 km/h
2037 09-05-2005 23:30:01 6 C 6.02 g/m*3 6 C 0 km/h
2038 09-05-2005 23:42:02 5.9 C 6.06 g/m*3 5.9 C 0 km/h
2039 09-05-2005 23:54:02 5.7 C 6.05 g/m*3 5.7 C 0 km/h
2040 10-05-2005 00:06:02 5.5 C 6.04 g/m*3 5.5 C 0 km/h
2041 10-05-2005 00:18:02 5.5 C 6.04 g/m*3 5.5 C 0 km/h
2042 10-05-2005 00:30:02 5.5 C 6.04 g/m*3 5.5 C 0 km/h
2043 10-05-2005 00:42:02 5.3 C 6.03 g/m*3 5.3 C 0 km/h
2044 10-05-2005 00:54:01 5.1 C 5.95 g/m*3 5.1 C 0 km/h
2045 10-05-2005 01:06:01 4.9 C 5.94 g/m*3 4.9 C 0 km/h
2046 10-05-2005 01:18:01 4.7 C 5.93 g/m*3 4.7 C 0 km/h
2047 10-05-2005 01:30:01 4.6 C 5.89 g/m*3 4.6 C 0 km/h
2048 10-05-2005 01:42:02 4.5 C 5.92 g/m*3 4.5 C 0 km/h
2049 10-05-2005 01:54:02 4.3 C 5.77 g/m*3 4.3 C 0 km/h
2050 10-05-2005 02:06:02 4.2 C 5.73 g/m*3 4.2 C 0 km/h
Sensor: Nr:Datum:Temp:Abs-Feuchte:Windchill:Wind:
Aussen-T/F 2051 10-05-2005 02:18:02 4 C 5.66 g/m*3 4 C 0 km/h
2052 10-05-2005 02:30:02 4.1 C 5.76 g/m*3 4.1 C 0 km/h
2053 10-05-2005 02:42:02 4 C 5.79 g/m*3 4 C 0 km/h
2054 10-05-2005 02:55:03 3.8 C 5.71 g/m*3 3.8 C 0 km/h
2055 10-05-2005 03:07:03 3.6 C 5.63 g/m*3 3.6 C 0 km/h
2056 10-05-2005 03:19:03 3.7 C 5.67 g/m*3 3.7 C 0 km/h
2057 10-05-2005 03:31:03 3.6 C 5.69 g/m*3 3.6 C 0 km/h
2058 10-05-2005 03:43:03 3.4 C 5.62 g/m*3 3.4 C 0 km/h
2059 10-05-2005 03:55:03 3.4 C 5.62 g/m*3 3.4 C 0 km/h
2060 10-05-2005 04:07:02 3.5 C 5.66 g/m*3 3.5 C 0 km/h
2061 10-05-2005 04:19:02 3.3 C 5.58 g/m*3 3.3 C 0 km/h
2062 10-05-2005 04:31:03 3 C 5.47 g/m*3 3 C 0 km/h
2063 10-05-2005 04:43:03 3.3 C 5.58 g/m*3 3.3 C 0 km/h
2064 10-05-2005 04:55:03 3 C 5.47 g/m*3 3 C 0 km/h
2065 10-05-2005 05:07:03 3.3 C 5.58 g/m*3 3.3 C 0 km/h
2066 10-05-2005 05:19:02 3 C 5.47 g/m*3 3 C 0 km/h
2067 10-05-2005 05:31:02 3.3 C 5.58 g/m*3 3.3 C 0 km/h
2068 10-05-2005 05:43:02 3.2 C 5.54 g/m*3 3.2 C 0 km/h
2069 10-05-2005 05:55:01 3.1 C 5.51 g/m*3 3.1 C 0 km/h
2070 10-05-2005 06:07:01 3.2 C 5.54 g/m*3 3.2 C 0 km/h
2071 10-05-2005 06:19:01 3.2 C 5.54 g/m*3 3.2 C 0 km/h
2072 10-05-2005 06:31:02 3.2 C 5.54 g/m*3 3.2 C 0 km/h
2073 10-05-2005 06:43:02 3.4 C 5.62 g/m*3 3.4 C 0 km/h
2074 10-05-2005 06:55:01 3.6 C 5.69 g/m*3 3.6 C 0 km/h
2075 10-05-2005 07:07:01 3.5 C 5.66 g/m*3 3.5 C 0 km/h
Sensor: Nr:Datum:Temp:Abs-Feuchte:Windchill:Wind:
Aussen-T/F 2076 10-05-2005 07:19:01 3.5 C 5.66 g/m*3 3.5 C 0 km/h
2077 10-05-2005 07:31:02 3.8 C 5.77 g/m*3 3.8 C 0 km/h
2078 10-05-2005 07:43:02 4.2 C 5.86 g/m*3 4.2 C 0 km/h
2079 10-05-2005 07:55:02 4.4 C 5.81 g/m*3 4.4 C 0 km/h
2080 10-05-2005 08:07:02 4.7 C 5.86 g/m*3 4.7 C 0 km/h
2081 10-05-2005 08:19:01 5.2 C 5.78 g/m*3 5.2 C 0 km/h
2082 10-05-2005 08:31:02 6 C 5.66 g/m*3 6 C 0 km/h
2083 10-05-2005 08:43:02 6.1 C 5.7 g/m*3 6.1 C 0 km/h
2084 10-05-2005 08:55:02 6.5 C 5.77 g/m*3 6.5 C 0 km/h
2085 10-05-2005 09:07:02 6.9 C 5.77 g/m*3 6.9 C 0 km/h
2086 10-05-2005 09:19:01 7.5 C 5.76 g/m*3 7.5 C 0 km/h
2087 10-05-2005 09:31:01 7.9 C 5.59 g/m*3 7.9 C 0 km/h
2088 10-05-2005 09:43:01 8.5 C 5.72 g/m*3 8.5 C 0 km/h
2089 10-05-2005 09:55:02 9.6 C 5.77 g/m*3 9.6 C 0 km/h
2090 10-05-2005 10:07:02 9.1 C 5.15 g/m*3 9.1 C 0 km/h
2091 10-05-2005 10:19:02 8.8 C 4.87 g/m*3 8.8 C 0 km/h
2092 10-05-2005 10:31:02 9.3 C 4.4 g/m*3 9.3 C 0 km/h
2093 10-05-2005 10:43:02 9.3 C 4.4 g/m*3 9.3 C 0 km/h
2094 10-05-2005 10:55:01 9.7 C 4.52 g/m*3 9.7 C 0 km/h
2095 10-05-2005 11:07:02 9.7 C 4.43 g/m*3 9.7 C 0 km/h
2096 10-05-2005 11:19:01 10.4 C 4.63 g/m*3 10.4 C 0 km/h
2097 10-05-2005 11:31:01 10.5 C 4.17 g/m*3 10.5 C 0 km/h
2098 10-05-2005 11:43:01 10.8 C 4.45 g/m*3 10.8 C 0 km/h
2099 10-05-2005 11:55:03 12 C 4.26 g/m*3 12 C 0 km/h
2100 10-05-2005 12:07:02 12 C 4.26 g/m*3 12 C 0 km/h
Sensor: Nr:Datum:Temp:Abs-Feuchte:Windchill:Wind:
Aussen-T/F 2101 10-05-2005 12:19:01 12.1 C 4.08 g/m*3 12.1 C 0 km/h
2102 10-05-2005 12:31:03 12.4 C 4.26 g/m*3 12.4 C 0 km/h
2103 10-05-2005 12:43:03 12.5 C 4.18 g/m*3 12.5 C 0 km/h
2104 10-05-2005 12:55:03 12.5 C 4.18 g/m*3 12.5 C 0 km/h
2105 10-05-2005 13:07:03 12.9 C 3.94 g/m*3 12.9 C 0 km/h
2106 10-05-2005 13:19:03 13.7 C 4.03 g/m*3 13.7 C 0 km/h
2107 10-05-2005 13:31:02 12.4 C 4.15 g/m*3 12.4 C 0 km/h
2108 10-05-2005 13:43:02 11.5 C 4.34 g/m*3 11.5 C 0 km/h
2109 10-05-2005 13:55:02 13 C 3.97 g/m*3 13 C 0 km/h
2110 10-05-2005 14:07:01 13.5 C 4.09 g/m*3 13.5 C 0 km/h
2111 10-05-2005 14:19:01 14 C 3.86 g/m*3 14 C 0 km/h
2112 10-05-2005 14:31:02 13.5 C 3.63 g/m*3 13.5 C 0 km/h
2113 10-05-2005 14:43:02 14.4 C 3.46 g/m*3 14.4 C 0 km/h
2114 10-05-2005 14:55:02 14.1 C 3.28 g/m*3 14.1 C 0 km/h
2115 10-05-2005 15:07:02 14.7 C 3.4 g/m*3 14.7 C 0 km/h
2116 10-05-2005 15:19:02 14.7 C 3.53 g/m*3 14.7 C 0 km/h
2117 10-05-2005 15:31:02 13.7 C 3.43 g/m*3 13.7 C 0 km/h
2118 10-05-2005 15:43:03 15.1 C 3.35 g/m*3 15.1 C 0 km/h
2119 10-05-2005 15:55:02 15.1 C 2.84 g/m*3 15.1 C 0 km/h
2120 10-05-2005 16:07:01 15.6 C 2.66 g/m*3 15.6 C 0 km/h
2121 10-05-2005 16:19:01 16.1 C 2.74 g/m*3 16.1 C 0 km/h
2122 10-05-2005 16:31:02 16.2 C 3.31 g/m*3 16.2 C 0 km/h
2123 10-05-2005 16:43:02 16.1 C 2.74 g/m*3 16.1 C 0 km/h
2124 10-05-2005 16:55:02 15 C 3.46 g/m*3 15 C 0 km/h
2125 10-05-2005 17:07:03 16 C 3.81 g/m*3 16 C 0 km/h
Sensor: Nr:Datum:Temp:Abs-Feuchte:Windchill:Wind:
Aussen-T/F 2126 10-05-2005 17:19:02 15.6 C 3.59 g/m*3 15.6 C 0 km/h
2127 10-05-2005 17:31:02 14.9 C 3.82 g/m*3 14.9 C 0 km/h
2128 10-05-2005 17:43:02 15.1 C 3.74 g/m*3 15.1 C 0 km/h
2129 10-05-2005 17:55:02 14.8 C 4.05 g/m*3 14.8 C 0 km/h
2130 10-05-2005 18:07:02 14.2 C 4.03 g/m*3 14.2 C 0 km/h
2131 10-05-2005 18:19:02 14.5 C 4.1 g/m*3 14.5 C 0 km/h
2132 10-05-2005 18:31:03 15.7 C 4.01 g/m*3 15.7 C 0 km/h
2133 10-05-2005 18:43:03 16.3 C 4.16 g/m*3 16.3 C 0 km/h
2134 10-05-2005 18:55:02 15.7 C 4.15 g/m*3 15.7 C 0 km/h
2135 10-05-2005 19:07:02 13.8 C 5.12 g/m*3 13.8 C 0 km/h
2136 10-05-2005 19:19:02 13.1 C 5.25 g/m*3 13.1 C 0 km/h
2137 10-05-2005 19:31:02 12 C 5.12 g/m*3 12 C 0 km/h
2138 10-05-2005 19:43:02 11.9 C 5.61 g/m*3 11.9 C 0 km/h
2139 10-05-2005 19:55:01 11.5 C 5.58 g/m*3 11.5 C 0 km/h
2140 10-05-2005 20:07:01 11.4 C 5.44 g/m*3 11.4 C 0 km/h
2141 10-05-2005 20:19:02 11.7 C 5.44 g/m*3 11.7 C 0 km/h
2142 10-05-2005 20:31:02 12 C 5.44 g/m*3 12 C 0 km/h
2143 10-05-2005 20:43:02 11.4 C 5.34 g/m*3 11.4 C 0 km/h
2144 10-05-2005 20:55:02 10.7 C 5.3 g/m*3 10.7 C 0 km/h
2145 10-05-2005 21:07:02 10.3 C 5.36 g/m*3 10.3 C 0 km/h
2146 10-05-2005 21:19:02 10 C 5.45 g/m*3 10 C 0 km/h
2147 10-05-2005 21:31:03 9.6 C 5.5 g/m*3 9.6 C 0 km/h
2148 10-05-2005 21:43:03 9.5 C 5.55 g/m*3 9.5 C 0 km/h
2149 10-05-2005 21:55:02 9.7 C 5.72 g/m*3 9.7 C 0 km/h
2150 10-05-2005 22:07:03 9.5 C 5.64 g/m*3 9.5 C 0 km/h
Sensor: Nr:Datum:Temp:Abs-Feuchte:Windchill:Wind:
Aussen-T/F 2151 10-05-2005 22:19:02 9.3 C 5.57 g/m*3 9.3 C 0 km/h
2152 10-05-2005 22:31:02 9.3 C 5.66 g/m*3 9.3 C 0 km/h
2153 10-05-2005 22:43:02 8.9 C 5.78 g/m*3 8.9 C 0 km/h
2154 10-05-2005 22:55:01 8.9 C 5.78 g/m*3 8.9 C 0 km/h
2155 10-05-2005 23:07:02 9 C 5.82 g/m*3 9 C 0 km/h
2156 10-05-2005 23:19:02 9 C 5.91 g/m*3 9 C 0 km/h
2157 10-05-2005 23:31:01 8.9 C 5.78 g/m*3 8.9 C 0 km/h
2158 10-05-2005 23:43:01 9.1 C 5.94 g/m*3 9.1 C 0 km/h
2159 10-05-2005 23:55:02 9 C 5.82 g/m*3 9 C 0 km/h
2160 11-05-2005 00:07:02 8.6 C 5.84 g/m*3 8.6 C 0 km/h
2161 11-05-2005 00:19:03 8.1 C 5.82 g/m*3 8.1 C 0 km/h
2162 11-05-2005 00:31:03 7.7 C 5.84 g/m*3 7.7 C 0 km/h
2163 11-05-2005 00:43:03 8 C 5.87 g/m*3 8 C 0 km/h
2164 11-05-2005 00:55:02 8.1 C 5.74 g/m*3 8.1 C 0 km/h
2165 11-05-2005 01:07:01 7.8 C 5.79 g/m*3 7.8 C 0 km/h
2166 11-05-2005 01:19:01 7.5 C 5.84 g/m*3 7.5 C 0 km/h
2167 11-05-2005 01:31:01 7.6 C 5.88 g/m*3 7.6 C 0 km/h
2168 11-05-2005 01:43:01 7.9 C 6 g/m*3 7.9 C 0 km/h
2169 11-05-2005 01:55:02 8 C 5.95 g/m*3 8 C 0 km/h
2170 11-05-2005 02:07:02 8.1 C 5.99 g/m*3 8.1 C 0 km/h
2171 11-05-2005 02:19:02 7.9 C 6 g/m*3 7.9 C 0 km/h
2172 11-05-2005 02:31:02 7.8 C 6.04 g/m*3 7.8 C 0 km/h
2173 11-05-2005 02:43:02 7.8 C 6.12 g/m*3 7.8 C 0 km/h
2174 11-05-2005 02:56:03 7.8 C 6.2 g/m*3 7.8 C 0 km/h
2175 11-05-2005 03:08:04 7.8 C 6.28 g/m*3 7.8 C 0 km/h
Sensor: Nr:Datum:Temp:Abs-Feuchte:Windchill:Wind:
Aussen-T/F 2176 11-05-2005 03:20:04 7.8 C 6.28 g/m*3 7.8 C 0 km/h
2177 11-05-2005 03:32:02 7.5 C 6.24 g/m*3 7.5 C 0 km/h
2178 11-05-2005 03:44:02 7.8 C 6.37 g/m*3 7.8 C 0 km/h
2179 11-05-2005 03:56:02 7.6 C 6.28 g/m*3 7.6 C 0 km/h
2180 11-05-2005 04:08:02 7.4 C 6.2 g/m*3 7.4 C 0 km/h
2181 11-05-2005 04:20:02 7.3 C 6.24 g/m*3 7.3 C 0 km/h
2182 11-05-2005 04:32:02 7 C 6.2 g/m*3 7 C 0 km/h
2183 11-05-2005 04:44:02 6.9 C 6.24 g/m*3 6.9 C 0 km/h
2184 11-05-2005 04:56:03 6.8 C 6.27 g/m*3 6.8 C 0 km/h
2185 11-05-2005 05:08:02 6.8 C 6.19 g/m*3 6.8 C 0 km/h
2186 11-05-2005 05:20:03 6.9 C 6.24 g/m*3 6.9 C 0 km/h
2187 11-05-2005 05:32:02 6.7 C 6.08 g/m*3 6.7 C 0 km/h
2188 11-05-2005 05:44:02 6.7 C 6.08 g/m*3 6.7 C 0 km/h
2189 11-05-2005 05:56:02 6.7 C 6 g/m*3 6.7 C 0 km/h
2190 11-05-2005 06:08:02 6.7 C 6 g/m*3 6.7 C 0 km/h
2191 11-05-2005 06:20:02 6.8 C 6.04 g/m*3 6.8 C 0 km/h
2192 11-05-2005 06:32:02 6.9 C 5.93 g/m*3 6.9 C 0 km/h
2193 11-05-2005 06:44:02 6.8 C 5.89 g/m*3 6.8 C 0 km/h
2194 11-05-2005 06:56:01 6.5 C 5.85 g/m*3 6.5 C 0 km/h
2195 11-05-2005 07:08:02 6.5 C 5.92 g/m*3 6.5 C 0 km/h
2196 11-05-2005 07:20:02 6.6 C 5.89 g/m*3 6.6 C 0 km/h
2197 11-05-2005 07:32:02 7 C 5.97 g/m*3 7 C 0 km/h
2198 11-05-2005 07:44:02 7.2 C 5.89 g/m*3 7.2 C 0 km/h
2199 11-05-2005 07:56:02 7.2 C 5.81 g/m*3 7.2 C 0 km/h
2200 11-05-2005 08:08:02 7.1 C 5.69 g/m*3 7.1 C 0 km/h
Sensor: Nr:Datum:Temp:Abs-Feuchte:Windchill:Wind:
Aussen-T/F 2201 11-05-2005 08:20:03 7.6 C 5.72 g/m*3 7.6 C 0 km/h
2202 11-05-2005 08:32:02 7.9 C 5.59 g/m*3 7.9 C 0 km/h
2203 11-05-2005 08:44:02 8.1 C 5.57 g/m*3 8.1 C 0 km/h
2204 11-05-2005 08:56:02 8.1 C 5.49 g/m*3 8.1 C 0 km/h
2205 11-05-2005 09:08:02 8.1 C 5.49 g/m*3 8.1 C 0 km/h
2206 11-05-2005 09:20:02 8.2 C 5.44 g/m*3 8.2 C 0 km/h
2207 11-05-2005 09:32:02 8.7 C 5.45 g/m*3 8.7 C 0 km/h
2208 11-05-2005 09:44:02 9.4 C 5.34 g/m*3 9.4 C 0 km/h
2209 11-05-2005 09:56:02 10 C 5.17 g/m*3 10 C 0 km/h
2210 11-05-2005 10:08:02 9.9 C 5.14 g/m*3 9.9 C 0 km/h
2211 11-05-2005 10:20:02 11.3 C 5.41 g/m*3 11.3 C 0 km/h
2212 11-05-2005 10:32:02 10.4 C 5.01 g/m*3 10.4 C 0 km/h
2213 11-05-2005 10:44:02 10.2 C 4.95 g/m*3 10.2 C 0 km/h
2214 11-05-2005 10:56:02 10.7 C 4.91 g/m*3 10.7 C 0 km/h
2215 11-05-2005 11:08:01 11.4 C 4.93 g/m*3 11.4 C 0 km/h
2216 11-05-2005 11:20:02 11 C 5 g/m*3 11 C 0 km/h
2217 11-05-2005 11:32:02 11.5 C 4.85 g/m*3 11.5 C 0 km/h
2218 11-05-2005 11:44:02 11.7 C 4.71 g/m*3 11.7 C 0 km/h
2219 11-05-2005 11:56:02 11.2 C 4.76 g/m*3 11.2 C 0 km/h
2220 11-05-2005 12:08:02 11.7 C 4.71 g/m*3 11.7 C 0 km/h
2221 11-05-2005 12:20:02 11.8 C 4.84 g/m*3 11.8 C 0 km/h
2222 11-05-2005 12:32:02 11.3 C 4.79 g/m*3 11.3 C 0 km/h
2223 11-05-2005 12:44:02 10.7 C 5.01 g/m*3 10.7 C 0 km/h
2224 11-05-2005 12:56:02 11 C 5 g/m*3 11 C 0 km/h
2225 11-05-2005 13:08:02 11.7 C 5.02 g/m*3 11.7 C 0 km/h
Sensor: Nr:Datum:Temp:Abs-Feuchte:Windchill:Wind:
Aussen-T/F 2226 11-05-2005 13:20:02 11.7 C 4.92 g/m*3 11.7 C 0 km/h
2227 11-05-2005 13:32:02 12 C 4.9 g/m*3 12 C 0 km/h
2228 11-05-2005 13:44:02 11.4 C 4.82 g/m*3 11.4 C 0 km/h
2229 11-05-2005 13:56:02 11.2 C 4.97 g/m*3 11.2 C 0 km/h
2230 11-05-2005 14:08:02 12.1 C 5.04 g/m*3 12.1 C 0 km/h
2231 11-05-2005 14:20:02 13 C 4.99 g/m*3 13 C 0 km/h
2232 11-05-2005 14:32:03 13.6 C 4.94 g/m*3 13.6 C 0 km/h
2233 11-05-2005 14:44:03 13.6 C 4.94 g/m*3 13.6 C 0 km/h
2234 11-05-2005 14:56:01 13.9 C 4.68 g/m*3 13.9 C 0 km/h
2235 11-05-2005 15:08:02 15.4 C 4.99 g/m*3 15.4 C 0 km/h
2236 11-05-2005 15:20:01 15.2 C 4.67 g/m*3 15.2 C 0 km/h
2237 11-05-2005 15:32:01 14.2 C 4.88 g/m*3 14.2 C 0 km/h
2238 11-05-2005 15:44:01 14 C 4.82 g/m*3 14 C 0 km/h
2239 11-05-2005 15:56:02 13.8 C 4.77 g/m*3 13.8 C 0 km/h
2240 11-05-2005 16:08:02 14.5 C 4.48 g/m*3 14.5 C 0 km/h
2241 11-05-2005 16:20:02 15.7 C 4.28 g/m*3 15.7 C 0 km/h
2242 11-05-2005 16:32:02 16.8 C 4.58 g/m*3 16.8 C 0 km/h
2243 11-05-2005 16:44:02 18 C 4.61 g/m*3 18 C 0 km/h
2244 11-05-2005 16:56:02 16.8 C 4.72 g/m*3 16.8 C 0 km/h
2245 11-05-2005 17:08:03 18.2 C 4.97 g/m*3 18.2 C 0 km/h
2246 11-05-2005 17:20:02 17.6 C 4.5 g/m*3 17.6 C 0 km/h
2247 11-05-2005 17:32:02 17.5 C 4.32 g/m*3 17.5 C 0 km/h
2248 11-05-2005 17:44:02 17.6 C 4.2 g/m*3 17.6 C 0 km/h
2249 11-05-2005 17:56:02 16.9 C 4.31 g/m*3 16.9 C 0 km/h
2250 11-05-2005 18:08:02 17 C 4.49 g/m*3 17 C 0 km/h
Sensor: Nr:Datum:Temp:Abs-Feuchte:Windchill:Wind:
Aussen-T/F 2251 11-05-2005 18:20:02 17.2 C 4.83 g/m*3 17.2 C 0 km/h
2252 11-05-2005 18:32:02 17.4 C 4.74 g/m*3 17.4 C 0 km/h
2253 11-05-2005 18:44:03 16.5 C 4.91 g/m*3 16.5 C 0 km/h
2254 11-05-2005 18:56:02 15.8 C 4.71 g/m*3 15.8 C 0 km/h
2255 11-05-2005 19:08:03 15.4 C 4.34 g/m*3 15.4 C 0 km/h
2256 11-05-2005 19:20:02 15.3 C 4.44 g/m*3 15.3 C 0 km/h
2257 11-05-2005 19:32:02 15.5 C 4.49 g/m*3 15.5 C 0 km/h
2258 11-05-2005 19:44:02 15.5 C 4.49 g/m*3 15.5 C 0 km/h
2259 11-05-2005 19:56:03 16 C 4.5 g/m*3 16 C 0 km/h
2260 11-05-2005 20:08:02 15.4 C 4.47 g/m*3 15.4 C 0 km/h
2261 11-05-2005 20:20:02 15.2 C 4.54 g/m*3 15.2 C 0 km/h
2262 11-05-2005 20:32:03 14.8 C 4.94 g/m*3 14.8 C 0 km/h
2263 11-05-2005 20:44:03 13.8 C 5 g/m*3 13.8 C 0 km/h
2264 11-05-2005 20:56:01 12.7 C 5.34 g/m*3 12.7 C 0 km/h
2265 11-05-2005 21:08:02 11.7 C 5.33 g/m*3 11.7 C 0 km/h
2266 11-05-2005 21:20:02 10.9 C 5.47 g/m*3 10.9 C 0 km/h
2267 11-05-2005 21:32:02 10.3 C 5.36 g/m*3 10.3 C 0 km/h
2268 11-05-2005 21:44:02 9.9 C 5.32 g/m*3 9.9 C 0 km/h
2269 11-05-2005 21:56:01 9.5 C 5.19 g/m*3 9.5 C 0 km/h
2270 11-05-2005 22:08:02 9.4 C 5.34 g/m*3 9.4 C 0 km/h
2271 11-05-2005 22:20:02 9.2 C 5.36 g/m*3 9.2 C 0 km/h
2272 11-05-2005 22:32:02 9.1 C 5.5 g/m*3 9.1 C 0 km/h
2273 11-05-2005 22:44:02 8.9 C 5.52 g/m*3 8.9 C 0 km/h
2274 11-05-2005 22:56:01 8.6 C 5.59 g/m*3 8.6 C 0 km/h
2275 11-05-2005 23:08:02 8.2 C 5.69 g/m*3 8.2 C 0 km/h
Sensor: Nr:Datum:Temp:Abs-Feuchte:Windchill:Wind:
Aussen-T/F 2276 11-05-2005 23:20:01 8.1 C 5.66 g/m*3 8.1 C 0 km/h
2277 11-05-2005 23:32:01 7.9 C 5.75 g/m*3 7.9 C 0 km/h
2278 11-05-2005 23:44:01 7.7 C 5.76 g/m*3 7.7 C 0 km/h
2279 11-05-2005 23:56:02 7.5 C 5.76 g/m*3 7.5 C 0 km/h
2280 12-05-2005 00:08:02 7.2 C 5.73 g/m*3 7.2 C 0 km/h
2281 12-05-2005 00:20:03 7 C 5.73 g/m*3 7 C 0 km/h
2282 12-05-2005 00:32:03 6.8 C 5.81 g/m*3 6.8 C 0 km/h
2283 12-05-2005 00:44:03 6.5 C 5.85 g/m*3 6.5 C 0 km/h
2284 12-05-2005 00:56:02 6.4 C 5.81 g/m*3 6.4 C 0 km/h
2285 12-05-2005 01:08:02 6.2 C 5.81 g/m*3 6.2 C 0 km/h
2286 12-05-2005 01:20:01 6 C 5.81 g/m*3 6 C 0 km/h
2287 12-05-2005 01:32:02 5.8 C 5.87 g/m*3 5.8 C 0 km/h
2288 12-05-2005 01:44:02 5.7 C 5.76 g/m*3 5.7 C 0 km/h
2289 12-05-2005 01:56:03 5.6 C 5.73 g/m*3 5.6 C 0 km/h
2290 12-05-2005 02:08:02 5.5 C 5.76 g/m*3 5.5 C 0 km/h
2291 12-05-2005 02:20:02 5.3 C 5.75 g/m*3 5.3 C 0 km/h
2292 12-05-2005 02:32:03 5.1 C 5.61 g/m*3 5.1 C 0 km/h
2293 12-05-2005 02:44:03 5 C 5.64 g/m*3 5 C 0 km/h
2294 12-05-2005 02:57:03 4.9 C 5.67 g/m*3 4.9 C 0 km/h
2295 12-05-2005 03:09:03 4.8 C 5.63 g/m*3 4.8 C 0 km/h
2296 12-05-2005 03:21:04 4.7 C 5.66 g/m*3 4.7 C 0 km/h
2297 12-05-2005 03:33:02 4.4 C 5.55 g/m*3 4.4 C 0 km/h
2298 12-05-2005 03:45:02 4.3 C 5.58 g/m*3 4.3 C 0 km/h
2299 12-05-2005 03:57:02 4.2 C 5.54 g/m*3 4.2 C 0 km/h
2300 12-05-2005 04:09:02 4.2 C 5.54 g/m*3 4.2 C 0 km/h
Sensor: Nr:Datum:Temp:Abs-Feuchte:Windchill:Wind:
Aussen-T/F 2301 12-05-2005 04:21:02 3.9 C 5.49 g/m*3 3.9 C 0 km/h
2302 12-05-2005 04:33:02 3.8 C 5.52 g/m*3 3.8 C 0 km/h
2303 12-05-2005 04:45:02 3.7 C 5.48 g/m*3 3.7 C 0 km/h
2304 12-05-2005 04:57:02 3.5 C 5.41 g/m*3 3.5 C 0 km/h
2305 12-05-2005 05:09:02 3.4 C 5.37 g/m*3 3.4 C 0 km/h
2306 12-05-2005 05:21:02 3.4 C 5.37 g/m*3 3.4 C 0 km/h
2307 12-05-2005 05:33:02 3.3 C 5.4 g/m*3 3.3 C 0 km/h
2308 12-05-2005 05:45:01 3.2 C 5.36 g/m*3 3.2 C 0 km/h
2309 12-05-2005 05:57:01 3.2 C 5.36 g/m*3 3.2 C 0 km/h
2310 12-05-2005 06:09:02 3.2 C 5.36 g/m*3 3.2 C 0 km/h
2311 12-05-2005 06:21:01 3.2 C 5.36 g/m*3 3.2 C 0 km/h
2312 12-05-2005 06:33:01 3.1 C 5.39 g/m*3 3.1 C 0 km/h
2313 12-05-2005 06:45:01 3.1 C 5.45 g/m*3 3.1 C 0 km/h
2314 12-05-2005 06:57:01 3.2 C 5.48 g/m*3 3.2 C 0 km/h
2315 12-05-2005 07:09:02 3.3 C 5.52 g/m*3 3.3 C 0 km/h
2316 12-05-2005 07:21:02 3.5 C 5.66 g/m*3 3.5 C 0 km/h
2317 12-05-2005 07:33:02 3.8 C 5.77 g/m*3 3.8 C 0 km/h
2318 12-05-2005 07:45:02 3.8 C 5.77 g/m*3 3.8 C 0 km/h
2319 12-05-2005 07:57:02 4.2 C 5.93 g/m*3 4.2 C 0 km/h
2320 12-05-2005 08:09:02 4.5 C 6.05 g/m*3 4.5 C 0 km/h
2321 12-05-2005 08:21:02 4.9 C 6.21 g/m*3 4.9 C 0 km/h
2322 12-05-2005 08:33:02 5.3 C 6.31 g/m*3 5.3 C 0 km/h
2323 12-05-2005 08:45:02 5.6 C 6.43 g/m*3 5.6 C 0 km/h
2324 12-05-2005 08:57:02 6.2 C 6.55 g/m*3 6.2 C 0 km/h
2325 12-05-2005 09:09:02 6.9 C 6.77 g/m*3 6.9 C 0 km/h
Sensor: Nr:Datum:Temp:Abs-Feuchte:Windchill:Wind:
Aussen-T/F 2326 12-05-2005 09:21:02 8 C 6.37 g/m*3 8 C 0 km/h
2327 12-05-2005 09:33:02 8.8 C 6.27 g/m*3 8.8 C 0 km/h
2328 12-05-2005 09:45:01 9.4 C 6.06 g/m*3 9.4 C 0 km/h
2329 12-05-2005 09:57:01 10 C 5.83 g/m*3 10 C 0 km/h
2330 12-05-2005 10:09:02 10.5 C 5.63 g/m*3 10.5 C 0 km/h
2331 12-05-2005 10:21:01 11.2 C 5.68 g/m*3 11.2 C 0 km/h
2332 12-05-2005 10:33:02 11.8 C 5.58 g/m*3 11.8 C 0 km/h
2333 12-05-2005 10:45:02 12.2 C 5.5 g/m*3 12.2 C 0 km/h
2334 12-05-2005 10:57:02 12.7 C 5.34 g/m*3 12.7 C 0 km/h
2335 12-05-2005 11:09:02 13.2 C 5.17 g/m*3 13.2 C 0 km/h
2336 12-05-2005 11:21:02 13.9 C 5.51 g/m*3 13.9 C 0 km/h
2337 12-05-2005 11:33:02 14 C 5.07 g/m*3 14 C 0 km/h
2338 12-05-2005 11:45:01 13.9 C 5.04 g/m*3 13.9 C 0 km/h
2339 12-05-2005 11:57:01 14.8 C 5.19 g/m*3 14.8 C 0 km/h
2340 12-05-2005 12:09:01 15.6 C 4.92 g/m*3 15.6 C 0 km/h
2341 12-05-2005 12:21:02 16.4 C 4.89 g/m*3 16.4 C 0 km/h
2342 12-05-2005 12:33:02 17.1 C 4.8 g/m*3 17.1 C 0 km/h
2343 12-05-2005 12:45:01 17.2 C 4.54 g/m*3 17.2 C 0 km/h
2344 12-05-2005 12:57:01 17.7 C 4.53 g/m*3 17.7 C 0 km/h
2345 12-05-2005 13:09:02 18.7 C 4.48 g/m*3 18.7 C 0 km/h
2346 12-05-2005 13:21:02 18.9 C 4.05 g/m*3 18.9 C 0 km/h
2347 12-05-2005 13:33:01 19.1 C 3.93 g/m*3 19.1 C 0 km/h
2348 12-05-2005 13:45:02 18.8 C 3.7 g/m*3 18.8 C 0 km/h
2349 12-05-2005 13:57:02 18.8 C 4.03 g/m*3 18.8 C 0 km/h
2350 12-05-2005 14:09:02 18.5 C 4.11 g/m*3 18.5 C 0 km/h
Sensor: Nr:Datum:Temp:Abs-Feuchte:Windchill:Wind:
Aussen-T/F 2351 12-05-2005 14:21:02 18.7 C 4 g/m*3 18.7 C 0 km/h
2352 12-05-2005 14:33:02 19.1 C 3.77 g/m*3 19.1 C 0 km/h
2353 12-05-2005 14:45:02 19.3 C 3.81 g/m*3 19.3 C 0 km/h
2354 12-05-2005 14:57:02 20 C 3.63 g/m*3 20 C 0 km/h
2355 12-05-2005 15:09:02 19.9 C 3.44 g/m*3 19.9 C 0 km/h
2356 12-05-2005 15:21:03 21.3 C 3.91 g/m*3 21.3 C 0 km/h
2357 12-05-2005 15:33:02 21.2 C 3.71 g/m*3 21.2 C 0 km/h
2358 12-05-2005 15:45:02 21.2 C 3.71 g/m*3 21.2 C 0 km/h
2359 12-05-2005 15:57:02 21.9 C 3.86 g/m*3 21.9 C 0 km/h
2360 12-05-2005 16:09:02 21.7 C 3.82 g/m*3 21.7 C 0 km/h
2361 12-05-2005 16:21:02 22.5 C 3.99 g/m*3 22.5 C 0 km/h
2362 12-05-2005 16:33:02 22.4 C 3.97 g/m*3 22.4 C 0 km/h
2363 12-05-2005 16:45:02 23 C 4.11 g/m*3 23 C 0 km/h
2364 12-05-2005 16:57:02 22.9 C 4.09 g/m*3 22.9 C 0 km/h
2365 12-05-2005 17:09:02 23.3 C 4.18 g/m*3 23.3 C 0 km/h
2366 12-05-2005 17:21:02 23.1 C 4.13 g/m*3 23.1 C 0 km/h
2367 12-05-2005 17:33:02 22.8 C 4.06 g/m*3 22.8 C 0 km/h
2368 12-05-2005 17:45:02 22.7 C 4.04 g/m*3 22.7 C 0 km/h
2369 12-05-2005 17:57:02 22.8 C 4.06 g/m*3 22.8 C 0 km/h
2370 12-05-2005 18:09:03 23 C 4.11 g/m*3 23 C 0 km/h
2371 12-05-2005 18:21:03 22.4 C 3.97 g/m*3 22.4 C 0 km/h
2372 12-05-2005 18:33:03 22.5 C 3.99 g/m*3 22.5 C 0 km/h
2373 12-05-2005 18:45:02 22.9 C 4.09 g/m*3 22.9 C 0 km/h
2374 12-05-2005 18:57:02 22.6 C 4.02 g/m*3 22.6 C 0 km/h
2375 12-05-2005 19:09:02 22 C 3.88 g/m*3 22 C 0 km/h
Sensor: Nr:Datum:Temp:Abs-Feuchte:Windchill:Wind:
Aussen-T/F 2376 12-05-2005 19:21:02 21.5 C 3.77 g/m*3 21.5 C 0 km/h
2377 12-05-2005 19:33:02 20.6 C 3.76 g/m*3 20.6 C 0 km/h
2378 12-05-2005 19:45:02 20.2 C 3.67 g/m*3 20.2 C 0 km/h
2379 12-05-2005 19:57:02 19.8 C 4.27 g/m*3 19.8 C 0 km/h
2380 12-05-2005 20:09:02 19.4 C 4.34 g/m*3 19.4 C 0 km/h
2381 12-05-2005 20:21:02 18.7 C 4.16 g/m*3 18.7 C 0 km/h
2382 12-05-2005 20:33:02 17.9 C 4.58 g/m*3 17.9 C 0 km/h
2383 12-05-2005 20:45:02 17 C 5.06 g/m*3 17 C 0 km/h
2384 12-05-2005 20:57:02 16.2 C 5.1 g/m*3 16.2 C 0 km/h
2385 12-05-2005 21:09:02 15.3 C 5.09 g/m*3 15.3 C 0 km/h
2386 12-05-2005 21:21:01 14.4 C 5.07 g/m*3 14.4 C 0 km/h
2387 12-05-2005 21:33:01 13.8 C 5.24 g/m*3 13.8 C 0 km/h
2388 12-05-2005 21:45:02 13.4 C 5.23 g/m*3 13.4 C 0 km/h
2389 12-05-2005 21:57:02 13.3 C 5.2 g/m*3 13.3 C 0 km/h
2390 12-05-2005 22:09:03 12.9 C 5.3 g/m*3 12.9 C 0 km/h
2391 12-05-2005 22:21:02 12.6 C 5.2 g/m*3 12.6 C 0 km/h
2392 12-05-2005 22:33:02 12.4 C 5.24 g/m*3 12.4 C 0 km/h
2393 12-05-2005 22:45:01 12.1 C 5.25 g/m*3 12.1 C 0 km/h
2394 12-05-2005 22:57:01 12.1 C 5.36 g/m*3 12.1 C 0 km/h
2395 12-05-2005 23:09:01 11.8 C 5.37 g/m*3 11.8 C 0 km/h
2396 12-05-2005 23:21:02 11.3 C 5.3 g/m*3 11.3 C 0 km/h
2397 12-05-2005 23:33:02 11.4 C 5.23 g/m*3 11.4 C 0 km/h
2398 12-05-2005 23:45:01 11.4 C 5.23 g/m*3 11.4 C 0 km/h
2399 12-05-2005 23:57:01 11.2 C 5.17 g/m*3 11.2 C 0 km/h
2400 13-05-2005 00:09:02 11 C 5.1 g/m*3 11 C 0 km/h
Sensor: Nr:Datum:Temp:Abs-Feuchte:Windchill:Wind:
Aussen-T/F 2401 13-05-2005 00:21:03 10.6 C 5.17 g/m*3 10.6 C 0 km/h
2402 13-05-2005 00:33:02 10.4 C 5.3 g/m*3 10.4 C 0 km/h
2403 13-05-2005 00:45:03 10.4 C 5.2 g/m*3 10.4 C 0 km/h
2404 13-05-2005 00:57:03 10.1 C 5.2 g/m*3 10.1 C 0 km/h
2405 13-05-2005 01:09:03 10.1 C 5.2 g/m*3 10.1 C 0 km/h
2406 13-05-2005 01:21:02 9.8 C 5.2 g/m*3 9.8 C 0 km/h
2407 13-05-2005 01:33:02 9.6 C 5.31 g/m*3 9.6 C 0 km/h
2408 13-05-2005 01:45:02 9.6 C 5.31 g/m*3 9.6 C 0 km/h
2409 13-05-2005 01:57:02 9.3 C 5.3 g/m*3 9.3 C 0 km/h
2410 13-05-2005 02:09:02 9.1 C 5.32 g/m*3 9.1 C 0 km/h
2411 13-05-2005 02:21:02 8.8 C 5.4 g/m*3 8.8 C 0 km/h
2412 13-05-2005 02:33:02 8.5 C 5.38 g/m*3 8.5 C 0 km/h
2413 13-05-2005 02:46:04 8.4 C 5.34 g/m*3 8.4 C 0 km/h
2414 13-05-2005 02:58:04 8.1 C 5.33 g/m*3 8.1 C 0 km/h
2415 13-05-2005 03:10:03 8.1 C 5.41 g/m*3 8.1 C 0 km/h
2416 13-05-2005 03:22:03 8 C 5.37 g/m*3 8 C 0 km/h
2417 13-05-2005 03:34:02 7.9 C 5.42 g/m*3 7.9 C 0 km/h
2418 13-05-2005 03:46:02 7.8 C 5.47 g/m*3 7.8 C 0 km/h
2419 13-05-2005 03:58:02 7.7 C 5.51 g/m*3 7.7 C 0 km/h
2420 13-05-2005 04:10:03 7.8 C 5.55 g/m*3 7.8 C 0 km/h
2421 13-05-2005 04:22:02 7.8 C 5.63 g/m*3 7.8 C 0 km/h
2422 13-05-2005 04:34:02 7.8 C 5.55 g/m*3 7.8 C 0 km/h
2423 13-05-2005 04:46:02 7.6 C 5.48 g/m*3 7.6 C 0 km/h
2424 13-05-2005 04:58:02 7.6 C 5.48 g/m*3 7.6 C 0 km/h
2425 13-05-2005 05:10:02 7.5 C 5.52 g/m*3 7.5 C 0 km/h
Sensor: Nr:Datum:Temp:Abs-Feuchte:Windchill:Wind:
Aussen-T/F 2426 13-05-2005 05:22:03 7.3 C 5.45 g/m*3 7.3 C 0 km/h
2427 13-05-2005 05:34:02 7.3 C 5.45 g/m*3 7.3 C 0 km/h
2428 13-05-2005 05:46:02 7.1 C 5.38 g/m*3 7.1 C 0 km/h
2429 13-05-2005 05:58:02 6.8 C 5.35 g/m*3 6.8 C 0 km/h
2430 13-05-2005 06:10:03 6.9 C 5.47 g/m*3 6.9 C 0 km/h
2431 13-05-2005 06:22:02 6.9 C 5.47 g/m*3 6.9 C 0 km/h
2432 13-05-2005 06:34:02 7 C 5.5 g/m*3 7 C 0 km/h
2433 13-05-2005 06:46:02 7.3 C 5.53 g/m*3 7.3 C 0 km/h
2434 13-05-2005 06:58:02 7.4 C 5.57 g/m*3 7.4 C 0 km/h
2435 13-05-2005 07:10:02 7.5 C 5.68 g/m*3 7.5 C 0 km/h
2436 13-05-2005 07:22:02 7.5 C 5.6 g/m*3 7.5 C 0 km/h
2437 13-05-2005 07:34:02 7.9 C 5.83 g/m*3 7.9 C 0 km/h
2438 13-05-2005 07:46:02 8.5 C 5.55 g/m*3 8.5 C 0 km/h
2439 13-05-2005 07:58:02 9 C 5.29 g/m*3 9 C 0 km/h
2440 13-05-2005 08:10:05 9.8 C 5.38 g/m*3 9.8 C 0 km/h
2441 13-05-2005 08:22:01 10.3 C 5.17 g/m*3 10.3 C 0 km/h
2442 13-05-2005 08:34:01 10.6 C 5.27 g/m*3 10.6 C 0 km/h
2443 13-05-2005 08:46:02 10.8 C 5.14 g/m*3 10.8 C 0 km/h
2444 13-05-2005 08:58:02 11.5 C 5.16 g/m*3 11.5 C 0 km/h
2445 13-05-2005 09:10:02 12.2 C 5.07 g/m*3 12.2 C 0 km/h
2446 13-05-2005 09:22:01 12.6 C 5.09 g/m*3 12.6 C 0 km/h
2447 13-05-2005 09:34:02 13 C 5.1 g/m*3 13 C 0 km/h
2448 13-05-2005 09:46:02 13.2 C 4.94 g/m*3 13.2 C 0 km/h
2449 13-05-2005 09:58:02 13.5 C 5.03 g/m*3 13.5 C 0 km/h
2450 13-05-2005 10:10:02 13.8 C 5.12 g/m*3 13.8 C 0 km/h
Sensor: Nr:Datum:Temp:Abs-Feuchte:Windchill:Wind:
Aussen-T/F 2451 13-05-2005 10:22:02 14.6 C 5.13 g/m*3 14.6 C 0 km/h
2452 13-05-2005 10:34:02 15.5 C 5.16 g/m*3 15.5 C 0 km/h
2453 13-05-2005 10:46:02 16 C 5.04 g/m*3 16 C 0 km/h
2454 13-05-2005 10:58:02 15.9 C 5.15 g/m*3 15.9 C 0 km/h
2455 13-05-2005 11:10:02 16.1 C 5.21 g/m*3 16.1 C 0 km/h
2456 13-05-2005 11:22:02 16.8 C 5.29 g/m*3 16.8 C 0 km/h
2457 13-05-2005 11:34:02 17.6 C 5.4 g/m*3 17.6 C 0 km/h
2458 13-05-2005 11:46:02 18.2 C 5.44 g/m*3 18.2 C 0 km/h
2459 13-05-2005 11:58:02 19 C 4.89 g/m*3 19 C 0 km/h
2460 13-05-2005 12:10:02 19.3 C 4.48 g/m*3 19.3 C 0 km/h
2461 13-05-2005 12:22:02 19.7 C 4.42 g/m*3 19.7 C 0 km/h
2462 13-05-2005 12:34:02 19.8 C 4.27 g/m*3 19.8 C 0 km/h
2463 13-05-2005 12:46:01 19.5 C 4.03 g/m*3 19.5 C 0 km/h
2464 13-05-2005 12:58:01 18.5 C 4.27 g/m*3 18.5 C 0 km/h
2465 13-05-2005 13:10:02 18.4 C 4.56 g/m*3 18.4 C 0 km/h
2466 13-05-2005 13:22:01 18.1 C 4.48 g/m*3 18.1 C 0 km/h
2467 13-05-2005 13:34:01 17.9 C 4.58 g/m*3 17.9 C 0 km/h
2468 13-05-2005 13:46:02 18.1 C 4.64 g/m*3 18.1 C 0 km/h
2469 13-05-2005 13:58:02 18.3 C 4.85 g/m*3 18.3 C 0 km/h
2470 13-05-2005 14:10:03 18.2 C 4.66 g/m*3 18.2 C 0 km/h
2471 13-05-2005 14:22:02 18.5 C 4.75 g/m*3 18.5 C 0 km/h
2472 13-05-2005 14:34:02 18.3 C 4.69 g/m*3 18.3 C 0 km/h
2473 13-05-2005 14:46:02 17.8 C 5.16 g/m*3 17.8 C 0 km/h
2474 13-05-2005 14:58:02 18.2 C 4.82 g/m*3 18.2 C 0 km/h
2475 13-05-2005 15:10:04 18.3 C 4.85 g/m*3 18.3 C 0 km/h
Sensor: Nr:Datum:Temp:Abs-Feuchte:Windchill:Wind:
Aussen-T/F 2476 13-05-2005 15:22:03 18.3 C 5 g/m*3 18.3 C 0 km/h
2477 13-05-2005 15:34:03 18.4 C 5.03 g/m*3 18.4 C 0 km/h
2478 13-05-2005 15:46:02 18.5 C 5.54 g/m*3 18.5 C 0 km/h
2479 13-05-2005 15:58:02 18.9 C 5.35 g/m*3 18.9 C 0 km/h
2480 13-05-2005 16:10:02 19.2 C 5.11 g/m*3 19.2 C 0 km/h
2481 13-05-2005 16:22:02 19.3 C 5.14 g/m*3 19.3 C 0 km/h
2482 13-05-2005 16:34:02 18.8 C 4.83 g/m*3 18.8 C 0 km/h
2483 13-05-2005 16:46:03 18.5 C 5.06 g/m*3 18.5 C 0 km/h
2484 13-05-2005 16:58:03 18.5 C 6.01 g/m*3 18.5 C 0 km/h
2485 13-05-2005 17:10:06 18 C 6.3 g/m*3 18 C 0 km/h
2486 13-05-2005 17:22:03 17.8 C 6.07 g/m*3 17.8 C 0 km/h
2487 13-05-2005 17:34:04 17.3 C 5.89 g/m*3 17.3 C 0 km/h
2488 13-05-2005 17:46:03 17.1 C 5.97 g/m*3 17.1 C 0 km/h
2489 13-05-2005 17:58:03 16.9 C 6.04 g/m*3 16.9 C 0 km/h
2490 13-05-2005 18:10:04 16.7 C 6.11 g/m*3 16.7 C 0 km/h
2491 13-05-2005 18:22:03 16.6 C 5.93 g/m*3 16.6 C 0 km/h
2492 13-05-2005 18:34:02 16.2 C 6.21 g/m*3 16.2 C 0 km/h
2493 13-05-2005 18:46:02 16 C 5.99 g/m*3 16 C 0 km/h
2494 13-05-2005 18:58:02 15.8 C 5.92 g/m*3 15.8 C 0 km/h
2495 13-05-2005 19:10:04 15.7 C 6.02 g/m*3 15.7 C 0 km/h
2496 13-05-2005 19:22:03 15.6 C 5.85 g/m*3 15.6 C 0 km/h
2497 13-05-2005 19:34:02 15.2 C 5.84 g/m*3 15.2 C 0 km/h
2498 13-05-2005 19:46:02 15.3 C 5.88 g/m*3 15.3 C 0 km/h
2499 13-05-2005 19:58:02 15.2 C 5.71 g/m*3 15.2 C 0 km/h
2500 13-05-2005 20:10:02 15.1 C 5.68 g/m*3 15.1 C 0 km/h
Sensor: Nr:Datum:Temp:Abs-Feuchte:Windchill:Wind:
Aussen-T/F 2501 13-05-2005 20:22:02 14.8 C 5.7 g/m*3 14.8 C 0 km/h
2502 13-05-2005 20:34:02 14.8 C 5.57 g/m*3 14.8 C 0 km/h
2503 13-05-2005 20:46:02 14.5 C 5.6 g/m*3 14.5 C 0 km/h
2504 13-05-2005 20:58:02 14.6 C 5.63 g/m*3 14.6 C 0 km/h
2505 13-05-2005 21:10:03 14.6 C 5.76 g/m*3 14.6 C 0 km/h
2506 13-05-2005 21:22:02 14.5 C 5.85 g/m*3 14.5 C 0 km/h
2507 13-05-2005 21:34:02 14.3 C 5.9 g/m*3 14.3 C 0 km/h
2508 13-05-2005 21:46:01 14.2 C 6.11 g/m*3 14.2 C 0 km/h
2509 13-05-2005 21:58:01 14.1 C 6.07 g/m*3 14.1 C 0 km/h
2510 13-05-2005 22:10:02 13.8 C 5.96 g/m*3 13.8 C 0 km/h
2511 13-05-2005 22:22:02 13.5 C 6.08 g/m*3 13.5 C 0 km/h
2512 13-05-2005 22:34:04 13 C 6.01 g/m*3 13 C 0 km/h
2513 13-05-2005 22:46:02 12.7 C 6.23 g/m*3 12.7 C 0 km/h
2514 13-05-2005 22:58:02 12.5 C 6.27 g/m*3 12.5 C 0 km/h
2515 13-05-2005 23:10:02 12.8 C 6.5 g/m*3 12.8 C 0 km/h
2516 13-05-2005 23:22:02 12.7 C 6.57 g/m*3 12.7 C 0 km/h
2517 13-05-2005 23:34:02 12.7 C 6.68 g/m*3 12.7 C 0 km/h
2518 13-05-2005 23:46:02 12.8 C 6.72 g/m*3 12.8 C 0 km/h
2519 13-05-2005 23:58:02 12.8 C 6.83 g/m*3 12.8 C 0 km/h
2520 14-05-2005 00:10:02 12.8 C 6.83 g/m*3 12.8 C 0 km/h
2521 14-05-2005 00:22:03 12.5 C 6.82 g/m*3 12.5 C 0 km/h
2522 14-05-2005 00:34:02 12.3 C 6.95 g/m*3 12.3 C 0 km/h
2523 14-05-2005 00:46:02 12.2 C 6.91 g/m*3 12.2 C 0 km/h
2524 14-05-2005 00:58:02 12.3 C 6.95 g/m*3 12.3 C 0 km/h
2525 14-05-2005 01:10:01 12.2 C 7.01 g/m*3 12.2 C 0 km/h
Sensor: Nr:Datum:Temp:Abs-Feuchte:Windchill:Wind:
Aussen-T/F 2526 14-05-2005 01:22:01 12.3 C 7.17 g/m*3 12.3 C 0 km/h
2527 14-05-2005 01:34:01 12.2 C 7.12 g/m*3 12.2 C 0 km/h
2528 14-05-2005 01:46:02 12.2 C 7.01 g/m*3 12.2 C 0 km/h
2529 14-05-2005 01:58:02 12.1 C 7.18 g/m*3 12.1 C 0 km/h
2530 14-05-2005 02:10:02 12 C 7.25 g/m*3 12 C 0 km/h
2531 14-05-2005 02:22:02 12 C 7.14 g/m*3 12 C 0 km/h
2532 14-05-2005 02:34:02 12 C 7.25 g/m*3 12 C 0 km/h
2533 14-05-2005 02:47:03 12.1 C 7.4 g/m*3 12.1 C 0 km/h
2534 14-05-2005 02:59:03 11.9 C 7.63 g/m*3 11.9 C 0 km/h
2535 14-05-2005 03:11:03 11.8 C 7.68 g/m*3 11.8 C 0 km/h
2536 14-05-2005 03:23:03 11.7 C 7.74 g/m*3 11.7 C 0 km/h
2537 14-05-2005 03:35:02 11.7 C 7.64 g/m*3 11.7 C 0 km/h
2538 14-05-2005 03:47:02 11.6 C 7.8 g/m*3 11.6 C 0 km/h
2539 14-05-2005 03:59:02 11.3 C 7.75 g/m*3 11.3 C 0 km/h
2540 14-05-2005 04:11:02 11.4 C 7.8 g/m*3 11.4 C 0 km/h
2541 14-05-2005 04:23:01 11.4 C 7.7 g/m*3 11.4 C 0 km/h
2542 14-05-2005 04:35:01 11.4 C 7.7 g/m*3 11.4 C 0 km/h
2543 14-05-2005 04:47:02 11.4 C 7.8 g/m*3 11.4 C 0 km/h
2544 14-05-2005 04:59:02 11.1 C 7.76 g/m*3 11.1 C 0 km/h
2545 14-05-2005 05:11:01 11 C 7.81 g/m*3 11 C 0 km/h
2546 14-05-2005 05:23:02 11 C 8.01 g/m*3 11 C 0 km/h
2547 14-05-2005 05:35:02 10.9 C 8.06 g/m*3 10.9 C 0 km/h
2548 14-05-2005 05:47:02 10.8 C 8.2 g/m*3 10.8 C 0 km/h
2549 14-05-2005 05:59:02 10.8 C 8.4 g/m*3 10.8 C 0 km/h
2550 14-05-2005 06:11:03 10.8 C 8.5 g/m*3 10.8 C 0 km/h
Sensor: Nr:Datum:Temp:Abs-Feuchte:Windchill:Wind:
Aussen-T/F 2551 14-05-2005 06:23:02 10.7 C 8.55 g/m*3 10.7 C 0 km/h
2552 14-05-2005 06:35:02 10.7 C 8.64 g/m*3 10.7 C 0 km/h
2553 14-05-2005 06:47:02 10.7 C 8.74 g/m*3 10.7 C 0 km/h
2554 14-05-2005 06:59:02 10.6 C 8.69 g/m*3 10.6 C 0 km/h
2555 14-05-2005 07:11:02 10.4 C 8.67 g/m*3 10.4 C 0 km/h
2556 14-05-2005 07:23:02 10.6 C 8.88 g/m*3 10.6 C 0 km/h
2557 14-05-2005 07:35:02 10.8 C 9.09 g/m*3 10.8 C 0 km/h
2558 14-05-2005 07:47:02 10.8 C 9.09 g/m*3 10.8 C 0 km/h
2559 14-05-2005 07:59:03 10.8 C 9.09 g/m*3 10.8 C 0 km/h
2560 14-05-2005 08:11:02 11 C 9.21 g/m*3 11 C 0 km/h
2561 14-05-2005 08:23:02 11 C 9.21 g/m*3 11 C 0 km/h
2562 14-05-2005 08:35:02 11.2 C 9.33 g/m*3 11.2 C 0 km/h
2563 14-05-2005 08:47:02 11.3 C 9.28 g/m*3 11.3 C 0 km/h
2564 14-05-2005 08:59:02 11.2 C 9.12 g/m*3 11.2 C 0 km/h
2565 14-05-2005 09:11:02 11.1 C 8.96 g/m*3 11.1 C 0 km/h
2566 14-05-2005 09:23:02 11.1 C 8.96 g/m*3 11.1 C 0 km/h
2567 14-05-2005 09:35:02 10.9 C 8.85 g/m*3 10.9 C 0 km/h
2568 14-05-2005 09:47:01 11 C 9.01 g/m*3 11 C 0 km/h
2569 14-05-2005 09:59:01 11 C 9.01 g/m*3 11 C 0 km/h
2570 14-05-2005 10:11:01 10.7 C 8.74 g/m*3 10.7 C 0 km/h
2571 14-05-2005 10:23:02 10.4 C 8.67 g/m*3 10.4 C 0 km/h
2572 14-05-2005 10:35:02 10.6 C 8.88 g/m*3 10.6 C 0 km/h
2573 14-05-2005 10:47:02 10.7 C 9.04 g/m*3 10.7 C 0 km/h
2574 14-05-2005 10:59:02 10.9 C 9.15 g/m*3 10.9 C 0 km/h
2575 14-05-2005 11:11:01 10.9 C 9.15 g/m*3 10.9 C 0 km/h
Sensor: Nr:Datum:Temp:Abs-Feuchte:Windchill:Wind:
Aussen-T/F 2576 14-05-2005 11:23:02 11 C 9.21 g/m*3 11 C 0 km/h
2577 14-05-2005 11:35:03 11 C 9.21 g/m*3 11 C 0 km/h
2578 14-05-2005 11:47:03 11 C 9.21 g/m*3 11 C 0 km/h
2579 14-05-2005 11:59:03 11 C 9.21 g/m*3 11 C 0 km/h
2580 14-05-2005 12:11:05 11 C 9.21 g/m*3 11 C 0 km/h
2581 14-05-2005 12:23:04 11.1 C 9.27 g/m*3 11.1 C 0 km/h
2582 14-05-2005 12:35:06 11.4 C 9.44 g/m*3 11.4 C 0 km/h
2583 14-05-2005 12:47:03 11.5 C 9.5 g/m*3 11.5 C 0 km/h
2584 14-05-2005 12:59:03 11.6 C 9.56 g/m*3 11.6 C 0 km/h
2585 14-05-2005 13:11:03 11.5 C 9.5 g/m*3 11.5 C 0 km/h
2586 14-05-2005 13:23:03 11.5 C 9.5 g/m*3 11.5 C 0 km/h
2587 14-05-2005 13:35:03 11.5 C 9.5 g/m*3 11.5 C 0 km/h
2588 14-05-2005 13:47:03 11.7 C 9.62 g/m*3 11.7 C 0 km/h
2589 14-05-2005 13:59:03 11.6 C 9.56 g/m*3 11.6 C 0 km/h
2590 14-05-2005 14:11:03 11.6 C 9.56 g/m*3 11.6 C 0 km/h
2591 14-05-2005 14:23:01 11.7 C 9.62 g/m*3 11.7 C 0 km/h
2592 14-05-2005 14:35:02 11.6 C 9.56 g/m*3 11.6 C 0 km/h
2593 14-05-2005 14:47:02 11.7 C 9.62 g/m*3 11.7 C 0 km/h
2594 14-05-2005 14:59:02 11.7 C 9.73 g/m*3 11.7 C 0 km/h
2595 14-05-2005 15:11:02 11.6 C 9.67 g/m*3 11.6 C 0 km/h
2596 14-05-2005 15:23:01 11.6 C 9.67 g/m*3 11.6 C 0 km/h
2597 14-05-2005 15:35:02 11.9 C 9.85 g/m*3 11.9 C 0 km/h
2598 14-05-2005 15:47:01 12.1 C 9.87 g/m*3 12.1 C 0 km/h
2599 14-05-2005 15:59:01 11.9 C 9.85 g/m*3 11.9 C 0 km/h
2600 14-05-2005 16:11:02 11.8 C 9.79 g/m*3 11.8 C 0 km/h
Sensor: Nr:Datum:Temp:Abs-Feuchte:Windchill:Wind:
Aussen-T/F 2601 14-05-2005 16:23:01 11.8 C 9.79 g/m*3 11.8 C 0 km/h
2602 14-05-2005 16:35:02 11.9 C 9.85 g/m*3 11.9 C 0 km/h
2603 14-05-2005 16:47:02 11.8 C 9.79 g/m*3 11.8 C 0 km/h
2604 14-05-2005 16:59:02 11.8 C 9.68 g/m*3 11.8 C 0 km/h
2605 14-05-2005 17:11:02 12 C 9.8 g/m*3 12 C 0 km/h
2606 14-05-2005 17:23:02 11.9 C 9.74 g/m*3 11.9 C 0 km/h
2607 14-05-2005 17:35:03 11.7 C 9.62 g/m*3 11.7 C 0 km/h
2608 14-05-2005 17:47:02 11.7 C 9.73 g/m*3 11.7 C 0 km/h
2609 14-05-2005 17:59:02 11.6 C 9.67 g/m*3 11.6 C 0 km/h
2610 14-05-2005 18:11:03 11.7 C 9.73 g/m*3 11.7 C 0 km/h
2611 14-05-2005 18:23:03 11.6 C 9.67 g/m*3 11.6 C 0 km/h
2612 14-05-2005 18:35:03 11.6 C 9.67 g/m*3 11.6 C 0 km/h
2613 14-05-2005 18:47:03 11.6 C 9.67 g/m*3 11.6 C 0 km/h
2614 14-05-2005 18:59:03 11.6 C 9.67 g/m*3 11.6 C 0 km/h
2615 14-05-2005 19:11:03 11.5 C 9.61 g/m*3 11.5 C 0 km/h
2616 14-05-2005 19:23:02 11.5 C 9.71 g/m*3 11.5 C 0 km/h
2617 14-05-2005 19:35:03 11.5 C 9.71 g/m*3 11.5 C 0 km/h
2618 14-05-2005 19:47:02 11.5 C 9.71 g/m*3 11.5 C 0 km/h
2619 14-05-2005 19:59:02 11.5 C 9.71 g/m*3 11.5 C 0 km/h
2620 14-05-2005 20:11:01 11.5 C 9.71 g/m*3 11.5 C 0 km/h
2621 14-05-2005 20:23:01 11.5 C 9.71 g/m*3 11.5 C 0 km/h
2622 14-05-2005 20:35:02 11.4 C 9.65 g/m*3 11.4 C 0 km/h
2623 14-05-2005 20:47:02 11.3 C 9.59 g/m*3 11.3 C 0 km/h
2624 14-05-2005 20:59:02 11.2 C 9.43 g/m*3 11.2 C 0 km/h
2625 14-05-2005 21:11:02 11.1 C 9.37 g/m*3 11.1 C 0 km/h
Sensor: Nr:Datum:Temp:Abs-Feuchte:Windchill:Wind:
Aussen-T/F 2626 14-05-2005 21:23:02 11.1 C 9.37 g/m*3 11.1 C 0 km/h
2627 14-05-2005 21:35:02 11 C 9.31 g/m*3 11 C 0 km/h
2628 14-05-2005 21:47:02 11 C 9.31 g/m*3 11 C 0 km/h
2629 14-05-2005 21:59:02 10.9 C 9.35 g/m*3 10.9 C 0 km/h
2630 14-05-2005 22:11:02 10.8 C 9.29 g/m*3 10.8 C 0 km/h
2631 14-05-2005 22:23:02 10.8 C 9.29 g/m*3 10.8 C 0 km/h
2632 14-05-2005 22:35:02 10.7 C 9.23 g/m*3 10.7 C 0 km/h
2633 14-05-2005 22:47:02 10.6 C 9.17 g/m*3 10.6 C 0 km/h
2634 14-05-2005 22:59:02 10.6 C 9.17 g/m*3 10.6 C 0 km/h
2635 14-05-2005 23:11:02 10.6 C 9.17 g/m*3 10.6 C 0 km/h
2636 14-05-2005 23:23:02 10.5 C 9.12 g/m*3 10.5 C 0 km/h
2637 14-05-2005 23:35:02 10.6 C 9.17 g/m*3 10.6 C 0 km/h
2638 14-05-2005 23:47:01 10.5 C 9.12 g/m*3 10.5 C 0 km/h
2639 14-05-2005 23:59:01 10.5 C 9.12 g/m*3 10.5 C 0 km/h
2640 15-05-2005 00:11:02 10.4 C 9.06 g/m*3 10.4 C 0 km/h
2641 15-05-2005 00:23:02 10.4 C 9.06 g/m*3 10.4 C 0 km/h
2642 15-05-2005 00:35:01 10.3 C 8.91 g/m*3 10.3 C 0 km/h
2643 15-05-2005 00:47:03 10.2 C 8.85 g/m*3 10.2 C 0 km/h
2644 15-05-2005 00:59:03 10.1 C 8.7 g/m*3 10.1 C 0 km/h
2645 15-05-2005 01:11:03 9.9 C 8.59 g/m*3 9.9 C 0 km/h
2646 15-05-2005 01:23:02 9.8 C 8.44 g/m*3 9.8 C 0 km/h
2647 15-05-2005 01:35:03 9.9 C 8.31 g/m*3 9.9 C 0 km/h
2648 15-05-2005 01:47:02 9.9 C 8.31 g/m*3 9.9 C 0 km/h
2649 15-05-2005 01:59:02 9.7 C 8.2 g/m*3 9.7 C 0 km/h
2650 15-05-2005 02:11:02 9.7 C 8.3 g/m*3 9.7 C 0 km/h
Sensor: Nr:Datum:Temp:Abs-Feuchte:Windchill:Wind:
Aussen-T/F 2651 15-05-2005 02:23:02 9.7 C 8.3 g/m*3 9.7 C 0 km/h
2652 15-05-2005 02:35:01 9.6 C 8.34 g/m*3 9.6 C 0 km/h
2653 15-05-2005 02:48:03 9.5 C 8.28 g/m*3 9.5 C 0 km/h
2654 15-05-2005 03:00:03 9.5 C 8.37 g/m*3 9.5 C 0 km/h
2655 15-05-2005 03:12:03 9.3 C 8.27 g/m*3 9.3 C 0 km/h
2656 15-05-2005 03:24:03 9.2 C 8.22 g/m*3 9.2 C 0 km/h
2657 15-05-2005 03:36:02 9.2 C 8.3 g/m*3 9.2 C 0 km/h
2658 15-05-2005 03:48:02 9.1 C 8.25 g/m*3 9.1 C 0 km/h
2659 15-05-2005 04:00:02 9 C 8.2 g/m*3 9 C 0 km/h
2660 15-05-2005 04:12:02 9 C 8.2 g/m*3 9 C 0 km/h
2661 15-05-2005 04:24:01 9 C 8.2 g/m*3 9 C 0 km/h
2662 15-05-2005 04:36:01 9 C 8.2 g/m*3 9 C 0 km/h
2663 15-05-2005 04:48:02 8.9 C 8.23 g/m*3 8.9 C 0 km/h
2664 15-05-2005 05:00:02 8.7 C 8.13 g/m*3 8.7 C 0 km/h
2665 15-05-2005 05:12:02 8.3 C 7.92 g/m*3 8.3 C 0 km/h
2666 15-05-2005 05:24:02 8.1 C 7.74 g/m*3 8.1 C 0 km/h
2667 15-05-2005 05:36:03 8.2 C 7.79 g/m*3 8.2 C 0 km/h
2668 15-05-2005 05:48:01 8.1 C 7.74 g/m*3 8.1 C 0 km/h
2669 15-05-2005 06:00:01 8.2 C 7.79 g/m*3 8.2 C 0 km/h
2670 15-05-2005 06:12:01 8.1 C 7.74 g/m*3 8.1 C 0 km/h
2671 15-05-2005 06:24:02 8.2 C 7.7 g/m*3 8.2 C 0 km/h
2672 15-05-2005 06:36:02 8.1 C 7.57 g/m*3 8.1 C 0 km/h
2673 15-05-2005 06:48:01 8.2 C 7.54 g/m*3 8.2 C 0 km/h
2674 15-05-2005 07:00:01 8.2 C 7.54 g/m*3 8.2 C 0 km/h
2675 15-05-2005 07:12:02 8.4 C 7.55 g/m*3 8.4 C 0 km/h
Sensor: Nr:Datum:Temp:Abs-Feuchte:Windchill:Wind:
Aussen-T/F 2676 15-05-2005 07:24:01 8.6 C 7.73 g/m*3 8.6 C 0 km/h
2677 15-05-2005 07:36:01 8.9 C 7.88 g/m*3 8.9 C 0 km/h
2678 15-05-2005 07:48:01 8.7 C 7.61 g/m*3 8.7 C 0 km/h
2679 15-05-2005 08:00:01 8.8 C 7.4 g/m*3 8.8 C 0 km/h
2680 15-05-2005 08:12:01 8.7 C 7.26 g/m*3 8.7 C 0 km/h
2681 15-05-2005 08:24:01 8.5 C 6.49 g/m*3 8.5 C 0 km/h
2682 15-05-2005 08:36:01 8.7 C 6.57 g/m*3 8.7 C 0 km/h
2683 15-05-2005 08:48:02 9.1 C 6.57 g/m*3 9.1 C 0 km/h
2684 15-05-2005 09:00:02 9.5 C 6.55 g/m*3 9.5 C 0 km/h
2685 15-05-2005 09:12:02 9.7 C 6.45 g/m*3 9.7 C 0 km/h
2686 15-05-2005 09:24:02 9.9 C 6.16 g/m*3 9.9 C 0 km/h
2687 15-05-2005 09:36:02 9.9 C 6.16 g/m*3 9.9 C 0 km/h
2688 15-05-2005 09:48:02 10.2 C 6 g/m*3 10.2 C 0 km/h
2689 15-05-2005 10:00:02 10.5 C 5.82 g/m*3 10.5 C 0 km/h
2690 15-05-2005 10:12:02 10.7 C 6.09 g/m*3 10.7 C 0 km/h
2691 15-05-2005 10:24:02 11.6 C 5.92 g/m*3 11.6 C 0 km/h
2692 15-05-2005 10:36:02 12 C 6.18 g/m*3 12 C 0 km/h
2693 15-05-2005 10:48:02 11.9 C 5.93 g/m*3 11.9 C 0 km/h
2694 15-05-2005 11:00:02 12 C 5.86 g/m*3 12 C 0 km/h
2695 15-05-2005 11:12:02 12.6 C 5.86 g/m*3 12.6 C 0 km/h
2696 15-05-2005 11:24:02 12.5 C 5.61 g/m*3 12.5 C 0 km/h
2697 15-05-2005 11:36:02 13.9 C 5.75 g/m*3 13.9 C 0 km/h
2698 15-05-2005 11:48:02 13.4 C 5.7 g/m*3 13.4 C 0 km/h
2699 15-05-2005 12:00:02 13.5 C 5.26 g/m*3 13.5 C 0 km/h
2700 15-05-2005 12:12:02 13.3 C 4.97 g/m*3 13.3 C 0 km/h
Sensor: Nr:Datum:Temp:Abs-Feuchte:Windchill:Wind:
Aussen-T/F 2701 15-05-2005 12:24:02 12.5 C 4.84 g/m*3 12.5 C 0 km/h
2702 15-05-2005 12:36:02 12.3 C 4.89 g/m*3 12.3 C 0 km/h
2703 15-05-2005 12:48:03 12.1 C 4.83 g/m*3 12.1 C 0 km/h
2704 15-05-2005 13:00:03 12.1 C 4.72 g/m*3 12.1 C 0 km/h
2705 15-05-2005 13:12:03 12.4 C 5.03 g/m*3 12.4 C 0 km/h
2706 15-05-2005 13:24:04 12.2 C 5.07 g/m*3 12.2 C 0 km/h
2707 15-05-2005 13:36:05 12.1 C 5.15 g/m*3 12.1 C 0 km/h
2708 15-05-2005 13:48:02 12.2 C 5.18 g/m*3 12.2 C 0 km/h
2709 15-05-2005 14:00:02 12.1 C 5.47 g/m*3 12.1 C 0 km/h
2710 15-05-2005 14:12:02 12 C 5.54 g/m*3 12 C 0 km/h
2711 15-05-2005 14:24:02 12 C 5.65 g/m*3 12 C 0 km/h
2712 15-05-2005 14:36:02 11.8 C 5.79 g/m*3 11.8 C 0 km/h
2713 15-05-2005 14:48:02 11.8 C 5.89 g/m*3 11.8 C 0 km/h
2714 15-05-2005 15:00:02 11.9 C 5.93 g/m*3 11.9 C 0 km/h
2715 15-05-2005 15:12:02 12.2 C 5.94 g/m*3 12.2 C 0 km/h
2716 15-05-2005 15:24:02 12.7 C 6.12 g/m*3 12.7 C 0 km/h
2717 15-05-2005 15:36:02 12.7 C 6.12 g/m*3 12.7 C 0 km/h
2718 15-05-2005 15:48:02 13 C 6.01 g/m*3 13 C 0 km/h
2719 15-05-2005 16:00:02 13.3 C 6.12 g/m*3 13.3 C 0 km/h
2720 15-05-2005 16:12:02 13.6 C 6.12 g/m*3 13.6 C 0 km/h
2721 15-05-2005 16:24:03 13.2 C 5.97 g/m*3 13.2 C 0 km/h
2722 15-05-2005 16:36:03 12.6 C 6.2 g/m*3 12.6 C 0 km/h
2723 15-05-2005 16:48:01 12.5 C 6.27 g/m*3 12.5 C 0 km/h
2724 15-05-2005 17:00:01 12.4 C 6.45 g/m*3 12.4 C 0 km/h
2725 15-05-2005 17:12:02 12.3 C 6.41 g/m*3 12.3 C 0 km/h
Sensor: Nr:Datum:Temp:Abs-Feuchte:Windchill:Wind:
Aussen-T/F 2726 15-05-2005 17:24:01 12.4 C 6.45 g/m*3 12.4 C 0 km/h
2727 15-05-2005 17:36:01 12.6 C 6.42 g/m*3 12.6 C 0 km/h
2728 15-05-2005 17:48:02 13 C 6.46 g/m*3 13 C 0 km/h
2729 15-05-2005 18:00:02 12.8 C 6.5 g/m*3 12.8 C 0 km/h
2730 15-05-2005 18:12:02 12.8 C 6.61 g/m*3 12.8 C 0 km/h
2731 15-05-2005 18:24:02 12.6 C 6.75 g/m*3 12.6 C 0 km/h
2732 15-05-2005 18:36:02 12.6 C 6.86 g/m*3 12.6 C 0 km/h
2733 15-05-2005 18:48:02 12.7 C 6.79 g/m*3 12.7 C 0 km/h
2734 15-05-2005 19:00:02 12.9 C 6.88 g/m*3 12.9 C 0 km/h
2735 15-05-2005 19:12:03 12.6 C 6.75 g/m*3 12.6 C 0 km/h
2736 15-05-2005 19:24:02 12.6 C 6.75 g/m*3 12.6 C 0 km/h
2737 15-05-2005 19:36:03 12.5 C 6.71 g/m*3 12.5 C 0 km/h
2738 15-05-2005 19:48:03 12.6 C 6.86 g/m*3 12.6 C 0 km/h
2739 15-05-2005 20:00:03 12.7 C 7.01 g/m*3 12.7 C 0 km/h
2740 15-05-2005 20:12:05 12.6 C 7.08 g/m*3 12.6 C 0 km/h
2741 15-05-2005 20:24:03 12.5 C 7.26 g/m*3 12.5 C 0 km/h
2742 15-05-2005 20:36:04 12 C 7.25 g/m*3 12 C 0 km/h
2743 15-05-2005 20:48:02 11.2 C 7.1 g/m*3 11.2 C 0 km/h
2744 15-05-2005 21:00:03 10.6 C 7.22 g/m*3 10.6 C 0 km/h
2745 15-05-2005 21:12:02 10 C 7.05 g/m*3 10 C 0 km/h
2746 15-05-2005 21:24:02 9.6 C 7.15 g/m*3 9.6 C 0 km/h
2747 15-05-2005 21:36:01 9.3 C 7.1 g/m*3 9.3 C 0 km/h
2748 15-05-2005 21:48:04 9.2 C 7.14 g/m*3 9.2 C 0 km/h
2749 15-05-2005 22:00:04 9 C 7.14 g/m*3 9 C 0 km/h
2750 15-05-2005 22:12:02 8.6 C 7.13 g/m*3 8.6 C 0 km/h
Sensor: Nr:Datum:Temp:Abs-Feuchte:Windchill:Wind:
Aussen-T/F 2751 15-05-2005 22:24:03 8.4 C 7.13 g/m*3 8.4 C 0 km/h
2752 15-05-2005 22:36:04 8.5 C 7.26 g/m*3 8.5 C 0 km/h
2753 15-05-2005 22:48:03 8.2 C 7.2 g/m*3 8.2 C 0 km/h
2754 15-05-2005 23:00:03 8.2 C 7.29 g/m*3 8.2 C 0 km/h
2755 15-05-2005 23:12:03 8 C 7.19 g/m*3 8 C 0 km/h
2756 15-05-2005 23:24:02 7.8 C 7.18 g/m*3 7.8 C 0 km/h
2757 15-05-2005 23:36:02 7.7 C 7.14 g/m*3 7.7 C 0 km/h
2758 15-05-2005 23:48:02 7.8 C 7.26 g/m*3 7.8 C 0 km/h
2759 16-05-2005 00:00:02 7.6 C 7.17 g/m*3 7.6 C 0 km/h
2760 16-05-2005 00:12:02 7.4 C 7.08 g/m*3 7.4 C 0 km/h
2761 16-05-2005 00:24:02 7.3 C 7.03 g/m*3 7.3 C 0 km/h
2762 16-05-2005 00:36:02 7.2 C 7.06 g/m*3 7.2 C 0 km/h
2763 16-05-2005 00:48:02 7 C 6.97 g/m*3 7 C 0 km/h
2764 16-05-2005 01:00:02 7 C 6.97 g/m*3 7 C 0 km/h
2765 16-05-2005 01:12:01 6.8 C 7.04 g/m*3 6.8 C 0 km/h
2766 16-05-2005 01:24:02 6.8 C 7.04 g/m*3 6.8 C 0 km/h
2767 16-05-2005 01:36:02 6.6 C 6.95 g/m*3 6.6 C 0 km/h
2768 16-05-2005 01:48:02 6.5 C 6.9 g/m*3 6.5 C 0 km/h
2769 16-05-2005 02:00:02 6.4 C 6.85 g/m*3 6.4 C 0 km/h
2770 16-05-2005 02:12:02 6.4 C 6.85 g/m*3 6.4 C 0 km/h
2771 16-05-2005 02:24:02 6.2 C 6.77 g/m*3 6.2 C 0 km/h
2772 16-05-2005 02:36:02 6 C 6.68 g/m*3 6 C 0 km/h
2773 16-05-2005 02:49:03 5.9 C 6.63 g/m*3 5.9 C 0 km/h
2774 16-05-2005 03:01:04 5.9 C 6.71 g/m*3 5.9 C 0 km/h
2775 16-05-2005 03:13:03 5.7 C 6.62 g/m*3 5.7 C 0 km/h
Sensor: Nr:Datum:Temp:Abs-Feuchte:Windchill:Wind:
Aussen-T/F 2776 16-05-2005 03:25:03 5.7 C 6.62 g/m*3 5.7 C 0 km/h
2777 16-05-2005 03:37:02 5.8 C 6.73 g/m*3 5.8 C 0 km/h
2778 16-05-2005 03:49:02 5.9 C 6.78 g/m*3 5.9 C 0 km/h
2779 16-05-2005 04:01:03 5.8 C 6.73 g/m*3 5.8 C 0 km/h
2780 16-05-2005 04:13:03 5.5 C 6.53 g/m*3 5.5 C 0 km/h
2781 16-05-2005 04:25:02 5.4 C 6.49 g/m*3 5.4 C 0 km/h
2782 16-05-2005 04:37:02 5.2 C 6.4 g/m*3 5.2 C 0 km/h
2783 16-05-2005 04:49:02 5.4 C 6.49 g/m*3 5.4 C 0 km/h
2784 16-05-2005 05:01:02 5.6 C 6.65 g/m*3 5.6 C 0 km/h
2785 16-05-2005 05:13:02 5.4 C 6.56 g/m*3 5.4 C 0 km/h
2786 16-05-2005 05:25:03 5.4 C 6.56 g/m*3 5.4 C 0 km/h
2787 16-05-2005 05:37:02 5.3 C 6.52 g/m*3 5.3 C 0 km/h
2788 16-05-2005 05:49:02 5.4 C 6.56 g/m*3 5.4 C 0 km/h
2789 16-05-2005 06:01:02 5.4 C 6.56 g/m*3 5.4 C 0 km/h
2790 16-05-2005 06:13:02 5.4 C 6.56 g/m*3 5.4 C 0 km/h
2791 16-05-2005 06:25:02 5.6 C 6.72 g/m*3 5.6 C 0 km/h
2792 16-05-2005 06:37:01 5.6 C 6.72 g/m*3 5.6 C 0 km/h
2793 16-05-2005 06:49:02 5.6 C 6.65 g/m*3 5.6 C 0 km/h
2794 16-05-2005 07:01:02 5.5 C 6.6 g/m*3 5.5 C 0 km/h
2795 16-05-2005 07:13:02 5.4 C 6.56 g/m*3 5.4 C 0 km/h
2796 16-05-2005 07:25:02 5.5 C 6.6 g/m*3 5.5 C 0 km/h
2797 16-05-2005 07:37:02 5.7 C 6.69 g/m*3 5.7 C 0 km/h
2798 16-05-2005 07:49:03 6.1 C 6.79 g/m*3 6.1 C 0 km/h
2799 16-05-2005 08:01:02 6.8 C 7.11 g/m*3 6.8 C 0 km/h
2800 16-05-2005 08:13:02 6.6 C 6.72 g/m*3 6.6 C 0 km/h
Sensor: Nr:Datum:Temp:Abs-Feuchte:Windchill:Wind:
Aussen-T/F 2801 16-05-2005 08:25:02 6.7 C 6.69 g/m*3 6.7 C 0 km/h
2802 16-05-2005 08:37:02 6.9 C 6.77 g/m*3 6.9 C 0 km/h
2803 16-05-2005 08:49:01 7.2 C 6.75 g/m*3 7.2 C 0 km/h
2804 16-05-2005 09:01:02 7.9 C 7.06 g/m*3 7.9 C 0 km/h
2805 16-05-2005 09:13:02 8.6 C 7.13 g/m*3 8.6 C 0 km/h
2806 16-05-2005 09:25:02 9.4 C 7.15 g/m*3 9.4 C 0 km/h
2807 16-05-2005 09:37:01 9.1 C 6.74 g/m*3 9.1 C 0 km/h
2808 16-05-2005 09:49:02 9.1 C 6.83 g/m*3 9.1 C 0 km/h
2809 16-05-2005 10:01:03 9.6 C 7.05 g/m*3 9.6 C 0 km/h
2810 16-05-2005 10:13:03 10.6 C 7.42 g/m*3 10.6 C 0 km/h
2811 16-05-2005 10:25:03 11.1 C 7.35 g/m*3 11.1 C 0 km/h
2812 16-05-2005 10:37:02 11.8 C 7.47 g/m*3 11.8 C 0 km/h
2813 16-05-2005 10:49:02 12.6 C 7.52 g/m*3 12.6 C 0 km/h
2814 16-05-2005 11:01:02 13.4 C 7.79 g/m*3 13.4 C 0 km/h
2815 16-05-2005 11:13:03 14.1 C 7.65 g/m*3 14.1 C 0 km/h
2816 16-05-2005 11:25:02 14.8 C 7.98 g/m*3 14.8 C 0 km/h
2817 16-05-2005 11:37:02 15.4 C 7.88 g/m*3 15.4 C 0 km/h
2818 16-05-2005 11:49:02 16 C 7.63 g/m*3 16 C 0 km/h
2819 16-05-2005 12:01:02 16.4 C 7.12 g/m*3 16.4 C 0 km/h
2820 16-05-2005 12:13:02 16.9 C 6.76 g/m*3 16.9 C 0 km/h
2821 16-05-2005 12:25:02 17 C 6.95 g/m*3 17 C 0 km/h
2822 16-05-2005 12:37:02 17.8 C 6.37 g/m*3 17.8 C 0 km/h
2823 16-05-2005 12:49:02 18.7 C 6.08 g/m*3 18.7 C 0 km/h
2824 16-05-2005 13:01:03 18.9 C 6.16 g/m*3 18.9 C 0 km/h
2825 16-05-2005 13:13:03 20.4 C 6.19 g/m*3 20.4 C 0 km/h
Sensor: Nr:Datum:Temp:Abs-Feuchte:Windchill:Wind:
Aussen-T/F 2826 16-05-2005 13:25:02 20.5 C 5.52 g/m*3 20.5 C 0 km/h
2827 16-05-2005 13:37:02 21.6 C 5.69 g/m*3 21.6 C 0 km/h
2828 16-05-2005 13:49:02 21.6 C 5.69 g/m*3 21.6 C 0 km/h
2829 16-05-2005 14:01:03 20.6 C 5.73 g/m*3 20.6 C 0 km/h
2830 16-05-2005 14:13:03 21.3 C 5.78 g/m*3 21.3 C 0 km/h
2831 16-05-2005 14:25:02 22.1 C 5.66 g/m*3 22.1 C 0 km/h
2832 16-05-2005 14:37:02 22.5 C 5.19 g/m*3 22.5 C 0 km/h
2833 16-05-2005 14:49:02 21.5 C 5.09 g/m*3 21.5 C 0 km/h
2834 16-05-2005 15:01:02 22.3 C 5.33 g/m*3 22.3 C 0 km/h
2835 16-05-2005 15:13:02 22.7 C 5.46 g/m*3 22.7 C 0 km/h
2836 16-05-2005 15:25:02 22.7 C 5.05 g/m*3 22.7 C 0 km/h
2837 16-05-2005 15:37:02 21.5 C 4.9 g/m*3 21.5 C 0 km/h
2838 16-05-2005 15:49:02 22.5 C 5.19 g/m*3 22.5 C 0 km/h
2839 16-05-2005 16:01:02 22.7 C 5.05 g/m*3 22.7 C 0 km/h
2840 16-05-2005 16:13:02 21.9 C 4.82 g/m*3 21.9 C 0 km/h
2841 16-05-2005 16:25:02 21.3 C 4.85 g/m*3 21.3 C 0 km/h
2842 16-05-2005 16:37:02 20.4 C 5.31 g/m*3 20.4 C 0 km/h
2843 16-05-2005 16:49:02 19.3 C 5.14 g/m*3 19.3 C 0 km/h
2844 16-05-2005 17:01:02 18.9 C 5.35 g/m*3 18.9 C 0 km/h
2845 16-05-2005 17:13:03 18.6 C 5.57 g/m*3 18.6 C 0 km/h
2846 16-05-2005 17:25:01 18.6 C 5.89 g/m*3 18.6 C 0 km/h
2847 16-05-2005 17:37:02 18.6 C 7.16 g/m*3 18.6 C 0 km/h
2848 16-05-2005 17:49:02 18.4 C 7.39 g/m*3 18.4 C 0 km/h
2849 16-05-2005 18:01:02 18.1 C 7.26 g/m*3 18.1 C 0 km/h
2850 16-05-2005 18:13:02 17.7 C 7.09 g/m*3 17.7 C 0 km/h
Sensor: Nr:Datum:Temp:Abs-Feuchte:Windchill:Wind:
Aussen-T/F 2851 16-05-2005 18:25:02 17.6 C 7.2 g/m*3 17.6 C 0 km/h
2852 16-05-2005 18:37:01 17.6 C 7.5 g/m*3 17.6 C 0 km/h
2853 16-05-2005 18:49:02 17.5 C 7.31 g/m*3 17.5 C 0 km/h
2854 16-05-2005 19:01:02 17.2 C 7.76 g/m*3 17.2 C 0 km/h
2855 16-05-2005 19:13:02 16.6 C 6.36 g/m*3 16.6 C 0 km/h
2856 16-05-2005 19:25:40 16.3 C 6.24 g/m*3 16.3 C 0 km/h
2857 16-05-2005 19:37:40 16.1 C 6.58 g/m*3 16.1 C 0 km/h
2858 16-05-2005 19:49:41 16 C 6.81 g/m*3 16 C 0 km/h
2859 16-05-2005 20:01:41 15.7 C 7.23 g/m*3 15.7 C 0 km/h
2860 16-05-2005 20:13:41 15.6 C 7.45 g/m*3 15.6 C 0 km/h
2861 16-05-2005 20:25:41 15.4 C 7.36 g/m*3 15.4 C 0 km/h
2862 16-05-2005 20:37:41 15.1 C 7.22 g/m*3 15.1 C 0 km/h
2863 16-05-2005 20:49:41 14.8 C 7.35 g/m*3 14.8 C 0 km/h
2864 16-05-2005 21:01:41 14.7 C 7.18 g/m*3 14.7 C 0 km/h
2865 16-05-2005 21:13:41 14.5 C 7.34 g/m*3 14.5 C 0 km/h
2866 16-05-2005 21:25:41 14.2 C 7.45 g/m*3 14.2 C 0 km/h
2867 16-05-2005 21:37:41 14.1 C 7.4 g/m*3 14.1 C 0 km/h
2868 16-05-2005 21:49:41 13.8 C 7.86 g/m*3 13.8 C 0 km/h
2869 16-05-2005 22:01:41 13.5 C 8.19 g/m*3 13.5 C 0 km/h
2870 16-05-2005 22:13:41 13.3 C 8.32 g/m*3 13.3 C 0 km/h
2871 16-05-2005 22:25:02 12.8 C 8.62 g/m*3 12.8 C 0 km/h
2872 16-05-2005 22:37:02 12.4 C 8.74 g/m*3 12.4 C 0 km/h
2873 16-05-2005 22:49:02 12.2 C 8.85 g/m*3 12.2 C 0 km/h
2874 16-05-2005 23:01:02 11.8 C 8.74 g/m*3 11.8 C 0 km/h
2875 16-05-2005 23:13:02 11.9 C 8.68 g/m*3 11.9 C 0 km/h
Sensor: Nr:Datum:Temp:Abs-Feuchte:Windchill:Wind:
Aussen-T/F 2876 16-05-2005 23:25:02 12 C 8.53 g/m*3 12 C 0 km/h
2877 16-05-2005 23:37:02 12 C 8.42 g/m*3 12 C 0 km/h
2878 16-05-2005 23:49:02 12.1 C 8.47 g/m*3 12.1 C 0 km/h
2879 17-05-2005 00:01:01 12 C 8.21 g/m*3 12 C 0 km/h
2880 17-05-2005 00:13:01 12.1 C 8.15 g/m*3 12.1 C 0 km/h
2881 17-05-2005 00:25:02 12 C 8.1 g/m*3 12 C 0 km/h
2882 17-05-2005 00:37:02 11.7 C 8.16 g/m*3 11.7 C 0 km/h
2883 17-05-2005 00:49:02 11.4 C 8.21 g/m*3 11.4 C 0 km/h
2884 17-05-2005 01:01:01 11.1 C 7.96 g/m*3 11.1 C 0 km/h
2885 17-05-2005 01:13:01 10.9 C 7.86 g/m*3 10.9 C 0 km/h
2886 17-05-2005 01:25:02 10.8 C 7.41 g/m*3 10.8 C 0 km/h
2887 17-05-2005 01:37:01 11.1 C 7.15 g/m*3 11.1 C 0 km/h
2888 17-05-2005 01:49:02 11.2 C 6.89 g/m*3 11.2 C 0 km/h
2889 17-05-2005 02:01:01 11.4 C 6.67 g/m*3 11.4 C 0 km/h
2890 17-05-2005 02:13:01 11.2 C 6.59 g/m*3 11.2 C 0 km/h
2891 17-05-2005 02:25:02 11.2 C 6.59 g/m*3 11.2 C 0 km/h
2892 17-05-2005 02:37:02 11.1 C 6.55 g/m*3 11.1 C 0 km/h
2893 17-05-2005 02:50:03 11 C 6.61 g/m*3 11 C 0 km/h
2894 17-05-2005 03:02:03 10.8 C 6.72 g/m*3 10.8 C 0 km/h
2895 17-05-2005 03:14:03 10.6 C 6.73 g/m*3 10.6 C 0 km/h
2896 17-05-2005 03:26:03 10.4 C 6.75 g/m*3 10.4 C 0 km/h
2897 17-05-2005 03:38:02 10.2 C 6.76 g/m*3 10.2 C 0 km/h
2898 17-05-2005 03:50:02 10.1 C 6.71 g/m*3 10.1 C 0 km/h
2899 17-05-2005 04:02:02 9.9 C 6.82 g/m*3 9.9 C 0 km/h
2900 17-05-2005 04:14:02 9.7 C 6.82 g/m*3 9.7 C 0 km/h
Sensor: Nr:Datum:Temp:Abs-Feuchte:Windchill:Wind:
Aussen-T/F 2901 17-05-2005 04:26:02 9.7 C 6.82 g/m*3 9.7 C 0 km/h
2902 17-05-2005 04:38:02 9.7 C 6.91 g/m*3 9.7 C 0 km/h
2903 17-05-2005 04:50:02 9.6 C 6.96 g/m*3 9.6 C 0 km/h
2904 17-05-2005 05:02:01 9.6 C 6.96 g/m*3 9.6 C 0 km/h
2905 17-05-2005 05:14:01 9.6 C 7.05 g/m*3 9.6 C 0 km/h
2906 17-05-2005 05:26:02 9.5 C 7.1 g/m*3 9.5 C 0 km/h
2907 17-05-2005 05:38:01 9.5 C 7.19 g/m*3 9.5 C 0 km/h
2908 17-05-2005 05:50:02 9.5 C 7.28 g/m*3 9.5 C 0 km/h
2909 17-05-2005 06:02:02 9.3 C 7.19 g/m*3 9.3 C 0 km/h
2910 17-05-2005 06:14:02 9.4 C 7.33 g/m*3 9.4 C 0 km/h
2911 17-05-2005 06:26:02 9.6 C 7.42 g/m*3 9.6 C 0 km/h
2912 17-05-2005 06:38:02 9.8 C 7.42 g/m*3 9.8 C 0 km/h
2913 17-05-2005 06:50:02 9.8 C 7.42 g/m*3 9.8 C 0 km/h
2914 17-05-2005 07:02:02 10 C 7.42 g/m*3 10 C 0 km/h
2915 17-05-2005 07:14:02 10.1 C 7.47 g/m*3 10.1 C 0 km/h
2916 17-05-2005 07:26:02 10.2 C 7.42 g/m*3 10.2 C 0 km/h
2917 17-05-2005 07:38:03 10.2 C 7.23 g/m*3 10.2 C 0 km/h
2918 17-05-2005 07:50:02 10.1 C 7.19 g/m*3 10.1 C 0 km/h
2919 17-05-2005 08:02:02 10.1 C 7.19 g/m*3 10.1 C 0 km/h
2920 17-05-2005 08:14:02 9.6 C 7.05 g/m*3 9.6 C 0 km/h
2921 17-05-2005 08:26:01 9.5 C 7.01 g/m*3 9.5 C 0 km/h
2922 17-05-2005 08:38:01 9.7 C 7.1 g/m*3 9.7 C 0 km/h
2923 17-05-2005 08:50:02 9.8 C 7.05 g/m*3 9.8 C 0 km/h
2924 17-05-2005 09:02:02 10 C 6.95 g/m*3 10 C 0 km/h
2925 17-05-2005 09:14:02 10.1 C 7 g/m*3 10.1 C 0 km/h
Sensor: Nr:Datum:Temp:Abs-Feuchte:Windchill:Wind:
Aussen-T/F 2926 17-05-2005 09:26:02 10.1 C 6.9 g/m*3 10.1 C 0 km/h
2927 17-05-2005 09:38:02 10.1 C 6.9 g/m*3 10.1 C 0 km/h
2928 17-05-2005 09:50:02 9.8 C 6.87 g/m*3 9.8 C 0 km/h
2929 17-05-2005 10:02:03 9.4 C 6.96 g/m*3 9.4 C 0 km/h
2930 17-05-2005 10:14:03 9.5 C 7.28 g/m*3 9.5 C 0 km/h
2931 17-05-2005 10:26:02 9.2 C 6.97 g/m*3 9.2 C 0 km/h
2932 17-05-2005 10:38:02 9.3 C 6.83 g/m*3 9.3 C 0 km/h
2933 17-05-2005 10:50:02 9 C 6.7 g/m*3 9 C 0 km/h
2934 17-05-2005 11:02:02 9 C 6.79 g/m*3 9 C 0 km/h
2935 17-05-2005 11:14:02 8.9 C 6.75 g/m*3 8.9 C 0 km/h
2936 17-05-2005 11:26:01 8.7 C 6.75 g/m*3 8.7 C 0 km/h
2937 17-05-2005 11:38:02 8.5 C 6.74 g/m*3 8.5 C 0 km/h
2938 17-05-2005 11:50:01 8.4 C 6.79 g/m*3 8.4 C 0 km/h
2939 17-05-2005 12:02:01 8.6 C 6.87 g/m*3 8.6 C 0 km/h
2940 17-05-2005 12:14:01 8.5 C 6.66 g/m*3 8.5 C 0 km/h
2941 17-05-2005 12:26:01 8.5 C 6.57 g/m*3 8.5 C 0 km/h
2942 17-05-2005 12:38:01 8.8 C 6.44 g/m*3 8.8 C 0 km/h
2943 17-05-2005 12:50:01 9.1 C 6.21 g/m*3 9.1 C 0 km/h
2944 17-05-2005 13:02:02 9.3 C 6.11 g/m*3 9.3 C 0 km/h
2945 17-05-2005 13:14:02 9.8 C 6.31 g/m*3 9.8 C 0 km/h
2946 17-05-2005 13:26:02 10.4 C 6.17 g/m*3 10.4 C 0 km/h
2947 17-05-2005 13:38:01 10.2 C 5.9 g/m*3 10.2 C 0 km/h
2948 17-05-2005 13:50:01 10.5 C 6.01 g/m*3 10.5 C 0 km/h
2949 17-05-2005 14:02:02 11 C 5.91 g/m*3 11 C 0 km/h
2950 17-05-2005 14:14:02 10.9 C 6.07 g/m*3 10.9 C 0 km/h
Sensor: Nr:Datum:Temp:Abs-Feuchte:Windchill:Wind:
Aussen-T/F 2951 17-05-2005 14:26:01 10.6 C 5.76 g/m*3 10.6 C 0 km/h
2952 17-05-2005 14:38:01 11.7 C 5.75 g/m*3 11.7 C 0 km/h
2953 17-05-2005 14:50:02 11 C 5.71 g/m*3 11 C 0 km/h
2954 17-05-2005 15:02:02 11.3 C 5.71 g/m*3 11.3 C 0 km/h
2955 17-05-2005 15:14:02 13 C 5.67 g/m*3 13 C 0 km/h
2956 17-05-2005 15:26:02 11.8 C 5.47 g/m*3 11.8 C 0 km/h
2957 17-05-2005 15:38:01 13.4 C 5.58 g/m*3 13.4 C 0 km/h
2958 17-05-2005 15:50:02 13 C 5.22 g/m*3 13 C 0 km/h
2959 17-05-2005 16:02:02 13.4 C 5.46 g/m*3 13.4 C 0 km/h
2960 17-05-2005 16:14:02 12.8 C 5.6 g/m*3 12.8 C 0 km/h
2961 17-05-2005 16:26:02 12.8 C 5.6 g/m*3 12.8 C 0 km/h
2962 17-05-2005 16:38:01 13.1 C 5.48 g/m*3 13.1 C 0 km/h
2963 17-05-2005 16:50:01 12.8 C 5.26 g/m*3 12.8 C 0 km/h
2964 17-05-2005 17:02:01 12.8 C 5.49 g/m*3 12.8 C 0 km/h
2965 17-05-2005 17:14:01 12.7 C 5.34 g/m*3 12.7 C 0 km/h
2966 17-05-2005 17:26:01 11.8 C 5.47 g/m*3 11.8 C 0 km/h
2967 17-05-2005 17:38:03 11.4 C 5.44 g/m*3 11.4 C 0 km/h
2968 17-05-2005 17:50:02 11.6 C 5.61 g/m*3 11.6 C 0 km/h
2969 17-05-2005 18:02:04 11.8 C 5.58 g/m*3 11.8 C 0 km/h
2970 17-05-2005 18:14:04 11.5 C 5.37 g/m*3 11.5 C 0 km/h
2971 17-05-2005 18:26:02 11.1 C 5.44 g/m*3 11.1 C 0 km/h
2972 17-05-2005 18:38:02 11.1 C 5.54 g/m*3 11.1 C 0 km/h
2973 17-05-2005 18:50:02 11.2 C 5.57 g/m*3 11.2 C 0 km/h
2974 17-05-2005 19:02:02 11 C 5.51 g/m*3 11 C 0 km/h
2975 17-05-2005 19:14:02 10.9 C 5.57 g/m*3 10.9 C 0 km/h
Sensor: Nr:Datum:Temp:Abs-Feuchte:Windchill:Wind:
Aussen-T/F 2976 17-05-2005 19:26:02 10.8 C 5.54 g/m*3 10.8 C 0 km/h
2977 17-05-2005 19:38:02 10.6 C 5.47 g/m*3 10.6 C 0 km/h
2978 17-05-2005 19:50:02 10.6 C 5.56 g/m*3 10.6 C 0 km/h
2979 17-05-2005 20:02:02 10.4 C 5.49 g/m*3 10.4 C 0 km/h
2980 17-05-2005 20:14:02 10.4 C 5.59 g/m*3 10.4 C 0 km/h
2981 17-05-2005 20:26:02 10.4 C 5.69 g/m*3 10.4 C 0 km/h
2982 17-05-2005 20:38:02 10.4 C 5.78 g/m*3 10.4 C 0 km/h
2983 17-05-2005 20:50:02 10.3 C 5.75 g/m*3 10.3 C 0 km/h
2984 17-05-2005 21:02:02 10.1 C 5.67 g/m*3 10.1 C 0 km/h
2985 17-05-2005 21:14:02 9.6 C 5.95 g/m*3 9.6 C 0 km/h
2986 17-05-2005 21:26:02 9 C 5.91 g/m*3 9 C 0 km/h
2987 17-05-2005 21:38:02 8.6 C 5.93 g/m*3 8.6 C 0 km/h
2988 17-05-2005 21:50:03 8.4 C 5.94 g/m*3 8.4 C 0 km/h
2989 17-05-2005 22:02:03 8.5 C 5.81 g/m*3 8.5 C 0 km/h
2990 17-05-2005 22:14:03 8.4 C 5.77 g/m*3 8.4 C 0 km/h
2991 17-05-2005 22:26:03 8.2 C 5.78 g/m*3 8.2 C 0 km/h
2992 17-05-2005 22:38:03 7.6 C 5.8 g/m*3 7.6 C 0 km/h
2993 17-05-2005 22:50:03 7.1 C 5.69 g/m*3 7.1 C 0 km/h
2994 17-05-2005 23:02:03 6.9 C 5.85 g/m*3 6.9 C 0 km/h
2995 17-05-2005 23:14:03 6.8 C 5.89 g/m*3 6.8 C 0 km/h
2996 17-05-2005 23:26:03 6.5 C 5.85 g/m*3 6.5 C 0 km/h
2997 17-05-2005 23:38:03 6.2 C 5.74 g/m*3 6.2 C 0 km/h
2998 17-05-2005 23:50:03 6 C 5.81 g/m*3 6 C 0 km/h
2999 18-05-2005 00:02:03 5.8 C 5.8 g/m*3 5.8 C 0 km/h
3000 18-05-2005 00:14:03 5.7 C 5.84 g/m*3 5.7 C 0 km/h
Sensor: Nr:Datum:Temp:Abs-Feuchte:Windchill:Wind:
Aussen-T/F 3001 18-05-2005 00:26:03 5.6 C 5.8 g/m*3 5.6 C 0 km/h
3002 18-05-2005 00:38:02 5.4 C 5.79 g/m*3 5.4 C 0 km/h
3003 18-05-2005 00:50:01 5.5 C 5.9 g/m*3 5.5 C 0 km/h
3004 18-05-2005 01:02:02 5.3 C 5.89 g/m*3 5.3 C 0 km/h
3005 18-05-2005 01:14:02 5.1 C 5.81 g/m*3 5.1 C 0 km/h
3006 18-05-2005 01:26:02 4.8 C 5.77 g/m*3 4.8 C 0 km/h
3007 18-05-2005 01:38:02 4.7 C 5.8 g/m*3 4.7 C 0 km/h
3008 18-05-2005 01:50:02 4.5 C 5.72 g/m*3 4.5 C 0 km/h
3009 18-05-2005 02:02:02 4.5 C 5.72 g/m*3 4.5 C 0 km/h
3010 18-05-2005 02:14:02 4.4 C 5.75 g/m*3 4.4 C 0 km/h
3011 18-05-2005 02:26:02 4.2 C 5.73 g/m*3 4.2 C 0 km/h
3012 18-05-2005 02:38:02 4.1 C 5.7 g/m*3 4.1 C 0 km/h
3013 18-05-2005 02:51:03 4 C 5.66 g/m*3 4 C 0 km/h
3014 18-05-2005 03:03:03 3.8 C 5.65 g/m*3 3.8 C 0 km/h
3015 18-05-2005 03:15:04 3.6 C 5.57 g/m*3 3.6 C 0 km/h
3016 18-05-2005 03:27:04 3.6 C 5.57 g/m*3 3.6 C 0 km/h
3017 18-05-2005 03:39:02 3.5 C 5.53 g/m*3 3.5 C 0 km/h
3018 18-05-2005 03:51:02 3.4 C 5.5 g/m*3 3.4 C 0 km/h
3019 18-05-2005 04:03:02 3.2 C 5.42 g/m*3 3.2 C 0 km/h
3020 18-05-2005 04:15:02 3.2 C 5.42 g/m*3 3.2 C 0 km/h
3021 18-05-2005 04:27:02 2.9 C 5.37 g/m*3 2.9 C 0 km/h
3022 18-05-2005 04:39:02 2.8 C 5.4 g/m*3 2.8 C 0 km/h
3023 18-05-2005 04:51:02 2.5 C 5.23 g/m*3 2.5 C 0 km/h
3024 18-05-2005 05:03:02 2.5 C 5.23 g/m*3 2.5 C 0 km/h
3025 18-05-2005 05:15:02 2.4 C 5.2 g/m*3 2.4 C 0 km/h
Sensor: Nr:Datum:Temp:Abs-Feuchte:Windchill:Wind:
Aussen-T/F 3026 18-05-2005 05:27:02 2.4 C 5.25 g/m*3 2.4 C 0 km/h
3027 18-05-2005 05:39:03 2.4 C 5.25 g/m*3 2.4 C 0 km/h
3028 18-05-2005 05:51:01 2.4 C 5.25 g/m*3 2.4 C 0 km/h
3029 18-05-2005 06:03:01 2.4 C 5.25 g/m*3 2.4 C 0 km/h
3030 18-05-2005 06:15:02 2.3 C 5.27 g/m*3 2.3 C 0 km/h
3031 18-05-2005 06:27:02 2.4 C 5.31 g/m*3 2.4 C 0 km/h
3032 18-05-2005 06:39:01 2.5 C 5.35 g/m*3 2.5 C 0 km/h
3033 18-05-2005 06:51:01 2.8 C 5.46 g/m*3 2.8 C 0 km/h
3034 18-05-2005 07:03:02 2.9 C 5.55 g/m*3 2.9 C 0 km/h
3035 18-05-2005 07:15:01 3.2 C 5.6 g/m*3 3.2 C 0 km/h
3036 18-05-2005 07:27:01 3.4 C 5.74 g/m*3 3.4 C 0 km/h
3037 18-05-2005 07:39:01 3.7 C 5.86 g/m*3 3.7 C 0 km/h
3038 18-05-2005 07:51:03 4.3 C 6.1 g/m*3 4.3 C 0 km/h
3039 18-05-2005 08:03:02 4.8 C 6.3 g/m*3 4.8 C 0 km/h
3040 18-05-2005 08:15:02 5.2 C 6.27 g/m*3 5.2 C 0 km/h
3041 18-05-2005 08:27:02 5.4 C 6.14 g/m*3 5.4 C 0 km/h
3042 18-05-2005 08:39:02 6 C 6.24 g/m*3 6 C 0 km/h
3043 18-05-2005 08:51:02 6.4 C 6.11 g/m*3 6.4 C 0 km/h
3044 18-05-2005 09:03:02 6.5 C 5.92 g/m*3 6.5 C 0 km/h
3045 18-05-2005 09:15:02 6.7 C 5.85 g/m*3 6.7 C 0 km/h
3046 18-05-2005 09:27:02 7.2 C 5.89 g/m*3 7.2 C 0 km/h
3047 18-05-2005 09:39:03 7.8 C 5.96 g/m*3 7.8 C 0 km/h
3048 18-05-2005 09:51:02 8.3 C 5.82 g/m*3 8.3 C 0 km/h
3049 18-05-2005 10:03:03 8.2 C 5.78 g/m*3 8.2 C 0 km/h
3050 18-05-2005 10:15:02 9 C 5.91 g/m*3 9 C 0 km/h
Sensor: Nr:Datum:Temp:Abs-Feuchte:Windchill:Wind:
Aussen-T/F 3051 18-05-2005 10:27:02 9.5 C 5.73 g/m*3 9.5 C 0 km/h
3052 18-05-2005 10:39:02 9.6 C 5.4 g/m*3 9.6 C 0 km/h
3053 18-05-2005 10:51:02 10.3 C 5.36 g/m*3 10.3 C 0 km/h
3054 18-05-2005 11:03:03 10.6 C 5.27 g/m*3 10.6 C 0 km/h
3055 18-05-2005 11:15:02 11.2 C 4.76 g/m*3 11.2 C 0 km/h
3056 18-05-2005 11:27:02 10.7 C 4.42 g/m*3 10.7 C 0 km/h
3057 18-05-2005 11:39:02 11.6 C 4.57 g/m*3 11.6 C 0 km/h
3058 18-05-2005 11:51:02 12.1 C 4.29 g/m*3 12.1 C 0 km/h
3059 18-05-2005 12:03:02 12.4 C 4.26 g/m*3 12.4 C 0 km/h
3060 18-05-2005 12:15:02 13.3 C 4.16 g/m*3 13.3 C 0 km/h
3061 18-05-2005 12:27:02 14 C 4.22 g/m*3 14 C 0 km/h
3062 18-05-2005 12:39:04 13.7 C 4.14 g/m*3 13.7 C 0 km/h
3063 18-05-2005 12:51:02 13.9 C 4.2 g/m*3 13.9 C 0 km/h
3064 18-05-2005 13:03:02 13.3 C 4.16 g/m*3 13.3 C 0 km/h
3065 18-05-2005 13:15:02 14.1 C 4.37 g/m*3 14.1 C 0 km/h
3066 18-05-2005 13:27:02 13.6 C 4.47 g/m*3 13.6 C 0 km/h
3067 18-05-2005 13:39:02 13.6 C 4.47 g/m*3 13.6 C 0 km/h
3068 18-05-2005 13:51:02 13 C 4.2 g/m*3 13 C 0 km/h
3069 18-05-2005 14:03:02 14.3 C 4.05 g/m*3 14.3 C 0 km/h
3070 18-05-2005 14:15:01 15 C 4.1 g/m*3 15 C 0 km/h
3071 18-05-2005 14:27:01 14.5 C 4.1 g/m*3 14.5 C 0 km/h
3072 18-05-2005 14:39:01 14.8 C 3.93 g/m*3 14.8 C 0 km/h
3073 18-05-2005 14:51:02 15 C 3.98 g/m*3 15 C 0 km/h
3074 18-05-2005 15:03:01 13.9 C 3.96 g/m*3 13.9 C 0 km/h
3075 18-05-2005 15:15:02 13.7 C 4.03 g/m*3 13.7 C 0 km/h
Sensor: Nr:Datum:Temp:Abs-Feuchte:Windchill:Wind:
Aussen-T/F 3076 18-05-2005 15:27:02 14.5 C 3.86 g/m*3 14.5 C 0 km/h
3077 18-05-2005 15:39:02 14.9 C 3.82 g/m*3 14.9 C 0 km/h
3078 18-05-2005 15:51:03 14.1 C 3.76 g/m*3 14.1 C 0 km/h
3079 18-05-2005 16:03:03 13.2 C 3.79 g/m*3 13.2 C 0 km/h
3080 18-05-2005 16:15:03 13.7 C 3.79 g/m*3 13.7 C 0 km/h
3081 18-05-2005 16:27:03 14.7 C 4.03 g/m*3 14.7 C 0 km/h
3082 18-05-2005 16:39:03 15.5 C 3.57 g/m*3 15.5 C 0 km/h
3083 18-05-2005 16:51:03 16 C 3.54 g/m*3 16 C 0 km/h
3084 18-05-2005 17:03:03 15.4 C 3.68 g/m*3 15.4 C 0 km/h
3085 18-05-2005 17:15:02 15.2 C 3.76 g/m*3 15.2 C 0 km/h
3086 18-05-2005 17:27:02 14.5 C 3.86 g/m*3 14.5 C 0 km/h
3087 18-05-2005 17:39:02 16.2 C 4.14 g/m*3 16.2 C 0 km/h
3088 18-05-2005 17:51:02 17.4 C 3.71 g/m*3 17.4 C 0 km/h
3089 18-05-2005 18:03:02 17 C 3.47 g/m*3 17 C 0 km/h
3090 18-05-2005 18:15:02 17.8 C 3.49 g/m*3 17.8 C 0 km/h
3091 18-05-2005 18:27:02 18.2 C 3.42 g/m*3 18.2 C 0 km/h
3092 18-05-2005 18:39:02 16.9 C 3.45 g/m*3 16.9 C 0 km/h
3093 18-05-2005 18:51:02 18 C 3.53 g/m*3 18 C 0 km/h
3094 18-05-2005 19:03:02 17.4 C 3.85 g/m*3 17.4 C 0 km/h
3095 18-05-2005 19:15:02 18.2 C 4.04 g/m*3 18.2 C 0 km/h
3096 18-05-2005 19:27:02 17.5 C 3.73 g/m*3 17.5 C 0 km/h
3097 18-05-2005 19:39:02 16.8 C 3.57 g/m*3 16.8 C 0 km/h
3098 18-05-2005 19:51:02 16.6 C 3.53 g/m*3 16.6 C 0 km/h
3099 18-05-2005 20:03:02 16 C 3.54 g/m*3 16 C 0 km/h
3100 18-05-2005 20:15:02 15.4 C 3.68 g/m*3 15.4 C 0 km/h
Sensor: Nr:Datum:Temp:Abs-Feuchte:Windchill:Wind:
Aussen-T/F 3101 18-05-2005 20:27:02 15.3 C 3.92 g/m*3 15.3 C 0 km/h
3102 18-05-2005 20:39:02 15 C 4.36 g/m*3 15 C 0 km/h
3103 18-05-2005 20:51:02 14.1 C 4.37 g/m*3 14.1 C 0 km/h
3104 18-05-2005 21:03:02 12.9 C 4.51 g/m*3 12.9 C 0 km/h
3105 18-05-2005 21:15:02 11.8 C 4.53 g/m*3 11.8 C 0 km/h
3106 18-05-2005 21:27:02 11 C 4.4 g/m*3 11 C 0 km/h
3107 18-05-2005 21:39:02 10.5 C 4.46 g/m*3 10.5 C 0 km/h
3108 18-05-2005 21:51:02 10.2 C 4.47 g/m*3 10.2 C 0 km/h
3109 18-05-2005 22:03:02 10 C 4.7 g/m*3 10 C 0 km/h
3110 18-05-2005 22:15:02 9.8 C 4.73 g/m*3 9.8 C 0 km/h
3111 18-05-2005 22:27:02 9.5 C 4.82 g/m*3 9.5 C 0 km/h
3112 18-05-2005 22:39:02 9 C 4.67 g/m*3 9 C 0 km/h
3113 18-05-2005 22:51:02 8.7 C 4.76 g/m*3 8.7 C 0 km/h
3114 18-05-2005 23:03:02 8.5 C 4.78 g/m*3 8.5 C 0 km/h
3115 18-05-2005 23:15:01 8.2 C 4.86 g/m*3 8.2 C 0 km/h
3116 18-05-2005 23:27:01 8.1 C 4.99 g/m*3 8.1 C 0 km/h
3117 18-05-2005 23:39:02 7.8 C 4.98 g/m*3 7.8 C 0 km/h
3118 18-05-2005 23:51:02 7.6 C 4.99 g/m*3 7.6 C 0 km/h
3119 19-05-2005 00:03:03 7.2 C 4.95 g/m*3 7.2 C 0 km/h
3120 19-05-2005 00:15:03 7.1 C 4.99 g/m*3 7.1 C 0 km/h
3121 19-05-2005 00:27:03 6.9 C 5.08 g/m*3 6.9 C 0 km/h
3122 19-05-2005 00:39:02 6.8 C 5.2 g/m*3 6.8 C 0 km/h
3123 19-05-2005 00:51:02 6.5 C 5.1 g/m*3 6.5 C 0 km/h
3124 19-05-2005 01:03:03 6.2 C 5.15 g/m*3 6.2 C 0 km/h
3125 19-05-2005 01:15:02 6 C 5.15 g/m*3 6 C 0 km/h
Sensor: Nr:Datum:Temp:Abs-Feuchte:Windchill:Wind:
Aussen-T/F 3126 19-05-2005 01:27:02 5.9 C 5.34 g/m*3 5.9 C 0 km/h
3127 19-05-2005 01:39:02 5.7 C 5.27 g/m*3 5.7 C 0 km/h
3128 19-05-2005 01:51:03 5.6 C 5.3 g/m*3 5.6 C 0 km/h
3129 19-05-2005 02:03:02 5.4 C 5.3 g/m*3 5.4 C 0 km/h
3130 19-05-2005 02:15:03 5.3 C 5.34 g/m*3 5.3 C 0 km/h
3131 19-05-2005 02:27:03 5.2 C 5.37 g/m*3 5.2 C 0 km/h
3132 19-05-2005 02:39:02 5 C 5.3 g/m*3 5 C 0 km/h
3133 19-05-2005 02:52:04 4.9 C 5.33 g/m*3 4.9 C 0 km/h
3134 19-05-2005 03:04:04 4.8 C 5.3 g/m*3 4.8 C 0 km/h
3135 19-05-2005 03:16:04 4.7 C 5.33 g/m*3 4.7 C 0 km/h
3136 19-05-2005 03:28:04 4.6 C 5.29 g/m*3 4.6 C 0 km/h
3137 19-05-2005 03:40:03 4.4 C 5.22 g/m*3 4.4 C 0 km/h
3138 19-05-2005 03:52:03 4.3 C 5.25 g/m*3 4.3 C 0 km/h
3139 19-05-2005 04:04:02 4.3 C 5.32 g/m*3 4.3 C 0 km/h
3140 19-05-2005 04:16:03 4.3 C 5.32 g/m*3 4.3 C 0 km/h
3141 19-05-2005 04:28:03 4.3 C 5.32 g/m*3 4.3 C 0 km/h
3142 19-05-2005 04:40:02 4.3 C 5.32 g/m*3 4.3 C 0 km/h
3143 19-05-2005 04:52:02 4.3 C 5.32 g/m*3 4.3 C 0 km/h
3144 19-05-2005 05:04:02 4.3 C 5.32 g/m*3 4.3 C 0 km/h
3145 19-05-2005 05:16:03 4.3 C 5.38 g/m*3 4.3 C 0 km/h
3146 19-05-2005 05:28:03 4.2 C 5.35 g/m*3 4.2 C 0 km/h
3147 19-05-2005 05:40:02 4.2 C 5.35 g/m*3 4.2 C 0 km/h
3148 19-05-2005 05:52:02 4.2 C 5.35 g/m*3 4.2 C 0 km/h
3149 19-05-2005 06:04:02 4.3 C 5.38 g/m*3 4.3 C 0 km/h
3150 19-05-2005 06:16:01 4.3 C 5.38 g/m*3 4.3 C 0 km/h
Sensor: Nr:Datum:Temp:Abs-Feuchte:Windchill:Wind:
Aussen-T/F 3151 19-05-2005 06:28:01 4.2 C 5.35 g/m*3 4.2 C 0 km/h
3152 19-05-2005 06:40:01 4.2 C 5.41 g/m*3 4.2 C 0 km/h
3153 19-05-2005 06:52:02 4.3 C 5.45 g/m*3 4.3 C 0 km/h
3154 19-05-2005 07:04:02 4.5 C 5.52 g/m*3 4.5 C 0 km/h
3155 19-05-2005 07:16:02 4.5 C 5.46 g/m*3 4.5 C 0 km/h
3156 19-05-2005 07:28:02 5.1 C 5.61 g/m*3 5.1 C 0 km/h
3157 19-05-2005 07:40:02 5.6 C 5.59 g/m*3 5.6 C 0 km/h
3158 19-05-2005 07:52:02 5.9 C 5.48 g/m*3 5.9 C 0 km/h
3159 19-05-2005 08:04:03 6.2 C 5.52 g/m*3 6.2 C 0 km/h
3160 19-05-2005 08:16:02 6.5 C 5.55 g/m*3 6.5 C 0 km/h
3161 19-05-2005 08:28:02 6.9 C 5.54 g/m*3 6.9 C 0 km/h
3162 19-05-2005 08:40:02 7.1 C 5.54 g/m*3 7.1 C 0 km/h
3163 19-05-2005 08:52:01 7.6 C 5.72 g/m*3 7.6 C 0 km/h
3164 19-05-2005 09:04:02 8.3 C 5.73 g/m*3 8.3 C 0 km/h
3165 19-05-2005 09:16:01 9.1 C 5.86 g/m*3 9.1 C 0 km/h
3166 19-05-2005 09:28:01 10.2 C 6 g/m*3 10.2 C 0 km/h
3167 19-05-2005 09:40:01 11.1 C 6.04 g/m*3 11.1 C 0 km/h
3168 19-05-2005 09:52:01 12.1 C 5.9 g/m*3 12.1 C 0 km/h
3169 19-05-2005 10:04:02 13 C 5.67 g/m*3 13 C 0 km/h
3170 19-05-2005 10:16:02 14 C 5.55 g/m*3 14 C 0 km/h
3171 19-05-2005 10:28:02 15 C 5.64 g/m*3 15 C 0 km/h
3172 19-05-2005 10:40:02 14.9 C 5.48 g/m*3 14.9 C 0 km/h
3173 19-05-2005 10:52:02 15.8 C 5.52 g/m*3 15.8 C 0 km/h
3174 19-05-2005 11:04:02 16.2 C 5.65 g/m*3 16.2 C 0 km/h
3175 19-05-2005 11:16:01 15.4 C 5.12 g/m*3 15.4 C 0 km/h
Sensor: Nr:Datum:Temp:Abs-Feuchte:Windchill:Wind:
Aussen-T/F 3176 19-05-2005 11:28:01 15.3 C 5.09 g/m*3 15.3 C 0 km/h
3177 19-05-2005 11:40:02 15.5 C 4.89 g/m*3 15.5 C 0 km/h
3178 19-05-2005 11:52:02 17 C 5.06 g/m*3 17 C 0 km/h
3179 19-05-2005 12:04:01 17.5 C 4.92 g/m*3 17.5 C 0 km/h
3180 19-05-2005 12:16:02 18.6 C 4.93 g/m*3 18.6 C 0 km/h
3181 19-05-2005 12:28:02 19.2 C 4.95 g/m*3 19.2 C 0 km/h
3182 19-05-2005 12:40:02 19.2 C 4.95 g/m*3 19.2 C 0 km/h
3183 19-05-2005 12:52:02 19.5 C 4.7 g/m*3 19.5 C 0 km/h
3184 19-05-2005 13:04:02 19.2 C 4.45 g/m*3 19.2 C 0 km/h
3185 19-05-2005 13:16:02 20.9 C 4.74 g/m*3 20.9 C 0 km/h
3186 19-05-2005 13:28:02 20.6 C 4.65 g/m*3 20.6 C 0 km/h
3187 19-05-2005 13:40:02 21 C 4.58 g/m*3 21 C 0 km/h
3188 19-05-2005 13:52:02 20.3 C 4.4 g/m*3 20.3 C 0 km/h
3189 19-05-2005 14:04:02 20.3 C 4.92 g/m*3 20.3 C 0 km/h
3190 19-05-2005 14:16:01 20.8 C 4.89 g/m*3 20.8 C 0 km/h
3191 19-05-2005 14:28:01 20 C 4.49 g/m*3 20 C 0 km/h
3192 19-05-2005 14:40:02 21.1 C 4.97 g/m*3 21.1 C 0 km/h
3193 19-05-2005 14:52:01 21.2 C 4.63 g/m*3 21.2 C 0 km/h
3194 19-05-2005 15:04:02 22.3 C 4.54 g/m*3 22.3 C 0 km/h
3195 19-05-2005 15:16:02 22.9 C 4.7 g/m*3 22.9 C 0 km/h
3196 19-05-2005 15:28:02 22.6 C 4.62 g/m*3 22.6 C 0 km/h
3197 19-05-2005 15:40:02 23.4 C 4.42 g/m*3 23.4 C 0 km/h
3198 19-05-2005 15:52:02 23.1 C 4.55 g/m*3 23.1 C 0 km/h
3199 19-05-2005 16:04:02 24 C 4.57 g/m*3 24 C 0 km/h
3200 19-05-2005 16:16:02 23.6 C 4.68 g/m*3 23.6 C 0 km/h
Sensor: Nr:Datum:Temp:Abs-Feuchte:Windchill:Wind:
Aussen-T/F 3201 19-05-2005 16:28:02 23.7 C 4.71 g/m*3 23.7 C 0 km/h
3202 19-05-2005 16:40:02 24.6 C 4.95 g/m*3 24.6 C 0 km/h
3203 19-05-2005 16:52:02 24.7 C 4.98 g/m*3 24.7 C 0 km/h
3204 19-05-2005 17:04:02 25.6 C 4.76 g/m*3 25.6 C 0 km/h
3205 19-05-2005 17:16:02 25.6 C 4.76 g/m*3 25.6 C 0 km/h
3206 19-05-2005 17:28:02 25.3 C 4.68 g/m*3 25.3 C 0 km/h
3207 19-05-2005 17:40:02 24.2 C 4.62 g/m*3 24.2 C 0 km/h
3208 19-05-2005 17:52:02 24.7 C 4.53 g/m*3 24.7 C 0 km/h
3209 19-05-2005 18:04:02 24.5 C 4.7 g/m*3 24.5 C 0 km/h
3210 19-05-2005 18:16:01 25.4 C 4.94 g/m*3 25.4 C 0 km/h
3211 19-05-2005 18:28:01 25.9 C 4.84 g/m*3 25.9 C 0 km/h
3212 19-05-2005 18:40:01 24.5 C 4.7 g/m*3 24.5 C 0 km/h
3213 19-05-2005 18:52:01 25.2 C 4.89 g/m*3 25.2 C 0 km/h
3214 19-05-2005 19:04:02 24.3 C 4.87 g/m*3 24.3 C 0 km/h
3215 19-05-2005 19:16:02 24.2 C 5.5 g/m*3 24.2 C 0 km/h
3216 19-05-2005 19:28:02 24.5 C 5.6 g/m*3 24.5 C 0 km/h
3217 19-05-2005 19:40:02 23.8 C 5.38 g/m*3 23.8 C 0 km/h
3218 19-05-2005 19:52:02 23.4 C 5.47 g/m*3 23.4 C 0 km/h
3219 19-05-2005 20:04:02 22 C 5.43 g/m*3 22 C 0 km/h
3220 19-05-2005 20:16:02 21 C 5.86 g/m*3 21 C 0 km/h
3221 19-05-2005 20:28:02 20.4 C 6.72 g/m*3 20.4 C 0 km/h
3222 19-05-2005 20:40:01 18.9 C 6.32 g/m*3 18.9 C 0 km/h
3223 19-05-2005 20:52:01 18.7 C 6.4 g/m*3 18.7 C 0 km/h
3224 19-05-2005 21:04:01 18 C 6.45 g/m*3 18 C 0 km/h
3225 19-05-2005 21:16:01 17.6 C 6.15 g/m*3 17.6 C 0 km/h
Sensor: Nr:Datum:Temp:Abs-Feuchte:Windchill:Wind:
Aussen-T/F 3226 19-05-2005 21:28:01 17.2 C 6.44 g/m*3 17.2 C 0 km/h
3227 19-05-2005 21:40:01 16.4 C 6.28 g/m*3 16.4 C 0 km/h
3228 19-05-2005 21:52:01 16 C 6.27 g/m*3 16 C 0 km/h
3229 19-05-2005 22:04:02 15.7 C 6.29 g/m*3 15.7 C 0 km/h
3230 19-05-2005 22:16:01 15.6 C 6.25 g/m*3 15.6 C 0 km/h
3231 19-05-2005 22:28:02 15.2 C 6.23 g/m*3 15.2 C 0 km/h
3232 19-05-2005 22:40:02 14.8 C 6.46 g/m*3 14.8 C 0 km/h
3233 19-05-2005 22:52:01 14.5 C 6.34 g/m*3 14.5 C 0 km/h
3234 19-05-2005 23:04:01 14.5 C 6.34 g/m*3 14.5 C 0 km/h
3235 19-05-2005 23:16:02 14.4 C 6.3 g/m*3 14.4 C 0 km/h
3236 19-05-2005 23:28:02 14.5 C 6.22 g/m*3 14.5 C